
Distance (Route):
Temperature : 9.3°C
Humidity : 62.1%
Pressure : 865.1hPa| Receiver | Frames | First received | Last received |
|---|---|---|---|
| OM5KV | 568 | 2026-09-06 00:09:10 | 2026-09-06 00:48:57 |
| SQ9EZE-13 | 305 | 2026-09-05 23:27:32 | 2026-09-06 01:00:29 |
| GYPAP8-17 | 89 | 2026-09-05 23:23:26 | 2026-09-06 01:20:04 |
| SQ9EZE-14 | 69 | 2026-09-05 23:28:12 | 2026-09-06 01:00:26 |
| PG1ADW-2 | 34 | 2026-09-06 00:36:37 | 2026-09-06 00:54:34 |
| LZ4TU-5 | 31 | 2026-09-06 00:25:05 | 2026-09-06 00:58:36 |
| HA6NAB-11 | 30 | 2026-09-06 00:41:24 | 2026-09-06 00:52:52 |
| OE5DRO-10 | 15 | 2026-09-06 00:45:27 | 2026-09-06 00:53:43 |
| OE5DXL-15 | 11 | 2026-09-06 00:47:07 | 2026-09-06 00:52:49 |
| Receiver | Date | Latitude | Longitude | Direction | Speed | Altitude | Climb | Temperature | Humidity | Pressure | Voltage | Killtimer | Uptime | BKT | XDATA |
|---|---|---|---|---|---|---|---|---|---|---|---|---|---|---|---|
| GYPAP8-17 | 2026-09-06 01:20:04 | 48.44651 | 22.31837 | 144° | 55km/h | 1414m | -13.0m/s | 9.3°C | 62.1% | 865.1hPa | 2.6V | 00:00:00 | 00:00:00 | 00:00:00 | |
| GYPAP8-17 | 2026-09-06 01:18:58 | 48.45160 | 22.30931 | 112° | 42km/h | 2213m | -13.6m/s | 3.2°C | 70.3% | 784.8hPa | 2.6V | 00:00:00 | 00:00:00 | 00:00:00 | |
| GYPAP8-17 | 2026-09-06 01:17:34 | 48.45483 | 22.29629 | 114° | 55km/h | 3249m | -14.2m/s | -4.0°C | 64.4% | 689.6hPa | 2.6V | 00:00:00 | 00:00:00 | 00:00:00 | |
| GYPAP8-17 | 2026-09-06 01:16:28 | 48.45935 | 22.28106 | 115° | 75km/h | 4088m | -13.3m/s | -7.9°C | 25.1% | 619.9hPa | 2.6V | 00:00:00 | 00:00:00 | 00:00:00 | |
| GYPAP8-17 | 2026-09-06 01:15:14 | 48.46543 | 22.25811 | 115° | 113km/h | 4973m | -13.4m/s | -11.1°C | 3.5% | 552.6hPa | 2.6V | 08:08:00 | 00:00:00 | 00:00:00 | |
| GYPAP8-17 | 2026-09-06 01:14:21 | 48.47252 | 22.23299 | 108° | 150km/h | 5667m | -14.9m/s | -14.1°C | 14.8% | 504.3hPa | 2.6V | 00:00:00 | 00:00:00 | 00:00:00 | |
| GYPAP8-17 | 2026-09-06 01:13:26 | 48.47877 | 22.20311 | 112° | 153km/h | 6448m | -14.6m/s | -18.5°C | 27.6% | 454.9hPa | 2.6V | 00:00:00 | 00:00:00 | 00:00:00 | |
| GYPAP8-17 | 2026-09-06 01:11:57 | 48.49227 | 22.15379 | 113° | 166km/h | 7691m | -14.4m/s | -28.1°C | 17.8% | 383.9hPa | 2.6V | 08:11:00 | 00:00:00 | 00:00:00 | |
| GYPAP8-17 | 2026-09-06 01:11:11 | 48.50116 | 22.12683 | 121° | 177km/h | 8315m | -13.9m/s | -32.3°C | 35.7% | 351.8hPa | 2.6V | 08:11:00 | 00:00:00 | 00:00:00 | |
| GYPAP8-17 | 2026-09-06 01:09:41 | 48.52513 | 22.07347 | 124° | 190km/h | 9472m | -12.2m/s | -40.3°C | 32.7% | 298.0hPa | 2.6V | 00:00:00 | 00:00:00 | 00:00:00 | |
| GYPAP8-17 | 2026-09-06 01:08:31 | 48.54312 | 22.02878 | 123° | 197km/h | 10370m | -15.3m/s | -47.8°C | 38.4% | 260.8hPa | 2.6V | 00:00:00 | 00:00:00 | 00:00:00 | |
| GYPAP8-17 | 2026-09-06 01:07:17 | 48.56174 | 21.98022 | 124° | 217km/h | 11538m | -16.8m/s | -54.5°C | 24.6% | 218.0hPa | 2.6V | 00:00:00 | 00:00:00 | 00:00:00 | |
| GYPAP8-17 | 2026-09-06 01:06:09 | 48.57881 | 21.93945 | 115° | 157km/h | 12673m | -17.6m/s | -54.5°C | 3.3% | 182.6hPa | 2.6V | 00:00:00 | 00:00:00 | 00:00:00 | |
| GYPAP8-17 | 2026-09-06 01:04:30 | 48.59389 | 21.88866 | 118° | 117km/h | 14415m | -19.2m/s | -53.2°C | 1.5% | 139.2hPa | 2.6V | 00:00:00 | 00:00:00 | 00:00:00 | |
| GYPAP8-17 | 2026-09-06 01:02:33 | 48.60089 | 21.85493 | 114° | 55km/h | 16741m | -21.9m/s | -55.7°C | 1.4% | 97.1hPa | 2.6V | 08:21:00 | 00:00:00 | 00:00:00 | |
| GYPAP8-17 | 2026-09-06 01:01:34 | 48.60291 | 21.84021 | 103° | 62km/h | 18061m | -22.1m/s | -54.8°C | 1.2% | 79.2hPa | 2.6V | 00:00:00 | 00:00:00 | 00:00:00 | |
| SQ9EZE-13 | 2026-09-06 01:00:29 | 48.60552 | 21.83202 | 83° | 18km/h | 19320m | -19.6m/s | -55.1°C | 1.1% | 65.1hPa | 2.6V | 00:00:00 | 00:00:00 | 00:00:00 | |
| SQ9EZE-14 | 2026-09-06 01:00:26 | 48.60551 | 21.83177 | 86° | 20km/h | 19379m | -20.0m/s | -55.6°C | 1.2% | 64.5hPa | 2.6V | 00:00:00 | 00:00:00 | 00:00:00 | |
| GYPAP8-17 | 2026-09-06 01:00:19 | 48.60555 | 21.83112 | 96° | 27km/h | 19518m | -19.7m/s | -56.1°C | 1.3% | 63.1hPa | 2.6V | 00:00:00 | 00:00:00 | 00:00:00 | |
| SQ9EZE-13 | 2026-09-06 01:00:12 | 48.60554 | 21.83027 | 85° | 35km/h | 19682m | -20.9m/s | -54.6°C | 1.2% | 61.5hPa | 2.6V | 00:00:00 | 00:00:00 | 00:00:00 | |
| SQ9EZE-13 | 2026-09-06 00:59:28 | 48.60487 | 21.82530 | 112° | 31km/h | 20605m | -22.8m/s | -53.9°C | 1.1% | 53.3hPa | 2.6V | 08:23:00 | 00:00:00 | 00:00:00 | |
| SQ9EZE-13 | 2026-09-06 00:59:11 | 48.60499 | 21.82422 | 85° | 29km/h | 20990m | -21.7m/s | -54.5°C | 1.1% | 50.2hPa | 2.6V | 08:23:00 | 00:00:00 | 00:00:00 | |
| GYPAP8-17 | 2026-09-06 00:59:07 | 48.60495 | 21.82379 | 81° | 27km/h | 21077m | -22.3m/s | -54.5°C | 1.2% | 49.5hPa | 2.6V | 00:00:00 | 00:00:00 | 00:00:00 | |
| SQ9EZE-13 | 2026-09-06 00:58:53 | 48.60434 | 21.82232 | 69° | 44km/h | 21398m | -23.5m/s | -53.6°C | 1.1% | 47.2hPa | 2.6V | 08:24:00 | 00:00:00 | 00:00:00 | |
| SQ9EZE-13 | 2026-09-06 00:58:38 | 48.60415 | 21.81993 | 101° | 42km/h | 21779m | -23.0m/s | -51.7°C | 1.0% | 44.5hPa | 2.6V | 08:24:00 | 00:00:00 | 00:00:00 | |
| LZ4TU-5 | 2026-09-06 00:58:36 | 48.60417 | 21.81978 | 105° | 40km/h | 21802m | -22.9m/s | 0°C | 0% | 44.3hPa | 2.6V | 00:00:00 | 00:00:00 | 00:00:00 | |
| LZ4TU-5 | 2026-09-06 00:58:31 | 48.60432 | 21.81912 | 116° | 35km/h | 21924m | -26.3m/s | 0°C | 0% | 43.5hPa | 2.6V | 00:00:00 | 00:00:00 | 00:00:00 | |
| SQ9EZE-13 | 2026-09-06 00:58:23 | 48.60480 | 21.81860 | 169° | 22km/h | 22188m | -29.9m/s | -51.6°C | 0.9% | 41.9hPa | 2.6V | 08:24:00 | 00:00:00 | 00:00:00 | |
| SQ9EZE-14 | 2026-09-06 00:58:07 | 48.60527 | 21.81834 | 128° | 13km/h | 22609m | -28.2m/s | -52.1°C | 0.9% | 39.1hPa | 2.6V | 00:00:00 | 00:00:00 | 00:00:00 | |
| SQ9EZE-13 | 2026-09-06 00:58:05 | 48.60530 | 21.81825 | 109° | 16km/h | 22667m | -29.1m/s | -51.9°C | 0.9% | 38.8hPa | 2.6V | 08:25:00 | 00:00:00 | 00:00:00 | |
| GYPAP8-17 | 2026-09-06 00:58:03 | 48.60533 | 21.81813 | 111° | 18km/h | 22724m | -28.3m/s | -51.8°C | 0.9% | 38.5hPa | 2.6V | 00:00:00 | 00:00:00 | 00:00:00 | |
| SQ9EZE-14 | 2026-09-06 00:57:52 | 48.60567 | 21.81751 | 135° | 16km/h | 23041m | -22.9m/s | -52.5°C | 1.0% | 36.6hPa | 2.6V | 00:00:00 | 00:00:00 | 00:00:00 | |
| SQ9EZE-13 | 2026-09-06 00:57:50 | 48.60570 | 21.81747 | 141° | 15km/h | 23063m | -22.0m/s | -52.6°C | 1.0% | 36.4hPa | 2.6V | 08:25:00 | 00:00:00 | 00:00:00 | |
| SQ9EZE-13 | 2026-09-06 00:57:34 | 48.60574 | 21.81766 | 338° | 16km/h | 23468m | -24.4m/s | -53.1°C | 1.0% | 34.3hPa | 2.6V | 08:25:00 | 00:00:00 | 00:00:00 | |
| SQ9EZE-13 | 2026-09-06 00:57:19 | 48.60551 | 21.81704 | 87° | 7km/h | 23867m | -27.3m/s | -53.1°C | 1.0% | 32.2hPa | 2.6V | 08:26:00 | 00:00:00 | 00:00:00 | |
| SQ9EZE-13 | 2026-09-06 00:57:04 | 48.60569 | 21.81637 | 117° | 7km/h | 24279m | -28.7m/s | -52.0°C | 1.0% | 30.2hPa | 2.6V | 08:26:00 | 00:00:00 | 00:00:00 | |
| LZ4TU-5 | 2026-09-06 00:56:56 | 48.60560 | 21.81608 | 55° | 13km/h | 24516m | -30.1m/s | 0°C | 0% | 29.2hPa | 2.6V | 00:00:00 | 00:00:00 | 00:00:00 | |
| LZ4TU-5 | 2026-09-06 00:56:51 | 48.60550 | 21.81604 | 4° | 16km/h | 24670m | -33.6m/s | 0°C | 0% | 28.5hPa | 2.6V | 00:00:00 | 00:00:00 | 00:00:00 | |
| GYPAP8-17 | 2026-09-06 00:56:50 | 48.60546 | 21.81604 | 359° | 20km/h | 24701m | -31.4m/s | -51.8°C | 0.9% | 28.3hPa | 2.6V | 00:00:00 | 00:00:00 | 00:00:00 | |
| SQ9EZE-13 | 2026-09-06 00:56:49 | 48.60541 | 21.81604 | 5° | 20km/h | 24731m | -29.6m/s | -51.6°C | 0.9% | 28.2hPa | 2.6V | 08:26:00 | 00:00:00 | 00:00:00 | |
| SQ9EZE-13 | 2026-09-06 00:56:34 | 48.60498 | 21.81484 | 30° | 11km/h | 25222m | -31.1m/s | -51.8°C | 1.0% | 26.2hPa | 2.6V | 00:00:00 | 00:00:00 | 00:00:00 | |
| SQ9EZE-13 | 2026-09-06 00:56:17 | 48.60507 | 21.81363 | 122° | 29km/h | 25729m | -34.5m/s | -50.2°C | 0.9% | 24.2hPa | 2.6V | 00:00:00 | 00:00:00 | 00:00:00 | |
| SQ9EZE-13 | 2026-09-06 00:56:00 | 48.60575 | 21.81277 | 164° | 42km/h | 26283m | -32.9m/s | -48.6°C | 0.8% | 22.2hPa | 2.6V | 00:00:00 | 00:00:00 | 00:00:00 | |
| GYPAP8-17 | 2026-09-06 00:55:45 | 48.60652 | 21.81216 | 158° | 22km/h | 26789m | -30.6m/s | -47.4°C | 0.7% | 20.6hPa | 2.6V | 00:00:00 | 00:00:00 | 00:00:00 | |
| SQ9EZE-13 | 2026-09-06 00:55:33 | 48.60714 | 21.81159 | 153° | 27km/h | 27144m | -28.7m/s | -46.7°C | 0.7% | 19.5hPa | 2.6V | 08:28:00 | 00:00:00 | 00:00:00 | |
| SQ9EZE-14 | 2026-09-06 00:55:32 | 48.60727 | 21.81151 | 164° | 26km/h | 27199m | -28.2m/s | -46.8°C | 0.7% | 19.3hPa | 2.6V | 00:00:00 | 00:00:00 | 00:00:00 | |
| SQ9EZE-13 | 2026-09-06 00:55:18 | 48.60744 | 21.81167 | 350° | 18km/h | 27583m | -30.8m/s | -47.2°C | 0.7% | 18.2hPa | 2.6V | 08:28:00 | 00:00:00 | 00:00:00 | |
| SQ9EZE-14 | 2026-09-06 00:55:15 | 48.60733 | 21.81170 | 3° | 13km/h | 27676m | -32.0m/s | -47.5°C | 0.8% | 18.0hPa | 2.6V | 00:00:00 | 00:00:00 | 00:00:00 | |
| LZ4TU-5 | 2026-09-06 00:55:12 | 48.60726 | 21.81165 | 68° | 11km/h | 27770m | -31.2m/s | 0°C | 0% | 17.7hPa | 2.6V | 00:00:00 | 00:00:00 | 00:00:00 | |
| LZ4TU-5 | 2026-09-06 00:55:07 | 48.60728 | 21.81141 | 118° | 16km/h | 27916m | -28.7m/s | 0°C | 0% | 17.3hPa | 2.6V | 00:00:00 | 00:00:00 | 00:00:00 | |
| SQ9EZE-13 | 2026-09-06 00:55:03 | 48.60740 | 21.81125 | 151° | 18km/h | 28041m | -31.9m/s | -47.6°C | 0.8% | 17.1hPa | 2.6V | 08:28:00 | 00:00:00 | 00:00:00 | |
| SQ9EZE-13 | 2026-09-06 00:54:48 | 48.60808 | 21.81068 | 139° | 13km/h | 28560m | -35.6m/s | -47.0°C | 0.8% | 15.7hPa | 2.6V | 00:00:00 | 00:00:00 | 00:00:00 | |
| PG1ADW-2 | 2026-09-06 00:54:34 | 48.60824 | 21.81019 | 80° | 15km/h | 29062m | -36.7m/s | -45.2°C | 2.8% | 14.6hPa | 2.6V | 00:00:00 | 00:00:00 | 00:00:00 | |
| SQ9EZE-13 | 2026-09-06 00:54:32 | 48.60823 | 21.81014 | 85° | 13km/h | 29099m | -36.9m/s | -45.1°C | 0.7% | 14.5hPa | 2.6V | 00:00:00 | 00:00:00 | 00:00:00 | |
| GYPAP8-17 | 2026-09-06 00:54:20 | 48.60834 | 21.80932 | 85° | 13km/h | 29644m | -49.0m/s | -44.9°C | 0.7% | 13.4hPa | 2.6V | 00:00:00 | 00:00:00 | 00:00:00 | |
| SQ9EZE-13 | 2026-09-06 00:54:17 | 48.60832 | 21.80924 | 71° | 7km/h | 29737m | -44.7m/s | -45.1°C | 0.7% | 13.3hPa | 2.6V | 00:00:00 | 00:00:00 | 00:00:00 | |
| PG1ADW-2 | 2026-09-06 00:54:14 | 48.60826 | 21.80912 | 35° | 22km/h | 29915m | -43.2m/s | -44.9°C | 2.9% | 12.9hPa | 2.6V | 00:00:00 | 00:00:00 | 00:00:00 | |
| OE5DRO-10 | 2026-09-06 00:53:43 | 48.60704 | 21.80620 | 86° | 35km/h | 31197m | -40.5m/s | -43.3°C | 2.7% | 10.6hPa | 2.6V | 00:00:00 | 00:00:00 | 00:00:00 | |
| SQ9EZE-13 | 2026-09-06 00:53:42 | 48.60704 | 21.80620 | 86° | 33km/h | 31197m | -40.5m/s | -43.4°C | 0.6% | 10.6hPa | 2.6V | 08:29:00 | 00:00:00 | 00:00:00 | |
| SQ9EZE-13 | 2026-09-06 00:53:27 | 48.60721 | 21.80408 | 108° | 42km/h | 31792m | -38.9m/s | -42.0°C | 0.6% | 9.7hPa | 2.6V | 08:29:00 | 00:00:00 | 00:00:00 | |
| PG1ADW-2 | 2026-09-06 00:53:15 | 48.60759 | 21.80265 | 106° | 26km/h | 32327m | -43.6m/s | -41.1°C | 2.3% | 8.9hPa | 2.6V | 00:00:00 | 02:13:27 | 00:00:00 | |
| SQ9EZE-13 | 2026-09-06 00:53:12 | 48.60762 | 21.80247 | 104° | 24km/h | 32415m | -42.4m/s | -40.9°C | 0.5% | 8.9hPa | 2.6V | 00:00:00 | 00:00:00 | 00:00:00 | |
| SQ9EZE-14 | 2026-09-06 00:53:08 | 48.60769 | 21.80203 | 111° | 22km/h | 32613m | -34.5m/s | -41.2°C | 0.5% | 8.6hPa | 2.6V | 00:00:00 | 00:00:00 | 00:00:00 | |
| SQ9EZE-13 | 2026-09-06 00:52:57 | 48.60785 | 21.80087 | 103° | 20km/h | 33005m | -38.9m/s | -42.2°C | 0.6% | 8.1hPa | 2.6V | 00:00:00 | 00:00:00 | 00:00:00 | |
| PG1ADW-2 | 2026-09-06 00:52:55 | 48.60788 | 21.80076 | 123° | 31km/h | 33078m | -34.5m/s | -41.9°C | 2.3% | 7.9hPa | 2.6V | 00:00:00 | 00:00:00 | 00:00:00 | |
| HA6NAB-11 | 2026-09-06 00:52:52 | 48.60790 | 21.80073 | 176° | 4km/h | 33142m | -29.3m/s | -42.1°C | 0.5% | 7.9hPa | 2.6V | 00:00:00 | 00:00:00 | 00:00:00 | |
| OE5DXL-15 | 2026-09-06 00:52:49 | 48.60790 | 21.80072 | 45° | 44km/h | 33249m | -25.8m/s | -41.9°C | 2.4% | 7.7hPa | 2.6V | 00:00:00 | 00:00:00 | 00:00:00 | |
| HA6NAB-11 | 2026-09-06 00:52:46 | 48.60781 | 21.80051 | 65° | 51km/h | 33304m | -28.4m/s | -42.0°C | 0.5% | 7.7hPa | 2.6V | 00:00:00 | 00:00:00 | 00:00:00 | |
| GYPAP8-17 | 2026-09-06 00:52:45 | 48.60775 | 21.80031 | 69° | 62km/h | 33332m | -26.0m/s | -42.1°C | 0.5% | 7.7hPa | 2.6V | 00:00:00 | 00:00:00 | 00:00:00 | |
| HA6NAB-11 | 2026-09-06 00:52:41 | 48.60757 | 21.79926 | 89° | 33km/h | 33467m | -28.7m/s | -42.4°C | 0.5% | 7.5hPa | 2.6V | 00:00:00 | 00:00:00 | 00:00:00 | |
| PG1ADW-2 | 2026-09-06 00:52:35 | 48.60772 | 21.79936 | 223° | 37km/h | 33650m | -32.0m/s | -42.0°C | 2.3% | 7.2hPa | 2.6V | 00:00:00 | 00:00:00 | 08:30:00 | |
| LZ4TU-5 | 2026-09-06 00:52:34 | 48.60772 | 21.79936 | 223° | 11km/h | 33650m | -32.0m/s | 0°C | 0% | 7.3hPa | 2.5V | 00:00:00 | 00:00:00 | 00:00:00 | |
| LZ4TU-5 | 2026-09-06 00:52:30 | 48.60755 | 21.79845 | 74° | 62km/h | 33792m | -10.6m/s | 0°C | 0% | 7.2hPa | 2.5V | 00:00:00 | 00:00:00 | 00:00:00 | |
| OE5DRO-10 | 2026-09-06 00:52:26 | 48.60740 | 21.79755 | 86° | 42km/h | 33780m | 5.9m/s | -42.3°C | 2.4% | 7.1hPa | 2.5V | 00:00:00 | 00:00:00 | 00:00:00 | |
| HA6NAB-11 | 2026-09-06 00:52:25 | 48.60740 | 21.79736 | 94° | 46km/h | 33775m | 5.2m/s | -42.3°C | 0.6% | 7.2hPa | 2.5V | 00:00:00 | 00:00:00 | 00:00:00 | |
| LZ4TU-5 | 2026-09-06 00:52:23 | 48.60742 | 21.79708 | 105° | 29km/h | 33762m | 7.4m/s | 0°C | 0% | 7.2hPa | 2.5V | 00:00:00 | 00:00:00 | 00:00:00 | |
| HA6NAB-11 | 2026-09-06 00:52:18 | 48.60748 | 21.79679 | 97° | 22km/h | 33738m | 3.5m/s | -42.5°C | 0.6% | 7.2hPa | 2.5V | 00:00:00 | 00:00:00 | 00:00:00 | |
| PG1ADW-2 | 2026-09-06 00:52:15 | 48.60749 | 21.79612 | 89° | 49km/h | 33712m | 6.7m/s | -42.5°C | 2.5% | 7.2hPa | 2.5V | 00:00:00 | 00:00:00 | 00:00:00 | |
| HA6NAB-11 | 2026-09-06 00:52:13 | 48.60748 | 21.79585 | 86° | 71km/h | 33707m | 4.9m/s | -42.5°C | 0.5% | 7.2hPa | 2.5V | 00:00:00 | 00:00:00 | 00:00:00 | |
| OE5DXL-15 | 2026-09-06 00:52:12 | 48.60742 | 21.79535 | 76° | 37km/h | 33696m | 5.8m/s | -42.4°C | 2.4% | 0hPa | 2.5V | 00:00:00 | 00:00:00 | 08:30:00 | |
| HA6NAB-11 | 2026-09-06 00:52:08 | 48.60728 | 21.79480 | 75° | 20km/h | 33672m | 6.9m/s | -42.4°C | 0.5% | 7.3hPa | 2.6V | 00:00:00 | 00:00:00 | 00:00:00 | |
| PG1ADW-2 | 2026-09-06 00:51:55 | 48.60738 | 21.79308 | 100° | 33km/h | 33594m | 5.1m/s | -42.5°C | 2.4% | 7.3hPa | 2.6V | 00:00:00 | 02:12:07 | 00:00:00 | |
| OE5DXL-15 | 2026-09-06 00:51:42 | 48.60742 | 21.79162 | 109° | 31km/h | 33519m | 3.6m/s | 0°C | 0% | 0hPa | 2.6V | 00:00:00 | 00:00:00 | 00:00:00 | |
| PG1ADW-2 | 2026-09-06 00:51:35 | 48.60699 | 21.79091 | 50° | 35km/h | 33478m | 5.0m/s | -42.7°C | 2.5% | 7.4hPa | 2.6V | 00:00:00 | 00:00:00 | 00:00:00 | |
| OE5DRO-10 | 2026-09-06 00:51:15 | 48.60648 | 21.78904 | 94° | 29km/h | 33357m | 7.4m/s | -42.2°C | 2.4% | 7.6hPa | 2.6V | 00:00:00 | 00:00:00 | 00:00:00 | |
| GYPAP8-17 | 2026-09-06 00:51:12 | 48.60647 | 21.78873 | 85° | 49km/h | 33344m | 5.1m/s | -42.2°C | 0.5% | 7.6hPa | 2.5V | 00:00:00 | 00:00:00 | 00:00:00 | |
| PG1ADW-2 | 2026-09-06 00:50:55 | 48.60601 | 21.78717 | 87° | 22km/h | 33235m | 6.7m/s | -42.2°C | 2.5% | 7.7hPa | 2.5V | 00:00:00 | 00:00:00 | 00:00:00 | |
| SQ9EZE-14 | 2026-09-06 00:50:52 | 48.60605 | 21.78701 | 141° | 26km/h | 33220m | 7.7m/s | -42.3°C | 0.6% | 7.8hPa | 2.5V | 00:00:00 | 00:00:00 | 00:00:00 | |
| SQ9EZE-13 | 2026-09-06 00:50:51 | 48.60610 | 21.78696 | 156° | 26km/h | 33213m | 5.9m/s | -42.3°C | 0.5% | 7.8hPa | 2.5V | 00:00:00 | 00:00:00 | 00:00:00 | |
| OE5DXL-15 | 2026-09-06 00:50:45 | 48.60610 | 21.78665 | 53° | 27km/h | 33169m | 6.7m/s | 0°C | 0% | 0hPa | 2.5V | 00:00:00 | 00:00:00 | 00:00:00 | |
| SQ9EZE-13 | 2026-09-06 00:50:36 | 48.60618 | 21.78603 | 156° | 20km/h | 33117m | 6.2m/s | -42.3°C | 0.6% | 7.9hPa | 2.5V | 00:00:00 | 00:00:00 | 00:00:00 | |
| PG1ADW-2 | 2026-09-06 00:50:31 | 48.60631 | 21.78565 | 63° | 29km/h | 33078m | 8.0m/s | -42.4°C | 2.4% | 7.9hPa | 2.5V | 00:00:00 | 02:10:43 | 00:00:00 | |
| LZ4TU-5 | 2026-09-06 00:50:27 | 48.60619 | 21.78528 | 87° | 29km/h | 33055m | 6.6m/s | 0°C | 0% | 8.0hPa | 2.5V | 00:00:00 | 00:00:00 | 00:00:00 | |
| LZ4TU-5 | 2026-09-06 00:50:21 | 48.60644 | 21.78476 | 144° | 35km/h | 33018m | 6.7m/s | 0°C | 0% | 8.0hPa | 2.5V | 00:00:00 | 00:00:00 | 00:00:00 | |
| OE5DRO-10 | 2026-09-06 00:50:17 | 48.60664 | 21.78435 | 106° | 35km/h | 32985m | 6.9m/s | -42.6°C | 2.5% | 8.0hPa | 2.5V | 00:00:00 | 00:00:00 | 00:00:00 | |
| OE5DXL-15 | 2026-09-06 00:50:13 | 48.60666 | 21.78394 | 85° | 31km/h | 32958m | 7.1m/s | 0°C | 0% | 0hPa | 2.5V | 00:00:00 | 00:00:00 | 00:00:00 | |
| PG1ADW-2 | 2026-09-06 00:50:11 | 48.60667 | 21.78376 | 102° | 35km/h | 32946m | 5.7m/s | -42.4°C | 2.5% | 8.1hPa | 2.5V | 00:00:00 | 00:00:00 | 00:00:00 | |
| SQ9EZE-13 | 2026-09-06 00:50:10 | 48.60667 | 21.78376 | 103° | 26km/h | 32946m | 5.8m/s | -42.5°C | 0.6% | 8.1hPa | 2.5V | 00:00:00 | 00:00:00 | 00:00:00 | |
| GYPAP8-17 | 2026-09-06 00:49:55 | 48.60687 | 21.78197 | 83° | 40km/h | 32842m | 7.4m/s | -42.2°C | 0.5% | 8.2hPa | 2.5V | 00:00:00 | 00:00:00 | 00:00:00 | |
| OE5DRO-10 | 2026-09-06 00:49:52 | 48.60692 | 21.78140 | 112° | 37km/h | 32816m | 7.1m/s | -42.2°C | 2.5% | 8.2hPa | 2.5V | 00:00:00 | 00:00:00 | 00:00:00 | |
| PG1ADW-2 | 2026-09-06 00:49:51 | 48.60696 | 21.78125 | 115° | 35km/h | 32809m | 7.8m/s | -42.1°C | 2.5% | 8.2hPa | 2.5V | 00:00:00 | 00:00:00 | 00:00:00 | |
| OE5DXL-15 | 2026-09-06 00:49:43 | 48.60686 | 21.78042 | 44° | 29km/h | 32758m | 4.2m/s | 0°C | 0% | 0hPa | 2.5V | 00:00:00 | 00:00:00 | 00:00:00 | |
| SQ9EZE-13 | 2026-09-06 00:49:37 | 48.60684 | 21.77966 | 120° | 49km/h | 32725m | 5.7m/s | -41.7°C | 0.5% | 8.4hPa | 2.5V | 00:00:00 | 00:00:00 | 00:00:00 | |
| HA6NAB-11 | 2026-09-06 00:49:31 | 48.60696 | 21.77917 | 41° | 24km/h | 32679m | 6.9m/s | -41.6°C | 0.5% | 8.5hPa | 2.5V | 00:00:00 | 00:00:00 | 00:00:00 | |
| OE5DRO-10 | 2026-09-06 00:49:28 | 48.60683 | 21.77890 | 66° | 37km/h | 32661m | 5.7m/s | -41.5°C | 2.4% | 8.4hPa | 2.5V | 00:00:00 | 00:00:00 | 08:30:00 | |
| HA6NAB-11 | 2026-09-06 00:49:24 | 48.60681 | 21.77856 | 107° | 29km/h | 32640m | 7.0m/s | -41.5°C | 0.6% | 8.5hPa | 2.5V | 00:00:00 | 00:00:00 | 00:00:00 | |
| SQ9EZE-13 | 2026-09-06 00:49:23 | 48.60688 | 21.77833 | 125° | 38km/h | 32627m | 6.7m/s | -41.4°C | 0.6% | 8.5hPa | 2.5V | 00:00:00 | 00:00:00 | 00:00:00 | |
| HA6NAB-11 | 2026-09-06 00:49:19 | 48.60706 | 21.77795 | 123° | 37km/h | 32607m | 4.5m/s | -41.4°C | 0.5% | 8.5hPa | 2.5V | 00:00:00 | 00:00:00 | 00:00:00 | |
| HA6NAB-11 | 2026-09-06 00:49:15 | 48.60710 | 21.77765 | 23° | 16km/h | 32573m | 5.9m/s | -41.3°C | 0.5% | 8.6hPa | 2.5V | 00:00:00 | 00:00:00 | 00:00:00 | |
| OE5DXL-15 | 2026-09-06 00:49:12 | 48.60696 | 21.77745 | 63° | 26km/h | 32555m | 6.9m/s | 0°C | 0% | 0hPa | 2.5V | 00:00:00 | 00:00:00 | 00:00:00 | |
| PG1ADW-2 | 2026-09-06 00:49:11 | 48.60693 | 21.77731 | 80° | 26km/h | 32549m | 6.2m/s | -41.3°C | 2.3% | 8.6hPa | 2.5V | 00:00:00 | 02:09:23 | 00:00:00 | |
| HA6NAB-11 | 2026-09-06 00:49:08 | 48.60694 | 21.77699 | 107° | 42km/h | 32536m | 7.0m/s | -41.3°C | 0.5% | 8.6hPa | 2.5V | 00:00:00 | 00:00:00 | 00:00:00 | |
| SQ9EZE-13 | 2026-09-06 00:49:06 | 48.60703 | 21.77673 | 128° | 33km/h | 32522m | 6.1m/s | -41.2°C | 0.5% | 8.6hPa | 2.5V | 00:00:00 | 00:00:00 | 00:00:00 | |
| HA6NAB-11 | 2026-09-06 00:49:03 | 48.60713 | 21.77649 | 79° | 15km/h | 32497m | 7.6m/s | -41.2°C | 0.5% | 8.7hPa | 2.5V | 00:00:00 | 00:00:00 | 00:00:00 | |
| OM5KV | 2026-09-06 00:48:57 | 48.60698 | 21.77616 | 61° | 18km/h | 32465m | 6.3m/s | -41.4°C | 0.5% | 8.7hPa | 2.5V | 00:00:00 | 00:00:00 | 00:00:00 | |
| PG1ADW-2 | 2026-09-06 00:48:51 | 48.60711 | 21.77554 | 118° | 26km/h | 32418m | 6.1m/s | -41.8°C | 2.4% | 8.7hPa | 2.5V | 00:00:00 | 00:00:00 | 00:00:00 | |
| SQ9EZE-14 | 2026-09-06 00:48:50 | 48.60715 | 21.77543 | 124° | 33km/h | 32412m | 6.7m/s | -41.9°C | 0.5% | 8.8hPa | 2.5V | 00:00:00 | 00:00:00 | 00:00:00 | |
| OM5KV | 2026-09-06 00:48:43 | 48.60729 | 21.77497 | 90° | 24km/h | 32365m | 5.9m/s | -42.0°C | 0.6% | 8.9hPa | 2.5V | 00:00:00 | 00:00:00 | 00:00:00 | |
| OE5DXL-15 | 2026-09-06 00:48:42 | 48.60729 | 21.77488 | 99° | 29km/h | 32360m | 6.0m/s | 0°C | 0% | 0hPa | 2.5V | 00:00:00 | 00:00:00 | 00:00:00 | |
| OM5KV | 2026-09-06 00:48:41 | 48.60729 | 21.77488 | 100° | 26km/h | 32360m | 6.1m/s | -42.0°C | 0.6% | 8.8hPa | 2.5V | 00:00:00 | 00:00:00 | 00:00:00 | |
| SQ9EZE-13 | 2026-09-06 00:48:35 | 48.60752 | 21.77432 | 117° | 33km/h | 32318m | 6.6m/s | -42.1°C | 0.5% | 8.9hPa | 2.5V | 00:00:00 | 00:00:00 | 00:00:00 | |
| SQ9EZE-14 | 2026-09-06 00:48:34 | 48.60757 | 21.77411 | 109° | 26km/h | 32306m | 6.6m/s | -42.2°C | 0.6% | 8.9hPa | 2.5V | 00:00:00 | 00:00:00 | 00:00:00 | |
| OM5KV | 2026-09-06 00:48:33 | 48.60759 | 21.77403 | 110° | 20km/h | 32298m | 8.2m/s | -42.3°C | 0.6% | 8.9hPa | 2.5V | 00:00:00 | 00:00:00 | 00:00:00 | |
| PG1ADW-2 | 2026-09-06 00:48:31 | 48.60762 | 21.77390 | 104° | 27km/h | 32285m | 5.4m/s | -42.3°C | 2.4% | 8.9hPa | 2.5V | 00:00:00 | 00:00:00 | 00:00:00 | |
| OM5KV | 2026-09-06 00:48:29 | 48.60763 | 21.77382 | 99° | 22km/h | 32279m | 6.1m/s | -42.4°C | 0.6% | 9.0hPa | 2.5V | 00:00:00 | 00:00:00 | 00:00:00 | |
| LZ4TU-5 | 2026-09-06 00:48:27 | 48.60764 | 21.77361 | 97° | 33km/h | 32265m | 7.0m/s | 0°C | 0% | 9.0hPa | 2.5V | 00:00:00 | 00:00:00 | 00:00:00 | |
| LZ4TU-5 | 2026-09-06 00:48:22 | 48.60773 | 21.77301 | 118° | 24km/h | 32232m | 6.4m/s | 0°C | 0% | 9.0hPa | 2.5V | 00:00:00 | 00:00:00 | 00:00:00 | |
| OM5KV | 2026-09-06 00:48:21 | 48.60778 | 21.77286 | 115° | 20km/h | 32219m | 6.8m/s | -42.6°C | 0.6% | 9.0hPa | 2.5V | 00:00:00 | 00:00:00 | 00:00:00 | |
| SQ9EZE-13 | 2026-09-06 00:48:20 | 48.60778 | 21.77286 | 115° | 20km/h | 32219m | 6.8m/s | -42.6°C | 0.6% | 9.0hPa | 2.5V | 00:00:00 | 00:00:00 | 00:00:00 | |
| OM5KV | 2026-09-06 00:48:14 | 48.60784 | 21.77225 | 109° | 26km/h | 32179m | 7.2m/s | -42.4°C | 0.6% | 9.1hPa | 2.5V | 00:00:00 | 00:00:00 | 00:00:00 | |
| OM5KV | 2026-09-06 00:48:13 | 48.60786 | 21.77216 | 116° | 26km/h | 32172m | 6.0m/s | -42.4°C | 0.6% | 9.1hPa | 2.5V | 00:00:00 | 00:00:00 | 00:00:00 | |
| OE5DXL-15 | 2026-09-06 00:48:12 | 48.60792 | 21.77196 | 111° | 42km/h | 32161m | 6.8m/s | 0°C | 0% | 0hPa | 2.5V | 00:00:00 | 00:00:00 | 00:00:00 | |
| PG1ADW-2 | 2026-09-06 00:48:11 | 48.60795 | 21.77184 | 108° | 42km/h | 32153m | 8.0m/s | -42.3°C | 2.4% | 9.1hPa | 2.5V | 00:00:00 | 00:00:00 | 00:00:00 | |
| OE5DRO-10 | 2026-09-06 00:48:05 | 48.60816 | 21.77102 | 114° | 42km/h | 32113m | 5.3m/s | -42.6°C | 2.5% | 9.1hPa | 2.5V | 00:00:00 | 00:00:00 | 00:00:00 | |
| SQ9EZE-13 | 2026-09-06 00:48:04 | 48.60816 | 21.77102 | 115° | 38km/h | 32113m | 5.4m/s | -42.7°C | 0.6% | 9.2hPa | 2.5V | 00:00:00 | 00:00:00 | 00:00:00 | |
| OM5KV | 2026-09-06 00:48:00 | 48.60827 | 21.77040 | 103° | 44km/h | 32086m | 5.9m/s | -42.7°C | 0.6% | 9.2hPa | 2.5V | 00:00:00 | 00:00:00 | 00:00:00 | |
| OM5KV | 2026-09-06 00:47:59 | 48.60830 | 21.77024 | 106° | 40km/h | 32079m | 8.0m/s | -42.7°C | 0.6% | 9.2hPa | 2.5V | 00:00:00 | 00:00:00 | 00:00:00 | |
| OM5KV | 2026-09-06 00:47:55 | 48.60844 | 21.76969 | 114° | 44km/h | 32052m | 7.7m/s | -42.7°C | 0.6% | 9.3hPa | 2.5V | 00:00:00 | 00:00:00 | 00:00:00 | |
| PG1ADW-2 | 2026-09-06 00:47:51 | 48.60868 | 21.76891 | 118° | 46km/h | 32018m | 6.5m/s | -42.6°C | 2.5% | 9.3hPa | 2.5V | 00:00:00 | 02:08:03 | 00:00:00 | |
| SQ9EZE-13 | 2026-09-06 00:47:48 | 48.60876 | 21.76864 | 110° | 38km/h | 32006m | 5.9m/s | -42.6°C | 0.6% | 9.4hPa | 2.5V | 00:00:00 | 00:00:00 | 00:00:00 | |
| OE5DRO-10 | 2026-09-06 00:47:45 | 48.60884 | 21.76794 | 99° | 51km/h | 31981m | 5.0m/s | -42.4°C | 2.5% | 9.3hPa | 2.5V | 00:00:00 | 00:00:00 | 00:00:00 | |
| OM5KV | 2026-09-06 00:47:43 | 48.60886 | 21.76774 | 104° | 53km/h | 31975m | 6.7m/s | -42.4°C | 0.6% | 9.4hPa | 2.5V | 00:00:00 | 00:00:00 | 00:00:00 | |
| OE5DXL-15 | 2026-09-06 00:47:37 | 48.60917 | 21.76658 | 96° | 42km/h | 31929m | 5.7m/s | 0°C | 0% | 0hPa | 2.5V | 00:00:00 | 02:07:49 | 00:00:00 | |
| OM5KV | 2026-09-06 00:47:35 | 48.60917 | 21.76639 | 91° | 47km/h | 31924m | 5.4m/s | -42.3°C | 0.6% | 9.5hPa | 2.5V | 00:00:00 | 00:00:00 | 00:00:00 | |
| GYPAP8-17 | 2026-09-06 00:47:34 | 48.60917 | 21.76606 | 88° | 40km/h | 31911m | 7.1m/s | -42.3°C | 0.6% | 9.5hPa | 2.5V | 00:00:00 | 00:00:00 | 00:00:00 | |
| SQ9EZE-13 | 2026-09-06 00:47:32 | 48.60916 | 21.76591 | 91° | 38km/h | 31904m | 6.0m/s | -42.3°C | 0.6% | 9.5hPa | 2.5V | 00:00:00 | 00:00:00 | 00:00:00 | |
| PG1ADW-2 | 2026-09-06 00:47:31 | 48.60918 | 21.76560 | 101° | 40km/h | 31892m | 6.7m/s | -42.3°C | 2.4% | 9.4hPa | 2.5V | 00:00:00 | 00:00:00 | 00:00:00 | |
| OM5KV | 2026-09-06 00:47:30 | 48.60918 | 21.76560 | 102° | 44km/h | 31892m | 6.7m/s | -42.3°C | 0.6% | 9.5hPa | 2.6V | 00:00:00 | 00:00:00 | 00:00:00 | |
| OM5KV | 2026-09-06 00:47:29 | 48.60921 | 21.76542 | 105° | 49km/h | 31885m | 7.7m/s | -42.4°C | 0.6% | 9.5hPa | 2.6V | 00:00:00 | 00:00:00 | 00:00:00 | |
| OE5DRO-10 | 2026-09-06 00:47:25 | 48.60941 | 21.76456 | 109° | 42km/h | 31853m | 6.5m/s | -42.4°C | 2.4% | 9.5hPa | 2.6V | 00:00:00 | 00:00:00 | 00:00:00 | |
| OM5KV | 2026-09-06 00:47:23 | 48.60943 | 21.76445 | 103° | 31km/h | 31847m | 5.4m/s | -42.5°C | 0.5% | 9.6hPa | 2.5V | 00:00:00 | 00:00:00 | 00:00:00 | |
| OM5KV | 2026-09-06 00:47:20 | 48.60943 | 21.76407 | 83° | 38km/h | 31828m | 7.1m/s | -42.6°C | 0.6% | 9.6hPa | 2.5V | 00:00:00 | 00:00:00 | 00:00:00 | |
| SQ9EZE-13 | 2026-09-06 00:47:17 | 48.60937 | 21.76341 | 86° | 42km/h | 31804m | 6.3m/s | -42.7°C | 0.6% | 9.6hPa | 2.5V | 00:00:00 | 00:00:00 | 00:00:00 | |
| PG1ADW-2 | 2026-09-06 00:47:11 | 48.60944 | 21.76268 | 105° | 38km/h | 31765m | 6.8m/s | -42.7°C | 2.4% | 9.6hPa | 2.5V | 00:00:00 | 00:00:00 | 00:00:00 | |
| OM5KV | 2026-09-06 00:47:09 | 48.60948 | 21.76236 | 99° | 44km/h | 31754m | 5.7m/s | -42.8°C | 0.5% | 9.7hPa | 2.5V | 00:00:00 | 00:00:00 | 00:00:00 | |
| OE5DXL-15 | 2026-09-06 00:47:07 | 48.60950 | 21.76204 | 93° | 40km/h | 31740m | 7.4m/s | 0°C | 0% | 0hPa | 2.5V | 00:00:00 | 00:00:00 | 00:00:00 | |
| OE5DRO-10 | 2026-09-06 00:47:04 | 48.60951 | 21.76163 | 95° | 38km/h | 31721m | 6.3m/s | -43.0°C | 2.4% | 9.7hPa | 2.5V | 00:00:00 | 00:00:00 | 00:00:00 | |
| SQ9EZE-13 | 2026-09-06 00:47:01 | 48.60958 | 21.76120 | 113° | 40km/h | 31701m | 5.6m/s | -43.3°C | 0.6% | 9.8hPa | 2.5V | 00:00:00 | 00:00:00 | 00:00:00 | |
| OM5KV | 2026-09-06 00:46:59 | 48.60962 | 21.76106 | 119° | 38km/h | 31695m | 5.9m/s | -43.3°C | 0.6% | 9.8hPa | 2.5V | 00:00:00 | 00:00:00 | 00:00:00 | |
| OM5KV | 2026-09-06 00:46:54 | 48.60988 | 21.76043 | 104° | 40km/h | 31656m | 7.5m/s | -43.7°C | 0.6% | 9.8hPa | 2.5V | 00:00:00 | 00:00:00 | 00:00:00 | |
| PG1ADW-2 | 2026-09-06 00:46:51 | 48.60989 | 21.75994 | 86° | 35km/h | 31637m | 7.3m/s | -43.8°C | 2.6% | 9.8hPa | 2.5V | 00:00:00 | 00:00:00 | 00:00:00 | |
| OM5KV | 2026-09-06 00:46:46 | 48.60987 | 21.75917 | 96° | 42km/h | 31605m | 5.9m/s | -44.4°C | 0.6% | 9.9hPa | 2.5V | 00:00:00 | 00:00:00 | 00:00:00 | |
| OE5DRO-10 | 2026-09-06 00:46:45 | 48.60988 | 21.75902 | 96° | 33km/h | 31600m | 5.0m/s | 0°C | 0% | 0hPa | 2.5V | 00:00:00 | 00:00:00 | 00:00:00 | |
| SQ9EZE-13 | 2026-09-06 00:46:44 | 48.60988 | 21.75902 | 96° | 38km/h | 31600m | 5.1m/s | -44.5°C | 0.6% | 9.9hPa | 2.5V | 00:00:00 | 00:00:00 | 00:00:00 | |
| OM5KV | 2026-09-06 00:46:42 | 48.60989 | 21.75877 | 90° | 27km/h | 31587m | 7.8m/s | -44.5°C | 0.6% | 9.9hPa | 2.5V | 00:00:00 | 00:00:00 | 00:00:00 | |
| OM5KV | 2026-09-06 00:46:39 | 48.60985 | 21.75849 | 72° | 27km/h | 31568m | 5.8m/s | -44.5°C | 0.6% | 10.0hPa | 2.5V | 00:00:00 | 00:00:00 | 00:00:00 | |
| HA6NAB-11 | 2026-09-06 00:46:37 | 48.60979 | 21.75826 | 74° | 38km/h | 31554m | 6.5m/s | -44.5°C | 0.6% | 10.0hPa | 2.5V | 00:00:00 | 00:00:00 | 00:00:00 | |
| OM5KV | 2026-09-06 00:46:35 | 48.60974 | 21.75796 | 76° | 40km/h | 31542m | 5.9m/s | -44.5°C | 0.6% | 10.0hPa | 2.5V | 00:00:00 | 00:00:00 | 00:00:00 | |
| OM5KV | 2026-09-06 00:46:34 | 48.60972 | 21.75782 | 77° | 37km/h | 31536m | 7.3m/s | -44.4°C | 0.6% | 10.0hPa | 2.5V | 00:00:00 | 00:00:00 | 00:00:00 | |
| SQ9EZE-14 | 2026-09-06 00:46:32 | 48.60968 | 21.75752 | 89° | 22km/h | 31516m | 6.2m/s | -44.3°C | 0.6% | 10.0hPa | 2.5V | 00:00:00 | 00:00:00 | 00:00:00 | |
| PG1ADW-2 | 2026-09-06 00:46:31 | 48.60968 | 21.75743 | 92° | 37km/h | 31509m | 6.3m/s | -44.2°C | 2.6% | 10.0hPa | 2.5V | 00:00:00 | 02:06:43 | 08:30:00 | |
| OM5KV | 2026-09-06 00:46:30 | 48.60968 | 21.75733 | 93° | 27km/h | 31503m | 6.9m/s | -44.3°C | 0.6% | 10.1hPa | 2.6V | 00:00:00 | 00:00:00 | 00:00:00 | |
| SQ9EZE-13 | 2026-09-06 00:46:29 | 48.60968 | 21.75733 | 93° | 27km/h | 31503m | 6.9m/s | -44.3°C | 0.6% | 10.1hPa | 2.6V | 00:00:00 | 00:00:00 | 00:00:00 | |
| HA6NAB-11 | 2026-09-06 00:46:28 | 48.60968 | 21.75710 | 87° | 33km/h | 31490m | 5.7m/s | -44.3°C | 0.6% | 10.1hPa | 2.6V | 00:00:00 | 00:00:00 | 00:00:00 | |
| OE5DRO-10 | 2026-09-06 00:46:25 | 48.60962 | 21.75675 | 68° | 38km/h | 31472m | 6.7m/s | 0°C | 0% | 0hPa | 2.6V | 00:00:00 | 00:00:00 | 00:00:00 | |
| OM5KV | 2026-09-06 00:46:24 | 48.60963 | 21.75675 | 68° | 29km/h | 31472m | 6.7m/s | -44.4°C | 0.6% | 10.1hPa | 2.6V | 00:00:00 | 00:00:00 | 00:00:00 | |
| HA6NAB-11 | 2026-09-06 00:46:21 | 48.60954 | 21.75638 | 80° | 38km/h | 31454m | 7.7m/s | -44.3°C | 0.6% | 10.1hPa | 2.6V | 00:00:00 | 00:00:00 | 00:00:00 | |
| HA6NAB-11 | 2026-09-06 00:46:17 | 48.60952 | 21.75557 | 88° | 38km/h | 31420m | 6.6m/s | -44.2°C | 0.6% | 10.2hPa | 2.6V | 00:00:00 | 00:00:00 | 00:00:00 | |
| SQ9EZE-14 | 2026-09-06 00:46:15 | 48.60952 | 21.75543 | 87° | 37km/h | 31414m | 5.9m/s | -44.2°C | 0.6% | 10.2hPa | 2.6V | 00:00:00 | 00:00:00 | 00:00:00 | |
| OM5KV | 2026-09-06 00:46:14 | 48.60951 | 21.75528 | 87° | 38km/h | 31408m | 6.3m/s | -44.2°C | 0.6% | 10.2hPa | 2.6V | 00:00:00 | 00:00:00 | 00:00:00 | |
| GYPAP8-17 | 2026-09-06 00:46:13 | 48.60950 | 21.75497 | 86° | 44km/h | 31393m | 6.2m/s | -44.2°C | 0.6% | 10.2hPa | 2.6V | 00:00:00 | 00:00:00 | 00:00:00 | |
| OM5KV | 2026-09-06 00:46:12 | 48.60950 | 21.75497 | 86° | 44km/h | 31393m | 6.2m/s | -44.2°C | 0.6% | 10.2hPa | 2.6V | 00:00:00 | 00:00:00 | 00:00:00 | |
| PG1ADW-2 | 2026-09-06 00:46:11 | 48.60946 | 21.75464 | 77° | 31km/h | 31382m | 6.3m/s | -44.2°C | 2.7% | 10.2hPa | 2.6V | 00:00:00 | 00:00:00 | 00:00:00 | |
| LZ4TU-5 | 2026-09-06 00:46:10 | 48.60944 | 21.75450 | 73° | 38km/h | 31374m | 7.6m/s | 0°C | 0% | 10.3hPa | 2.6V | 00:00:00 | 00:00:00 | 00:00:00 | |
| OM5KV | 2026-09-06 00:46:08 | 48.60938 | 21.75425 | 72° | 33km/h | 31361m | 5.6m/s | -44.4°C | 0.6% | 10.3hPa | 2.6V | 00:00:00 | 00:00:00 | 00:00:00 | |
| OE5DRO-10 | 2026-09-06 00:46:07 | 48.60934 | 21.75401 | 85° | 29km/h | 31348m | 7.5m/s | 0°C | 0% | 0hPa | 2.6V | 00:00:00 | 00:00:00 | 00:00:00 | |
| OM5KV | 2026-09-06 00:46:03 | 48.60934 | 21.75360 | 89° | 35km/h | 31330m | 5.9m/s | -44.4°C | 0.7% | 10.3hPa | 2.6V | 00:00:00 | 00:00:00 | 00:00:00 | |
| OM5KV | 2026-09-06 00:46:02 | 48.60934 | 21.75360 | 89° | 35km/h | 31330m | 5.9m/s | -44.4°C | 0.7% | 10.3hPa | 2.6V | 00:00:00 | 00:00:00 | 00:00:00 | |
| SQ9EZE-13 | 2026-09-06 00:45:58 | 48.60925 | 21.75317 | 63° | 33km/h | 31303m | 6.6m/s | -44.5°C | 0.6% | 10.4hPa | 2.6V | 00:00:00 | 00:00:00 | 00:00:00 | |
| OM5KV | 2026-09-06 00:45:54 | 48.60909 | 21.75260 | 67° | 26km/h | 31272m | 7.8m/s | -44.4°C | 0.6% | 10.4hPa | 2.6V | 00:00:00 | 00:00:00 | 00:00:00 | |
| OM5KV | 2026-09-06 00:45:52 | 48.60905 | 21.75245 | 78° | 18km/h | 31258m | 5.7m/s | -44.4°C | 0.6% | 10.4hPa | 2.6V | 00:00:00 | 00:00:00 | 00:00:00 | |
| OE5DRO-10 | 2026-09-06 00:45:47 | 48.60906 | 21.75200 | 89° | 29km/h | 31227m | 5.3m/s | 0°C | 0% | 0hPa | 2.6V | 00:00:00 | 00:00:00 | 00:00:00 | |
| OM5KV | 2026-09-06 00:45:46 | 48.60906 | 21.75200 | 89° | 26km/h | 31227m | 5.4m/s | -44.3°C | 0.6% | 10.5hPa | 2.6V | 00:00:00 | 00:00:00 | 00:00:00 | |
| SQ9EZE-13 | 2026-09-06 00:45:44 | 48.60900 | 21.75175 | 50° | 24km/h | 31207m | 5.7m/s | -44.4°C | 0.6% | 10.5hPa | 2.6V | 00:00:00 | 00:00:00 | 00:00:00 | |
| OM5KV | 2026-09-06 00:45:41 | 48.60887 | 21.75146 | 65° | 38km/h | 31188m | 7.2m/s | -44.5°C | 0.6% | 10.6hPa | 2.6V | 00:00:00 | 00:00:00 | 00:00:00 | |
| OM5KV | 2026-09-06 00:45:40 | 48.60883 | 21.75132 | 73° | 40km/h | 31182m | 6.1m/s | -44.5°C | 0.6% | 10.6hPa | 2.6V | 00:00:00 | 00:00:00 | 00:00:00 | |
| OM5KV | 2026-09-06 00:45:32 | 48.60889 | 21.75055 | 115° | 27km/h | 31134m | 6.8m/s | -44.3°C | 0.6% | 10.7hPa | 2.6V | 00:00:00 | 00:00:00 | 00:00:00 | |
| PG1ADW-2 | 2026-09-06 00:45:31 | 48.60892 | 21.75035 | 93° | 31km/h | 31122m | 6.1m/s | -44.3°C | 2.7% | 10.6hPa | 2.6V | 00:00:00 | 00:00:00 | 00:00:00 | |
| OM5KV | 2026-09-06 00:45:30 | 48.60891 | 21.75027 | 79° | 22km/h | 31115m | 7.9m/s | -44.3°C | 0.6% | 10.7hPa | 2.5V | 00:00:00 | 00:00:00 | 00:00:00 | |
| OM5KV | 2026-09-06 00:45:28 | 48.60889 | 21.75019 | 63° | 22km/h | 31107m | 7.1m/s | -44.2°C | 0.6% | 10.7hPa | 2.5V | 00:00:00 | 00:00:00 | 00:00:00 | |
| OE5DRO-10 | 2026-09-06 00:45:27 | 48.60882 | 21.75003 | 59° | 29km/h | 31096m | 4.7m/s | 0°C | 0% | 0hPa | 2.5V | 00:00:00 | 00:00:00 | 00:00:00 | |
| OM5KV | 2026-09-06 00:45:26 | 48.60882 | 21.75003 | 59° | 27km/h | 31096m | 4.7m/s | -44.2°C | 0.6% | 10.7hPa | 2.5V | 00:00:00 | 00:00:00 | 00:00:00 | |
| OM5KV | 2026-09-06 00:45:23 | 48.60875 | 21.74964 | 84° | 42km/h | 31076m | 6.5m/s | -44.4°C | 0.6% | 10.7hPa | 2.5V | 00:00:00 | 00:00:00 | 00:00:00 | |
| OM5KV | 2026-09-06 00:45:19 | 48.60875 | 21.74897 | 87° | 24km/h | 31044m | 5.3m/s | -44.5°C | 0.6% | 10.8hPa | 2.5V | 00:00:00 | 00:00:00 | 00:00:00 | |
| SQ9EZE-13 | 2026-09-06 00:45:13 | 48.60862 | 21.74826 | 73° | 42km/h | 31005m | 6.8m/s | -44.4°C | 0.6% | 10.8hPa | 2.5V | 00:00:00 | 00:00:00 | 00:00:00 | |
| OM5KV | 2026-09-06 00:45:12 | 48.60862 | 21.74826 | 73° | 42km/h | 31005m | 6.8m/s | -44.4°C | 0.6% | 10.8hPa | 2.5V | 00:00:00 | 00:00:00 | 00:00:00 | |
| PG1ADW-2 | 2026-09-06 00:45:11 | 48.60855 | 21.74798 | 68° | 24km/h | 30992m | 6.1m/s | -44.4°C | 2.7% | 10.8hPa | 2.5V | 00:00:00 | 02:05:23 | 00:00:00 | |
| GYPAP8-17 | 2026-09-06 00:45:08 | 48.60848 | 21.74772 | 66° | 38km/h | 30980m | 5.4m/s | -44.4°C | 0.6% | 10.9hPa | 2.5V | 00:00:00 | 00:00:00 | 00:00:00 | |
| OM5KV | 2026-09-06 00:45:00 | 48.60814 | 21.74682 | 54° | 26km/h | 30928m | 5.8m/s | -44.5°C | 0.6% | 11.0hPa | 2.5V | 00:00:00 | 00:00:00 | 00:00:00 | |
| OM5KV | 2026-09-06 00:44:57 | 48.60799 | 21.74636 | 72° | 38km/h | 30903m | 6.0m/s | -44.5°C | 0.6% | 11.0hPa | 2.5V | 00:00:00 | 00:00:00 | 00:00:00 | |
| SQ9EZE-13 | 2026-09-06 00:44:56 | 48.60799 | 21.74636 | 72° | 38km/h | 30903m | 6.0m/s | -44.5°C | 0.6% | 11.0hPa | 2.5V | 00:00:00 | 00:00:00 | 00:00:00 | |
| OM5KV | 2026-09-06 00:44:55 | 48.60796 | 21.74623 | 71° | 35km/h | 30896m | 7.8m/s | -44.6°C | 0.6% | 11.0hPa | 2.5V | 00:00:00 | 00:00:00 | 00:00:00 | |
| OM5KV | 2026-09-06 00:44:44 | 48.60741 | 21.74505 | 59° | 26km/h | 30826m | 5.4m/s | -44.9°C | 0.7% | 11.1hPa | 2.5V | 00:00:00 | 00:00:00 | 00:00:00 | |
| OM5KV | 2026-09-06 00:44:43 | 48.60738 | 21.74496 | 71° | 29km/h | 30820m | 7.3m/s | -44.9°C | 0.6% | 11.1hPa | 2.5V | 00:00:00 | 00:00:00 | 00:00:00 | |
| SQ9EZE-13 | 2026-09-06 00:44:41 | 48.60735 | 21.74471 | 86° | 37km/h | 30806m | 5.9m/s | -44.9°C | 0.6% | 11.2hPa | 2.5V | 00:00:00 | 00:00:00 | 00:00:00 | |
| OM5KV | 2026-09-06 00:44:37 | 48.60728 | 21.74423 | 54° | 26km/h | 30782m | 6.6m/s | -45.0°C | 0.6% | 11.2hPa | 2.5V | 00:00:00 | 00:00:00 | 00:00:00 | |
| SQ9EZE-13 | 2026-09-06 00:44:27 | 48.60665 | 21.74324 | 61° | 37km/h | 30710m | 7.6m/s | -45.2°C | 0.7% | 11.3hPa | 2.5V | 00:00:00 | 00:00:00 | 00:00:00 | |
| OM5KV | 2026-09-06 00:44:25 | 48.60660 | 21.74311 | 61° | 40km/h | 30703m | 6.5m/s | -45.2°C | 0.7% | 11.3hPa | 2.5V | 00:00:00 | 00:00:00 | 00:00:00 | |
| HA6NAB-11 | 2026-09-06 00:44:22 | 48.60640 | 21.74274 | 40° | 42km/h | 30684m | 7.7m/s | -45.2°C | 0.7% | 11.4hPa | 2.5V | 00:00:00 | 00:00:00 | 00:00:00 | |
| OM5KV | 2026-09-06 00:44:21 | 48.60632 | 21.74265 | 32° | 40km/h | 30677m | 6.4m/s | -45.1°C | 0.7% | 11.4hPa | 2.5V | 00:00:00 | 00:00:00 | 00:00:00 | |
| LZ4TU-5 | 2026-09-06 00:44:18 | 48.60604 | 21.74240 | 38° | 44km/h | 30659m | 7.2m/s | 0°C | 0% | 11.4hPa | 2.5V | 00:00:00 | 00:00:00 | 00:00:00 | |
| SQ9EZE-14 | 2026-09-06 00:44:16 | 48.60582 | 21.74207 | 50° | 37km/h | 30641m | 6.7m/s | -44.8°C | 0.7% | 11.5hPa | 2.5V | 00:00:00 | 00:00:00 | 00:00:00 | |
| OM5KV | 2026-09-06 00:44:15 | 48.60582 | 21.74207 | 50° | 37km/h | 30641m | 6.7m/s | -44.8°C | 0.7% | 11.5hPa | 2.5V | 00:00:00 | 00:00:00 | 00:00:00 | |
| HA6NAB-11 | 2026-09-06 00:44:12 | 48.60563 | 21.74169 | 60° | 31km/h | 30615m | 6.5m/s | -44.7°C | 0% | 11.5hPa | 2.5V | 00:00:00 | 00:00:00 | 00:00:00 | |
| SQ9EZE-13 | 2026-09-06 00:44:11 | 48.60559 | 21.74158 | 62° | 35km/h | 30608m | 7.1m/s | -44.7°C | 0.6% | 11.5hPa | 2.5V | 00:00:00 | 00:00:00 | 00:00:00 | |
| OM5KV | 2026-09-06 00:44:10 | 48.60559 | 21.74158 | 62° | 35km/h | 30608m | 7.1m/s | -44.7°C | 0.6% | 11.5hPa | 2.5V | 00:00:00 | 00:00:00 | 00:00:00 | |
| OM5KV | 2026-09-06 00:44:07 | 48.60544 | 21.74126 | 46° | 35km/h | 30590m | 7.3m/s | -44.6°C | 0.6% | 11.5hPa | 2.5V | 00:00:00 | 00:00:00 | 00:00:00 | |
| HA6NAB-11 | 2026-09-06 00:44:06 | 48.60537 | 21.74118 | 36° | 33km/h | 30582m | 7.7m/s | -44.6°C | 0% | 11.5hPa | 2.5V | 00:00:00 | 00:00:00 | 00:00:00 | |
| OM5KV | 2026-09-06 00:44:04 | 48.60523 | 21.74106 | 26° | 33km/h | 30569m | 5.8m/s | -44.5°C | 0.7% | 11.6hPa | 2.5V | 00:00:00 | 00:00:00 | 00:00:00 | |
| HA6NAB-11 | 2026-09-06 00:44:01 | 48.60497 | 21.74075 | 55° | 31km/h | 30544m | 5.7m/s | -44.4°C | 0% | 11.6hPa | 2.5V | 00:00:00 | 00:00:00 | 00:00:00 | |
| SQ9EZE-14 | 2026-09-06 00:43:59 | 48.60493 | 21.74066 | 55° | 29km/h | 30538m | 6.4m/s | -44.4°C | 0.6% | 11.6hPa | 2.5V | 00:00:00 | 00:00:00 | 00:00:00 | |
| OM5KV | 2026-09-06 00:43:57 | 48.60481 | 21.74045 | 47° | 24km/h | 30518m | 5.3m/s | -44.3°C | 0.6% | 11.7hPa | 2.5V | 00:00:00 | 00:00:00 | 00:00:00 | |
| HA6NAB-11 | 2026-09-06 00:43:55 | 48.60473 | 21.74030 | 54° | 27km/h | 30505m | 7.6m/s | -44.3°C | 0% | 11.7hPa | 2.5V | 00:00:00 | 00:00:00 | 00:00:00 | |
| SQ9EZE-13 | 2026-09-06 00:43:54 | 48.60473 | 21.74030 | 54° | 27km/h | 30505m | 7.6m/s | -44.3°C | 0.6% | 11.7hPa | 2.5V | 00:00:00 | 00:00:00 | 00:00:00 | |
| OM5KV | 2026-09-06 00:43:53 | 48.60469 | 21.74022 | 55° | 27km/h | 30498m | 5.8m/s | -44.3°C | 0.7% | 11.7hPa | 2.5V | 00:00:00 | 00:00:00 | 00:00:00 | |
| OM5KV | 2026-09-06 00:43:52 | 48.60464 | 21.74014 | 49° | 27km/h | 30493m | 4.6m/s | -44.3°C | 0.6% | 11.7hPa | 2.5V | 00:00:00 | 00:00:00 | 00:00:00 | |
| OM5KV | 2026-09-06 00:43:51 | 48.60455 | 21.74002 | 27° | 22km/h | 30480m | 7.8m/s | -44.3°C | 0.6% | 11.7hPa | 2.5V | 00:00:00 | 00:00:00 | 00:00:00 | |
| OM5KV | 2026-09-06 00:43:47 | 48.60440 | 21.73994 | 27° | 22km/h | 30462m | 6.3m/s | -44.3°C | 0.6% | 11.8hPa | 2.5V | 00:00:00 | 00:00:00 | 00:00:00 | |
| GYPAP8-17 | 2026-09-06 00:43:46 | 48.60435 | 21.73990 | 43° | 20km/h | 30456m | 7.0m/s | -44.3°C | 0.6% | 11.8hPa | 2.5V | 00:00:00 | 00:00:00 | 00:00:00 | |
| OM5KV | 2026-09-06 00:43:45 | 48.60432 | 21.73984 | 58° | 22km/h | 30449m | 5.8m/s | -44.2°C | 0.6% | 11.8hPa | 2.5V | 00:00:00 | 00:00:00 | 00:00:00 | |
| OM5KV | 2026-09-06 00:43:42 | 48.60425 | 21.73965 | 62° | 15km/h | 30430m | 7.5m/s | -44.2°C | 0.6% | 11.8hPa | 2.5V | 00:00:00 | 00:00:00 | 00:00:00 | |
| OM5KV | 2026-09-06 00:43:41 | 48.60421 | 21.73957 | 37° | 16km/h | 30417m | 5.3m/s | -44.2°C | 0.6% | 11.9hPa | 2.5V | 00:00:00 | 00:00:00 | 00:00:00 | |
| SQ9EZE-13 | 2026-09-06 00:43:39 | 48.60413 | 21.73948 | 42° | 20km/h | 30406m | 6.3m/s | -44.2°C | 0.6% | 11.9hPa | 2.5V | 00:00:00 | 00:00:00 | 00:00:00 | |
| OM5KV | 2026-09-06 00:43:38 | 48.60413 | 21.73948 | 42° | 20km/h | 30406m | 6.3m/s | -44.2°C | 0.6% | 11.9hPa | 2.5V | 00:00:00 | 00:00:00 | 00:00:00 | |
| OM5KV | 2026-09-06 00:43:34 | 48.60395 | 21.73918 | 30° | 15km/h | 30379m | 7.1m/s | -44.2°C | 0.6% | 11.9hPa | 2.5V | 00:00:00 | 00:00:00 | 00:00:00 | |
| OM5KV | 2026-09-06 00:43:32 | 48.60388 | 21.73916 | 357° | 15km/h | 30364m | 6.2m/s | -44.2°C | 0.6% | 12.0hPa | 2.5V | 00:00:00 | 00:00:00 | 00:00:00 | |
| OM5KV | 2026-09-06 00:43:29 | 48.60377 | 21.73911 | 38° | 20km/h | 30345m | 6.8m/s | -44.2°C | 0.6% | 12.0hPa | 2.5V | 00:00:00 | 00:00:00 | 00:00:00 | |
| SQ9EZE-13 | 2026-09-06 00:43:23 | 48.60355 | 21.73880 | 42° | 18km/h | 30308m | 6.0m/s | -44.2°C | 0.6% | 12.1hPa | 2.5V | 00:00:00 | 00:00:00 | 00:00:00 | |
| OM5KV | 2026-09-06 00:43:22 | 48.60355 | 21.73880 | 42° | 18km/h | 30308m | 6.0m/s | -44.2°C | 0.6% | 12.1hPa | 2.5V | 00:00:00 | 00:00:00 | 00:00:00 | |
| OM5KV | 2026-09-06 00:43:13 | 48.60308 | 21.73855 | 43° | 20km/h | 30245m | 5.8m/s | -44.2°C | 0.6% | 12.2hPa | 2.5V | 00:00:00 | 00:00:00 | 00:00:00 | |
| OM5KV | 2026-09-06 00:43:09 | 48.60301 | 21.73840 | 88° | 4km/h | 30219m | 6.0m/s | -44.2°C | 0.6% | 12.2hPa | 2.5V | 00:00:00 | 00:00:00 | 00:00:00 | |
| SQ9EZE-13 | 2026-09-06 00:43:06 | 48.60301 | 21.73837 | 73° | 4km/h | 30207m | 7.1m/s | -44.1°C | 0.6% | 12.2hPa | 2.5V | 00:00:00 | 00:00:00 | 00:00:00 | |
| OM5KV | 2026-09-06 00:43:05 | 48.60300 | 21.73836 | 45° | 7km/h | 30200m | 6.2m/s | -44.1°C | 0.6% | 12.2hPa | 2.5V | 00:00:00 | 00:00:00 | 00:00:00 | |
| OM5KV | 2026-09-06 00:42:59 | 48.60286 | 21.73844 | 333° | 9km/h | 30165m | 4.7m/s | -44.1°C | 0.6% | 12.3hPa | 2.5V | 00:00:00 | 00:00:00 | 00:00:00 | |
| OM5KV | 2026-09-06 00:42:53 | 48.60289 | 21.73820 | 142° | 16km/h | 30126m | 6.4m/s | -44.2°C | 0.6% | 12.4hPa | 2.5V | 00:00:00 | 00:00:00 | 00:00:00 | |
| OM5KV | 2026-09-06 00:42:52 | 48.60292 | 21.73817 | 158° | 11km/h | 30120m | 4.9m/s | -44.2°C | 0.6% | 12.4hPa | 2.5V | 00:00:00 | 00:00:00 | 00:00:00 | |
| SQ9EZE-13 | 2026-09-06 00:42:49 | 48.60293 | 21.73816 | 19° | 7km/h | 30103m | 7.2m/s | -44.4°C | 0.6% | 12.4hPa | 2.5V | 00:00:00 | 00:00:00 | 00:00:00 | |
| OM5KV | 2026-09-06 00:42:48 | 48.60287 | 21.73813 | 16° | 15km/h | 30090m | 6.0m/s | -44.5°C | 0.6% | 12.4hPa | 2.5V | 00:00:00 | 00:00:00 | 00:00:00 | |
| OM5KV | 2026-09-06 00:42:47 | 48.60284 | 21.73812 | 11° | 11km/h | 30083m | 5.8m/s | -44.5°C | 0.6% | 12.4hPa | 2.5V | 00:00:00 | 00:00:00 | 00:00:00 | |
| OM5KV | 2026-09-06 00:42:42 | 48.60284 | 21.73805 | 105° | 13km/h | 30053m | 7.0m/s | -44.8°C | 0.6% | 12.5hPa | 2.5V | 00:00:00 | 00:00:00 | 00:00:00 | |
| OM5KV | 2026-09-06 00:42:41 | 48.60284 | 21.73800 | 96° | 15km/h | 30047m | 6.0m/s | -44.8°C | 0.6% | 12.5hPa | 2.5V | 00:00:00 | 00:00:00 | 00:00:00 | |
| OM5KV | 2026-09-06 00:42:34 | 48.60283 | 21.73784 | 342° | 5km/h | 30009m | 6.2m/s | -45.1°C | 0.7% | 12.6hPa | 2.5V | 00:00:00 | 00:00:00 | 00:00:00 | |
| SQ9EZE-13 | 2026-09-06 00:42:33 | 48.60280 | 21.73783 | 31° | 7km/h | 29996m | 5.9m/s | -45.1°C | 0.7% | 12.6hPa | 2.5V | 00:00:00 | 00:00:00 | 00:00:00 | |
| OM5KV | 2026-09-06 00:42:32 | 48.60280 | 21.73783 | 31° | 7km/h | 29996m | 5.9m/s | -45.1°C | 0.7% | 12.6hPa | 2.5V | 00:00:00 | 00:00:00 | 00:00:00 | |
| OM5KV | 2026-09-06 00:42:30 | 48.60279 | 21.73779 | 131° | 9km/h | 29983m | 7.5m/s | -45.2°C | 0.7% | 12.6hPa | 2.5V | 00:00:00 | 00:00:00 | 00:00:00 | |
| LZ4TU-5 | 2026-09-06 00:42:26 | 48.60292 | 21.73764 | 131° | 18km/h | 29958m | 7.3m/s | 0°C | 0% | 12.7hPa | 2.5V | 00:00:00 | 00:00:00 | 00:00:00 | |
| OM5KV | 2026-09-06 00:42:25 | 48.60295 | 21.73756 | 107° | 9km/h | 29947m | 4.2m/s | -45.3°C | 0.7% | 12.7hPa | 2.5V | 00:00:00 | 00:00:00 | 00:00:00 | |
| LZ4TU-5 | 2026-09-06 00:42:22 | 48.60297 | 21.73755 | 251° | 5km/h | 29926m | 5.6m/s | 0°C | 0% | 12.7hPa | 2.5V | 00:00:00 | 00:00:00 | 00:00:00 | |
| OM5KV | 2026-09-06 00:42:21 | 48.60297 | 21.73755 | 251° | 5km/h | 29926m | 5.6m/s | -45.3°C | 0.7% | 12.7hPa | 2.5V | 00:00:00 | 00:00:00 | 00:00:00 | |
| OM5KV | 2026-09-06 00:42:19 | 48.60297 | 21.73758 | 336° | 4km/h | 29916m | 7.2m/s | -45.3°C | 0.7% | 12.8hPa | 2.5V | 00:00:00 | 00:00:00 | 00:00:00 | |
| OM5KV | 2026-09-06 00:42:17 | 48.60292 | 21.73754 | 50° | 7km/h | 29896m | 5.7m/s | -45.3°C | 0.7% | 12.8hPa | 2.5V | 00:00:00 | 00:00:00 | 00:00:00 | |
| OM5KV | 2026-09-06 00:42:13 | 48.60293 | 21.73748 | 135° | 11km/h | 29876m | 5.4m/s | -45.3°C | 0.7% | 12.8hPa | 2.5V | 00:00:00 | 00:00:00 | 00:00:00 | |
| HA6NAB-11 | 2026-09-06 00:42:09 | 48.60307 | 21.73729 | 164° | 15km/h | 29844m | 7.7m/s | -45.3°C | 0% | 12.9hPa | 2.5V | 00:00:00 | 00:00:00 | 00:00:00 | |
| OM5KV | 2026-09-06 00:42:06 | 48.60313 | 21.73729 | 200° | 9km/h | 29831m | 5.4m/s | -45.3°C | 0.7% | 12.9hPa | 2.5V | 00:00:00 | 00:00:00 | 00:00:00 | |
| HA6NAB-11 | 2026-09-06 00:42:03 | 48.60312 | 21.73728 | 31° | 11km/h | 29805m | 5.4m/s | -45.3°C | 0% | 0hPa | 2.5V | 00:00:00 | 00:00:00 | 00:00:00 | |
| SQ9EZE-13 | 2026-09-06 00:42:00 | 48.60308 | 21.73723 | 67° | 7km/h | 29792m | 6.5m/s | -45.2°C | 0.7% | 13.0hPa | 2.5V | 00:00:00 | 00:00:00 | 00:00:00 | |
| OM5KV | 2026-09-06 00:41:59 | 48.60308 | 21.73721 | 107° | 9km/h | 29787m | 5.0m/s | -45.2°C | 0.7% | 13.0hPa | 2.5V | 00:00:00 | 00:00:00 | 00:00:00 | |
| OM5KV | 2026-09-06 00:41:58 | 48.60310 | 21.73712 | 113° | 16km/h | 29776m | 6.5m/s | -45.2°C | 0.7% | 13.0hPa | 2.5V | 00:00:00 | 00:00:00 | 00:00:00 | |
| HA6NAB-11 | 2026-09-06 00:41:57 | 48.60310 | 21.73712 | 113° | 16km/h | 29776m | 6.5m/s | -45.2°C | 0% | 0hPa | 2.5V | 00:00:00 | 00:00:00 | 00:00:00 | |
| PG1ADW-2 | 2026-09-06 00:41:56 | 48.60314 | 21.73699 | 114° | 13km/h | 29763m | 5.5m/s | -45.1°C | 2.8% | 13.0hPa | 2.5V | 00:00:00 | 00:00:00 | 00:00:00 | |
| OM5KV | 2026-09-06 00:41:53 | 48.60321 | 21.73690 | 186° | 13km/h | 29744m | 8.1m/s | -45.1°C | 0.7% | 13.1hPa | 2.5V | 00:00:00 | 00:00:00 | 00:00:00 | |
| HA6NAB-11 | 2026-09-06 00:41:52 | 48.60321 | 21.73690 | 186° | 13km/h | 29744m | 8.1m/s | -45.1°C | 0% | 0hPa | 2.5V | 00:00:00 | 00:00:00 | 00:00:00 | |
| SQ9EZE-14 | 2026-09-06 00:41:50 | 48.60328 | 21.73694 | 207° | 16km/h | 29731m | 4.5m/s | -45.1°C | 0.7% | 13.1hPa | 2.5V | 00:00:00 | 00:00:00 | 00:00:00 | |
| HA6NAB-11 | 2026-09-06 00:41:47 | 48.60338 | 21.73686 | 110° | 20km/h | 29708m | 5.5m/s | -45.1°C | 0% | 0hPa | 2.5V | 00:00:00 | 00:00:00 | 00:00:00 | |
| SQ9EZE-13 | 2026-09-06 00:41:45 | 48.60340 | 21.73678 | 111° | 22km/h | 29702m | 6.2m/s | -45.1°C | 0.7% | 13.2hPa | 2.5V | 00:00:00 | 00:00:00 | 00:00:00 | |
| OM5KV | 2026-09-06 00:41:43 | 48.60345 | 21.73664 | 118° | 18km/h | 29689m | 6.5m/s | -45.1°C | 0.7% | 13.2hPa | 2.5V | 00:00:00 | 00:00:00 | 00:00:00 | |
| HA6NAB-11 | 2026-09-06 00:41:40 | 48.60349 | 21.73652 | 94° | 7km/h | 29670m | 7.2m/s | -45.1°C | 0% | 0hPa | 2.5V | 00:00:00 | 00:00:00 | 00:00:00 | |
| OM5KV | 2026-09-06 00:41:39 | 48.60349 | 21.73649 | 58° | 7km/h | 29663m | 7.0m/s | -45.1°C | 0.7% | 13.3hPa | 2.5V | 00:00:00 | 00:00:00 | 00:00:00 | |
| OM5KV | 2026-09-06 00:41:38 | 48.60347 | 21.73646 | 62° | 4km/h | 29652m | 5.1m/s | -45.1°C | 0.7% | 13.3hPa | 2.5V | 00:00:00 | 00:00:00 | 00:00:00 | |
| SQ9EZE-14 | 2026-09-06 00:41:36 | 48.60349 | 21.73644 | 166° | 11km/h | 29638m | 7.4m/s | -45.0°C | 0.7% | 13.3hPa | 2.5V | 00:00:00 | 00:00:00 | 00:00:00 | |
| OM5KV | 2026-09-06 00:41:35 | 48.60353 | 21.73642 | 159° | 18km/h | 29631m | 6.1m/s | -45.0°C | 0.7% | 13.3hPa | 2.5V | 00:00:00 | 00:00:00 | 00:00:00 | |
| OM5KV | 2026-09-06 00:41:31 | 48.60366 | 21.73625 | 124° | 27km/h | 29611m | 7.0m/s | -45.0°C | 0.7% | 13.4hPa | 2.5V | 00:00:00 | 00:00:00 | 00:00:00 | |
| SQ9EZE-13 | 2026-09-06 00:41:30 | 48.60370 | 21.73616 | 120° | 27km/h | 29605m | 5.4m/s | -44.9°C | 0.7% | 13.4hPa | 2.5V | 00:00:00 | 00:00:00 | 00:00:00 | |
| HA6NAB-11 | 2026-09-06 00:41:29 | 48.60373 | 21.73607 | 120° | 27km/h | 29599m | 6.2m/s | -44.9°C | 0% | 0hPa | 2.5V | 00:00:00 | 00:00:00 | 00:00:00 | |
| OM5KV | 2026-09-06 00:41:28 | 48.60377 | 21.73599 | 128° | 26km/h | 29592m | 7.2m/s | -44.9°C | 0.7% | 13.4hPa | 2.5V | 00:00:00 | 00:00:00 | 00:00:00 | |
| HA6NAB-11 | 2026-09-06 00:41:24 | 48.60393 | 21.73575 | 120° | 9km/h | 29559m | 6.2m/s | 0°C | 0% | 0hPa | 2.5V | 00:00:00 | 00:00:00 | 00:00:00 | |
| GYPAP8-17 | 2026-09-06 00:41:22 | 48.60395 | 21.73571 | 125° | 9km/h | 29554m | 5.2m/s | -44.9°C | 0.7% | 13.5hPa | 2.5V | 00:00:00 | 00:00:00 | 00:00:00 | |
| OM5KV | 2026-09-06 00:41:21 | 48.60396 | 21.73569 | 138° | 9km/h | 29548m | 6.7m/s | -44.9°C | 0.7% | 13.5hPa | 2.5V | 00:00:00 | 00:00:00 | 00:00:00 | |
| SQ9EZE-14 | 2026-09-06 00:41:18 | 48.60404 | 21.73563 | 150° | 15km/h | 29529m | 5.1m/s | -44.8°C | 0.6% | 13.5hPa | 2.5V | 00:00:00 | 00:00:00 | 00:00:00 | |
| OM5KV | 2026-09-06 00:41:16 | 48.60411 | 21.73545 | 110° | 26km/h | 29510m | 6.5m/s | -44.8°C | 0.7% | 13.6hPa | 2.5V | 00:00:00 | 00:00:00 | 00:00:00 | |
| SQ9EZE-13 | 2026-09-06 00:41:15 | 48.60414 | 21.73535 | 113° | 29km/h | 29504m | 5.7m/s | -44.8°C | 0.6% | 13.6hPa | 2.5V | 00:00:00 | 00:00:00 | 00:00:00 | |
| OM5KV | 2026-09-06 00:41:10 | 48.60431 | 21.73499 | 133° | 26km/h | 29478m | 5.2m/s | -44.9°C | 0.7% | 13.6hPa | 2.5V | 00:00:00 | 00:00:00 | 00:00:00 | |
| OM5KV | 2026-09-06 00:41:08 | 48.60437 | 21.73485 | 112° | 20km/h | 29465m | 7.2m/s | -45.0°C | 0.7% | 13.7hPa | 2.5V | 00:00:00 | 00:00:00 | 00:00:00 | |
| OM5KV | 2026-09-06 00:41:01 | 48.60441 | 21.73445 | 88° | 22km/h | 29420m | 7.5m/s | -44.9°C | 0.7% | 13.8hPa | 2.5V | 00:00:00 | 00:00:00 | 00:00:00 | |
| SQ9EZE-13 | 2026-09-06 00:40:59 | 48.60442 | 21.73417 | 107° | 26km/h | 29399m | 7.8m/s | -44.8°C | 0.7% | 13.8hPa | 2.5V | 00:00:00 | 00:00:00 | 00:00:00 | |
| OM5KV | 2026-09-06 00:40:56 | 48.60447 | 21.73400 | 114° | 24km/h | 29386m | 5.0m/s | -44.8°C | 0.7% | 13.8hPa | 2.5V | 00:00:00 | 00:00:00 | 00:00:00 | |
| PG1ADW-2 | 2026-09-06 00:40:55 | 48.60450 | 21.73384 | 95° | 16km/h | 29374m | 7.3m/s | -44.7°C | 2.8% | 13.8hPa | 2.5V | 00:00:00 | 02:01:07 | 00:00:00 | |
| OM5KV | 2026-09-06 00:40:53 | 48.60449 | 21.73375 | 82° | 22km/h | 29367m | 5.7m/s | -44.8°C | 0.7% | 13.9hPa | 2.5V | 00:00:00 | 00:00:00 | 00:00:00 | |
| OM5KV | 2026-09-06 00:40:52 | 48.60448 | 21.73368 | 78° | 18km/h | 29361m | 5.3m/s | -44.8°C | 0.7% | 13.9hPa | 2.5V | 00:00:00 | 00:00:00 | 00:00:00 | |
| OM5KV | 2026-09-06 00:40:51 | 48.60448 | 21.73362 | 80° | 15km/h | 29355m | 7.8m/s | -44.8°C | 0.7% | 13.9hPa | 2.5V | 00:00:00 | 00:00:00 | 00:00:00 | |
| OM5KV | 2026-09-06 00:40:46 | 48.60443 | 21.73336 | 70° | 20km/h | 29321m | 5.7m/s | -44.7°C | 0.7% | 14.0hPa | 2.5V | 00:00:00 | 00:00:00 | 00:00:00 | |
| SQ9EZE-13 | 2026-09-06 00:40:42 | 48.60443 | 21.73306 | 112° | 22km/h | 29295m | 6.0m/s | -44.5°C | 0.7% | 14.0hPa | 2.5V | 00:00:00 | 00:00:00 | 00:00:00 | |
| OM5KV | 2026-09-06 00:40:41 | 48.60446 | 21.73290 | 96° | 20km/h | 29281m | 7.9m/s | -44.4°C | 0.6% | 14.0hPa | 2.5V | 00:00:00 | 00:00:00 | 00:00:00 | |
| OM5KV | 2026-09-06 00:40:40 | 48.60446 | 21.73290 | 96° | 20km/h | 29281m | 7.9m/s | -44.4°C | 0.6% | 14.0hPa | 2.5V | 00:00:00 | 00:00:00 | 00:00:00 | |
| PG1ADW-2 | 2026-09-06 00:40:35 | 48.60444 | 21.73263 | 81° | 16km/h | 29243m | 5.7m/s | -44.3°C | 2.7% | 14.1hPa | 2.5V | 00:00:00 | 00:00:00 | 08:30:00 | |
| LZ4TU-5 | 2026-09-06 00:40:28 | 48.60443 | 21.73217 | 123° | 22km/h | 29197m | 5.9m/s | 0°C | 0% | 14.3hPa | 2.6V | 00:00:00 | 00:00:00 | 00:00:00 | |
| OM5KV | 2026-09-06 00:40:25 | 48.60449 | 21.73200 | 103° | 15km/h | 29179m | 7.0m/s | -44.4°C | 0.6% | 14.3hPa | 2.6V | 00:00:00 | 00:00:00 | 00:00:00 | |
| LZ4TU-5 | 2026-09-06 00:40:23 | 48.60449 | 21.73190 | 71° | 13km/h | 29167m | 5.0m/s | 0°C | 0% | 14.3hPa | 2.6V | 00:00:00 | 00:00:00 | 00:00:00 | |
| OM5KV | 2026-09-06 00:40:18 | 48.60445 | 21.73173 | 64° | 13km/h | 29142m | 5.2m/s | -44.3°C | 0.6% | 14.3hPa | 2.6V | 00:00:00 | 00:00:00 | 00:00:00 | |
| GYPAP8-17 | 2026-09-06 00:40:14 | 48.60436 | 21.73149 | 90° | 15km/h | 29110m | 7.8m/s | -44.3°C | 0.6% | 14.4hPa | 2.6V | 00:00:00 | 00:00:00 | 00:00:00 | |
| OM5KV | 2026-09-06 00:40:13 | 48.60436 | 21.73149 | 90° | 15km/h | 29110m | 7.8m/s | -44.3°C | 0.6% | 14.4hPa | 2.6V | 00:00:00 | 00:00:00 | 00:00:00 | |
| OM5KV | 2026-09-06 00:40:12 | 48.60437 | 21.73144 | 110° | 16km/h | 29103m | 6.8m/s | -44.4°C | 0.6% | 14.4hPa | 2.6V | 00:00:00 | 00:00:00 | 00:00:00 | |
| OM5KV | 2026-09-06 00:40:08 | 48.60440 | 21.73119 | 87° | 16km/h | 29077m | 5.2m/s | -44.6°C | 0.6% | 14.5hPa | 2.6V | 00:00:00 | 00:00:00 | 00:00:00 | |
| OM5KV | 2026-09-06 00:40:07 | 48.60440 | 21.73109 | 97° | 13km/h | 29065m | 7.4m/s | -44.7°C | 0.6% | 14.5hPa | 2.6V | 00:00:00 | 00:00:00 | 00:00:00 | |
| OM5KV | 2026-09-06 00:40:06 | 48.60440 | 21.73109 | 97° | 13km/h | 29065m | 7.4m/s | -44.7°C | 0.6% | 14.5hPa | 2.6V | 00:00:00 | 00:00:00 | 00:00:00 | |
| OM5KV | 2026-09-06 00:40:01 | 48.60434 | 21.73086 | 50° | 13km/h | 29027m | 5.3m/s | -44.9°C | 0.6% | 14.6hPa | 2.6V | 00:00:00 | 00:00:00 | 00:00:00 | |
| SQ9EZE-13 | 2026-09-06 00:39:56 | 48.60441 | 21.73073 | 160° | 13km/h | 28993m | 6.7m/s | -44.9°C | 0.6% | 14.6hPa | 2.6V | 00:00:00 | 00:00:00 | 00:00:00 | |
| PG1ADW-2 | 2026-09-06 00:39:55 | 48.60443 | 21.73072 | 160° | 9km/h | 28986m | 7.3m/s | -44.9°C | 2.7% | 14.6hPa | 2.6V | 00:00:00 | 00:00:00 | 00:00:00 | |
| OM5KV | 2026-09-06 00:39:52 | 48.60446 | 21.73070 | 151° | 4km/h | 28969m | 6.3m/s | -45.0°C | 0.6% | 14.7hPa | 2.6V | 00:00:00 | 00:00:00 | 00:00:00 | |
| OM5KV | 2026-09-06 00:39:49 | 48.60449 | 21.73066 | 130° | 13km/h | 28955m | 6.1m/s | -45.0°C | 0.7% | 14.7hPa | 2.6V | 00:00:00 | 00:00:00 | 00:00:00 | |
| OM5KV | 2026-09-06 00:39:48 | 48.60450 | 21.73062 | 114° | 15km/h | 28949m | 5.7m/s | -45.1°C | 0.7% | 14.8hPa | 2.6V | 00:00:00 | 00:00:00 | 00:00:00 | |
| SQ9EZE-13 | 2026-09-06 00:39:41 | 48.60452 | 21.73011 | 143° | 16km/h | 28898m | 5.9m/s | -45.2°C | 0.7% | 14.9hPa | 2.6V | 00:00:00 | 00:00:00 | 00:00:00 | |
| OM5KV | 2026-09-06 00:39:38 | 48.60460 | 21.73006 | 189° | 4km/h | 28878m | 7.4m/s | -45.4°C | 0.7% | 14.9hPa | 2.6V | 00:00:00 | 00:00:00 | 00:00:00 | |
| OM5KV | 2026-09-06 00:39:36 | 48.60460 | 21.73006 | 0° | 0km/h | 28871m | 5.5m/s | -45.5°C | 0.7% | 14.9hPa | 2.6V | 00:00:00 | 00:00:00 | 00:00:00 | |
| PG1ADW-2 | 2026-09-06 00:39:34 | 48.60462 | 21.73003 | 116° | 13km/h | 28852m | 6.5m/s | -45.7°C | 2.8% | 14.9hPa | 2.6V | 00:00:00 | 01:59:46 | 00:00:00 | |
| OM5KV | 2026-09-06 00:39:32 | 48.60463 | 21.72993 | 89° | 15km/h | 28840m | 6.6m/s | -45.8°C | 0.7% | 15.0hPa | 2.6V | 00:00:00 | 00:00:00 | 00:00:00 | |
| OM5KV | 2026-09-06 00:39:28 | 48.60460 | 21.72975 | 76° | 16km/h | 28820m | 4.8m/s | -45.8°C | 0.7% | 15.0hPa | 2.6V | 00:00:00 | 00:00:00 | 00:00:00 | |
| OM5KV | 2026-09-06 00:39:24 | 48.60464 | 21.72958 | 149° | 9km/h | 28794m | 5.9m/s | -45.8°C | 0.7% | 15.1hPa | 2.6V | 00:00:00 | 00:00:00 | 00:00:00 | |
| OM5KV | 2026-09-06 00:39:19 | 48.60472 | 21.72959 | 174° | 9km/h | 28759m | 7.3m/s | -45.8°C | 0.7% | 15.2hPa | 2.6V | 00:00:00 | 00:00:00 | 00:00:00 | |
| OM5KV | 2026-09-06 00:39:18 | 48.60477 | 21.72954 | 125° | 15km/h | 28747m | 5.8m/s | -45.8°C | 0.7% | 15.2hPa | 2.6V | 00:00:00 | 00:00:00 | 00:00:00 | |
| SQ9EZE-14 | 2026-09-06 00:39:17 | 48.60479 | 21.72949 | 107° | 16km/h | 28740m | 7.7m/s | -45.8°C | 0.7% | 15.2hPa | 2.6V | 00:00:00 | 00:00:00 | 00:00:00 | |
| OM5KV | 2026-09-06 00:39:11 | 48.60484 | 21.72911 | 127° | 20km/h | 28708m | 5.6m/s | -45.8°C | 0.7% | 15.3hPa | 2.6V | 00:00:00 | 00:00:00 | 00:00:00 | |
| SQ9EZE-13 | 2026-09-06 00:39:08 | 48.60490 | 21.72903 | 213° | 4km/h | 28688m | 8.1m/s | -45.9°C | 0.7% | 15.3hPa | 2.6V | 00:00:00 | 00:00:00 | 00:00:00 | |
| OM5KV | 2026-09-06 00:39:06 | 48.60493 | 21.72909 | 208° | 7km/h | 28669m | 7.7m/s | -46.0°C | 0.7% | 15.4hPa | 2.6V | 00:00:00 | 00:00:00 | 00:00:00 | |
| OM5KV | 2026-09-06 00:39:05 | 48.60493 | 21.72909 | 208° | 7km/h | 28669m | 7.7m/s | -46.0°C | 0.7% | 15.4hPa | 2.6V | 00:00:00 | 00:00:00 | 00:00:00 | |
| OM5KV | 2026-09-06 00:39:03 | 48.60500 | 21.72903 | 126° | 16km/h | 28649m | 6.7m/s | -46.0°C | 0.7% | 15.4hPa | 2.6V | 00:00:00 | 00:00:00 | 00:00:00 | |
| GYPAP8-17 | 2026-09-06 00:39:01 | 48.60504 | 21.72890 | 107° | 22km/h | 28635m | 6.1m/s | -46.0°C | 0.7% | 15.5hPa | 2.6V | 00:00:00 | 00:00:00 | 00:00:00 | |
| OM5KV | 2026-09-06 00:38:59 | 48.60506 | 21.72882 | 110° | 24km/h | 28629m | 6.3m/s | -46.1°C | 0.7% | 15.5hPa | 2.6V | 00:00:00 | 00:00:00 | 00:00:00 | |
| OM5KV | 2026-09-06 00:38:54 | 48.60522 | 21.72853 | 155° | 11km/h | 28598m | 7.5m/s | -46.2°C | 0.7% | 15.6hPa | 2.6V | 00:00:00 | 00:00:00 | 00:00:00 | |
| SQ9EZE-13 | 2026-09-06 00:38:53 | 48.60526 | 21.72852 | 189° | 5km/h | 28585m | 6.1m/s | -46.2°C | 0.7% | 15.6hPa | 2.6V | 00:00:00 | 00:00:00 | 00:00:00 | |
| OM5KV | 2026-09-06 00:38:50 | 48.60530 | 21.72853 | 183° | 13km/h | 28573m | 6.8m/s | -46.2°C | 0.7% | 15.6hPa | 2.6V | 00:00:00 | 00:00:00 | 00:00:00 | |
| OM5KV | 2026-09-06 00:38:44 | 48.60564 | 21.72821 | 134° | 22km/h | 28527m | 5.8m/s | -46.4°C | 0.7% | 15.7hPa | 2.6V | 00:00:00 | 00:00:00 | 00:00:00 | |
| OM5KV | 2026-09-06 00:38:43 | 48.60564 | 21.72821 | 134° | 22km/h | 28527m | 5.8m/s | -46.4°C | 0.7% | 15.7hPa | 2.6V | 00:00:00 | 00:00:00 | 00:00:00 | |
| LZ4TU-5 | 2026-09-06 00:38:42 | 48.60568 | 21.72815 | 142° | 20km/h | 28520m | 7.9m/s | 0°C | 0% | 15.8hPa | 2.6V | 00:00:00 | 00:00:00 | 00:00:00 | |
| OM5KV | 2026-09-06 00:38:41 | 48.60572 | 21.72810 | 152° | 20km/h | 28513m | 6.6m/s | -46.5°C | 0.7% | 15.8hPa | 2.6V | 00:00:00 | 00:00:00 | 00:00:00 | |
| LZ4TU-5 | 2026-09-06 00:38:38 | 48.60585 | 21.72799 | 137° | 11km/h | 28486m | 6.4m/s | 0°C | 0% | 15.8hPa | 2.6V | 00:00:00 | 00:00:00 | 00:00:00 | |
| OM5KV | 2026-09-06 00:38:37 | 48.60585 | 21.72799 | 137° | 11km/h | 28486m | 6.4m/s | -46.5°C | 0.7% | 15.8hPa | 2.6V | 00:00:00 | 00:00:00 | 00:00:00 | |
| OM5KV | 2026-09-06 00:38:36 | 48.60587 | 21.72796 | 148° | 13km/h | 28480m | 6.7m/s | -46.5°C | 0.7% | 15.8hPa | 2.6V | 00:00:00 | 00:00:00 | 00:00:00 | |
| OM5KV | 2026-09-06 00:38:31 | 48.60605 | 21.72779 | 128° | 13km/h | 28441m | 5.9m/s | -46.5°C | 0.7% | 15.9hPa | 2.6V | 00:00:00 | 00:00:00 | 00:00:00 | |
| OM5KV | 2026-09-06 00:38:27 | 48.60614 | 21.72771 | 167° | 18km/h | 28420m | 6.7m/s | -46.5°C | 0.7% | 16.0hPa | 2.6V | 00:00:00 | 00:00:00 | 00:00:00 | |
| SQ9EZE-13 | 2026-09-06 00:38:22 | 48.60632 | 21.72756 | 132° | 15km/h | 28389m | 4.9m/s | -46.5°C | 0.7% | 16.1hPa | 2.6V | 00:00:00 | 00:00:00 | 00:00:00 | |
| PG1ADW-2 | 2026-09-06 00:38:18 | 48.60642 | 21.72746 | 145° | 20km/h | 28357m | 7.5m/s | -46.7°C | 3.0% | 16.1hPa | 2.6V | 00:00:00 | 00:00:00 | 00:00:00 | |
| OM5KV | 2026-09-06 00:38:17 | 48.60642 | 21.72745 | 123° | 5km/h | 28350m | 5.8m/s | -46.8°C | 0.7% | 16.2hPa | 2.6V | 00:00:00 | 00:00:00 | 00:00:00 | |
| OM5KV | 2026-09-06 00:38:13 | 48.60651 | 21.72736 | 153° | 26km/h | 28331m | 7.1m/s | -46.7°C | 0.7% | 16.2hPa | 2.6V | 00:00:00 | 00:00:00 | 00:00:00 | |
| OM5KV | 2026-09-06 00:38:12 | 48.60657 | 21.72730 | 152° | 33km/h | 28325m | 5.5m/s | -46.7°C | 0.7% | 16.2hPa | 2.6V | 00:00:00 | 00:00:00 | 00:00:00 | |
| OM5KV | 2026-09-06 00:38:08 | 48.60690 | 21.72699 | 156° | 22km/h | 28294m | 6.5m/s | -46.6°C | 0.7% | 16.3hPa | 2.6V | 00:00:00 | 00:00:00 | 00:00:00 | |
| OM5KV | 2026-09-06 00:38:05 | 48.60698 | 21.72696 | 182° | 15km/h | 28280m | 5.8m/s | -46.6°C | 0.7% | 16.3hPa | 2.6V | 00:00:00 | 00:00:00 | 00:00:00 | |
| OM5KV | 2026-09-06 00:38:02 | 48.60704 | 21.72695 | 107° | 5km/h | 28261m | 6.9m/s | -46.7°C | 0.7% | 16.4hPa | 2.6V | 00:00:00 | 00:00:00 | 00:00:00 | |
| OM5KV | 2026-09-06 00:38:01 | 48.60705 | 21.72692 | 96° | 9km/h | 28255m | 5.0m/s | -46.7°C | 0.7% | 16.4hPa | 2.6V | 00:00:00 | 00:00:00 | 00:00:00 | |
| PG1ADW-2 | 2026-09-06 00:37:57 | 48.60721 | 21.72666 | 145° | 20km/h | 28224m | 6.1m/s | -46.8°C | 3.0% | 16.4hPa | 2.6V | 00:00:00 | 00:00:00 | 00:00:00 | |
| OM5KV | 2026-09-06 00:37:54 | 48.60739 | 21.72643 | 137° | 27km/h | 28205m | 5.0m/s | -46.9°C | 0.7% | 16.5hPa | 2.6V | 00:00:00 | 00:00:00 | 00:00:00 | |
| SQ9EZE-13 | 2026-09-06 00:37:52 | 48.60749 | 21.72631 | 149° | 22km/h | 28193m | 7.6m/s | -47.0°C | 0.7% | 16.6hPa | 2.6V | 00:00:00 | 00:00:00 | 00:00:00 | |
| OM5KV | 2026-09-06 00:37:50 | 48.60753 | 21.72627 | 155° | 18km/h | 28186m | 6.7m/s | -47.0°C | 0.7% | 16.6hPa | 2.6V | 00:00:00 | 00:00:00 | 00:00:00 | |
| OM5KV | 2026-09-06 00:37:43 | 48.60768 | 21.72592 | 130° | 22km/h | 28142m | 7.2m/s | -47.1°C | 0.7% | 16.7hPa | 2.6V | 00:00:00 | 00:00:00 | 00:00:00 | |
| OM5KV | 2026-09-06 00:37:42 | 48.60772 | 21.72586 | 147° | 22km/h | 28136m | 6.0m/s | -47.1°C | 0.7% | 16.7hPa | 2.6V | 00:00:00 | 00:00:00 | 00:00:00 | |
| OM5KV | 2026-09-06 00:37:40 | 48.60786 | 21.72576 | 155° | 18km/h | 28117m | 6.9m/s | -47.2°C | 0.7% | 16.7hPa | 2.6V | 00:00:00 | 00:00:00 | 00:00:00 | |
| GYPAP8-17 | 2026-09-06 00:37:39 | 48.60790 | 21.72573 | 155° | 15km/h | 28110m | 6.2m/s | -47.2°C | 0.7% | 16.7hPa | 2.6V | 00:00:00 | 00:00:00 | 00:00:00 | |
| PG1ADW-2 | 2026-09-06 00:37:37 | 48.60795 | 21.72570 | 168° | 13km/h | 28098m | 6.2m/s | -47.2°C | 3.0% | 16.7hPa | 2.6V | 00:00:00 | 00:00:00 | 00:00:00 | |
| SQ9EZE-13 | 2026-09-06 00:37:36 | 48.60795 | 21.72570 | 168° | 9km/h | 28098m | 6.3m/s | -47.2°C | 0.7% | 16.8hPa | 0V | 00:00:00 | 00:00:00 | 00:00:00 | |
| OM5KV | 2026-09-06 00:37:34 | 48.60801 | 21.72570 | 181° | 9km/h | 28084m | 5.9m/s | -47.3°C | 0.7% | 16.8hPa | 0V | 00:00:00 | 00:00:00 | 00:00:00 | |
| OM5KV | 2026-09-06 00:37:31 | 48.60804 | 21.72565 | 102° | 11km/h | 28065m | 6.4m/s | -47.4°C | 0.8% | 16.9hPa | 0V | 00:00:00 | 00:00:00 | 00:00:00 | |
| OM5KV | 2026-09-06 00:37:26 | 48.60817 | 21.72540 | 134° | 18km/h | 28035m | 5.5m/s | -47.5°C | 0.8% | 16.9hPa | 0V | 00:00:00 | 00:00:00 | 00:00:00 | |
| OM5KV | 2026-09-06 00:37:22 | 48.60826 | 21.72521 | 149° | 11km/h | 28002m | 8.8m/s | -47.5°C | 0.7% | 17.0hPa | 0V | 00:00:00 | 00:00:00 | 00:00:00 | |
| SQ9EZE-13 | 2026-09-06 00:37:21 | 48.60828 | 21.72519 | 140° | 15km/h | 27995m | 4.9m/s | -47.5°C | 0.7% | 17.1hPa | 0V | 00:00:00 | 00:00:00 | 00:00:00 | |
| PG1ADW-2 | 2026-09-06 00:37:17 | 48.60835 | 21.72492 | 95° | 15km/h | 27970m | 5.2m/s | 0°C | 0% | 0hPa | 0V | 00:00:00 | 01:57:29 | 00:00:00 | |
| OM5KV | 2026-09-06 00:37:16 | 48.60836 | 21.72484 | 99° | 22km/h | 27963m | 7.3m/s | -47.6°C | 0.7% | 17.1hPa | 0V | 00:00:00 | 00:00:00 | 00:00:00 | |
| OM5KV | 2026-09-06 00:37:13 | 48.60838 | 21.72469 | 106° | 18km/h | 27949m | 5.1m/s | -47.6°C | 0.7% | 17.2hPa | 0V | 00:00:00 | 00:00:00 | 00:00:00 | |
| OM5KV | 2026-09-06 00:37:11 | 48.60840 | 21.72450 | 92° | 15km/h | 27929m | 5.7m/s | -47.8°C | 0.7% | 17.2hPa | 0V | 00:00:00 | 00:00:00 | 00:00:00 | |
| SQ9EZE-13 | 2026-09-06 00:37:06 | 48.60846 | 21.72427 | 114° | 11km/h | 27899m | 5.6m/s | -48.1°C | 0.8% | 17.3hPa | 0V | 00:00:00 | 00:00:00 | 00:00:00 | |
| OM5KV | 2026-09-06 00:37:05 | 48.60846 | 21.72427 | 114° | 11km/h | 27899m | 5.6m/s | -48.1°C | 0.8% | 17.3hPa | 0V | 00:00:00 | 00:00:00 | 00:00:00 | |
| OM5KV | 2026-09-06 00:37:02 | 48.60842 | 21.72412 | 54° | 11km/h | 27873m | 6.3m/s | -48.0°C | 0.8% | 17.4hPa | 0V | 00:00:00 | 00:00:00 | 00:00:00 | |
| OM5KV | 2026-09-06 00:37:00 | 48.60841 | 21.72404 | 98° | 11km/h | 27861m | 6.0m/s | -48.0°C | 0.8% | 17.4hPa | 0V | 00:00:00 | 00:00:00 | 00:00:00 | |
| OM5KV | 2026-09-06 00:36:57 | 48.60843 | 21.72389 | 86° | 15km/h | 27842m | 7.2m/s | -47.9°C | 0.8% | 17.4hPa | 0V | 00:00:00 | 00:00:00 | 00:00:00 | |
| OM5KV | 2026-09-06 00:36:52 | 48.60836 | 21.72378 | 355° | 5km/h | 27818m | 7.3m/s | -47.8°C | 0.8% | 17.5hPa | 0V | 00:00:00 | 00:00:00 | 00:00:00 | |
| SQ9EZE-13 | 2026-09-06 00:36:50 | 48.60834 | 21.72380 | 303° | 7km/h | 27805m | 5.0m/s | -47.7°C | 0.8% | 17.5hPa | 0V | 00:00:00 | 00:00:00 | 00:00:00 | |
| OM5KV | 2026-09-06 00:36:47 | 48.60827 | 21.72384 | 7° | 13km/h | 27786m | 6.2m/s | -47.7°C | 0.8% | 17.6hPa | 0V | 00:00:00 | 00:00:00 | 00:00:00 | |
| OM5KV | 2026-09-06 00:36:44 | 48.60819 | 21.72377 | 40° | 9km/h | 27761m | 4.0m/s | -47.6°C | 0.8% | 17.7hPa | 0V | 00:00:00 | 00:00:00 | 00:00:00 | |
| SQ9EZE-14 | 2026-09-06 00:36:42 | 48.60817 | 21.72375 | 35° | 11km/h | 27756m | 6.5m/s | -47.6°C | 0.8% | 17.7hPa | 0V | 00:00:00 | 00:00:00 | 00:00:00 | |
| PG1ADW-2 | 2026-09-06 00:36:37 | 48.60805 | 21.72380 | 284° | 15km/h | 27720m | 4.8m/s | 0°C | 0% | 0hPa | 0V | 00:00:00 | 00:00:00 | 00:00:00 | |
| SQ9EZE-13 | 2026-09-06 00:36:35 | 48.60801 | 21.72389 | 316° | 16km/h | 27708m | 6.9m/s | -47.5°C | 0.7% | 17.8hPa | 0V | 00:00:00 | 00:00:00 | 00:00:00 | |
| OM5KV | 2026-09-06 00:36:34 | 48.60797 | 21.72393 | 328° | 18km/h | 27701m | 5.6m/s | -47.6°C | 0.8% | 17.8hPa | 0V | 00:00:00 | 00:00:00 | 00:00:00 | |
| OM5KV | 2026-09-06 00:36:31 | 48.60786 | 21.72403 | 331° | 15km/h | 27683m | 6.8m/s | -47.7°C | 0.8% | 17.9hPa | 0V | 00:00:00 | 00:00:00 | 00:00:00 | |
| LZ4TU-5 | 2026-09-06 00:36:27 | 48.60772 | 21.72410 | 348° | 18km/h | 27658m | 5.6m/s | 0°C | 0% | 18.0hPa | 0V | 00:00:00 | 00:00:00 | 00:00:00 | |
| OM5KV | 2026-09-06 00:36:19 | 48.60746 | 21.72453 | 323° | 16km/h | 27612m | 4.1m/s | -47.6°C | 0.8% | 18.1hPa | 0V | 00:00:00 | 00:00:00 | 00:00:00 | |
| OM5KV | 2026-09-06 00:36:16 | 48.60741 | 21.72462 | 264° | 5km/h | 27592m | 6.1m/s | -47.6°C | 0.8% | 18.1hPa | 0V | 00:00:00 | 00:00:00 | 00:00:00 | |
| OM5KV | 2026-09-06 00:36:12 | 48.60741 | 21.72467 | 285° | 7km/h | 27573m | 6.4m/s | -47.6°C | 0.8% | 18.2hPa | 0V | 00:00:00 | 00:00:00 | 00:00:00 | |
| OM5KV | 2026-09-06 00:36:10 | 48.60740 | 21.72474 | 277° | 11km/h | 27561m | 6.7m/s | -47.5°C | 0.8% | 18.2hPa | 0V | 00:00:00 | 00:00:00 | 00:00:00 | |
| OM5KV | 2026-09-06 00:36:07 | 48.60741 | 21.72490 | 276° | 16km/h | 27541m | 5.1m/s | -47.6°C | 0.8% | 18.3hPa | 0V | 00:00:00 | 00:00:00 | 00:00:00 | |
| OM5KV | 2026-09-06 00:36:05 | 48.60736 | 21.72507 | 312° | 15km/h | 27523m | 5.7m/s | -47.6°C | 0.8% | 18.3hPa | 0V | 00:00:00 | 00:00:00 | 00:00:00 | |
| SQ9EZE-13 | 2026-09-06 00:36:02 | 48.60734 | 21.72514 | 268° | 9km/h | 27512m | 6.3m/s | -47.6°C | 0.8% | 18.3hPa | 0V | 00:00:00 | 00:00:00 | 00:00:00 | |
| OM5KV | 2026-09-06 00:35:52 | 48.60758 | 21.72520 | 193° | 7km/h | 27447m | 5.7m/s | -47.6°C | 0.8% | 18.5hPa | 0V | 00:00:00 | 00:00:00 | 00:00:00 | |
| OM5KV | 2026-09-06 00:35:49 | 48.60763 | 21.72519 | 157° | 9km/h | 27428m | 5.2m/s | -47.6°C | 0.8% | 18.6hPa | 0V | 00:00:00 | 00:00:00 | 00:00:00 | |
| SQ9EZE-13 | 2026-09-06 00:35:48 | 48.60769 | 21.72517 | 183° | 16km/h | 27415m | 7.1m/s | -47.6°C | 0.8% | 18.6hPa | 0V | 00:00:00 | 00:00:00 | 00:00:00 | |
| OM5KV | 2026-09-06 00:35:43 | 48.60789 | 21.72515 | 169° | 20km/h | 27389m | 4.9m/s | -47.4°C | 0.8% | 18.7hPa | 0V | 00:00:00 | 00:00:00 | 00:00:00 | |
| OM5KV | 2026-09-06 00:35:37 | 48.60820 | 21.72514 | 145° | 9km/h | 27346m | 5.4m/s | -47.5°C | 0.8% | 18.8hPa | 0V | 00:00:00 | 00:00:00 | 00:00:00 | |
| OM5KV | 2026-09-06 00:35:33 | 48.60832 | 21.72503 | 162° | 20km/h | 27322m | 6.3m/s | -47.5°C | 0.7% | 18.9hPa | 0V | 00:00:00 | 00:00:00 | 00:00:00 | |
| SQ9EZE-13 | 2026-09-06 00:35:31 | 48.60837 | 21.72501 | 159° | 22km/h | 27316m | 5.9m/s | -47.4°C | 0.8% | 18.9hPa | 0V | 00:00:00 | 00:00:00 | 00:00:00 | |
| OM5KV | 2026-09-06 00:35:27 | 48.60857 | 21.72483 | 155° | 26km/h | 27290m | 6.9m/s | -47.3°C | 0.8% | 19.0hPa | 0V | 00:00:00 | 00:00:00 | 00:00:00 | |
| OM5KV | 2026-09-06 00:35:26 | 48.60869 | 21.72477 | 168° | 26km/h | 27276m | 5.5m/s | -47.3°C | 0.7% | 19.0hPa | 0V | 00:00:00 | 00:00:00 | 00:00:00 | |
| OM5KV | 2026-09-06 00:35:22 | 48.60884 | 21.72470 | 156° | 13km/h | 27257m | 6.7m/s | -47.3°C | 0.7% | 19.1hPa | 0V | 00:00:00 | 00:00:00 | 00:00:00 | |
| OM5KV | 2026-09-06 00:35:20 | 48.60893 | 21.72466 | 175° | 15km/h | 27238m | 7.1m/s | -47.3°C | 0.7% | 19.1hPa | 0V | 00:00:00 | 00:00:00 | 00:00:00 | |
| OM5KV | 2026-09-06 00:35:17 | 48.60905 | 21.72462 | 159° | 20km/h | 27220m | 7.2m/s | -47.2°C | 0.8% | 19.2hPa | 0V | 00:00:00 | 00:00:00 | 00:00:00 | |
| SQ9EZE-13 | 2026-09-06 00:35:15 | 48.60915 | 21.72454 | 150° | 26km/h | 27208m | 5.2m/s | -47.1°C | 0.8% | 19.2hPa | 0V | 00:00:00 | 00:00:00 | 00:00:00 | |
| OM5KV | 2026-09-06 00:35:13 | 48.60921 | 21.72449 | 155° | 27km/h | 27202m | 7.1m/s | -47.0°C | 0.8% | 19.3hPa | 0V | 00:00:00 | 00:00:00 | 00:00:00 | |
| OM5KV | 2026-09-06 00:35:09 | 48.60946 | 21.72433 | 153° | 20km/h | 27177m | 7.0m/s | -46.9°C | 0.7% | 19.3hPa | 0V | 00:00:00 | 00:00:00 | 00:00:00 | |
| OM5KV | 2026-09-06 00:35:07 | 48.60957 | 21.72427 | 178° | 15km/h | 27159m | 7.5m/s | -46.8°C | 0.7% | 19.3hPa | 0V | 00:00:00 | 00:00:00 | 00:00:00 | |
| OM5KV | 2026-09-06 00:35:03 | 48.60970 | 21.72425 | 160° | 20km/h | 27139m | 6.6m/s | -46.8°C | 0.7% | 19.4hPa | 0V | 00:00:00 | 00:00:00 | 00:00:00 | |
| OM5KV | 2026-09-06 00:35:01 | 48.60985 | 21.72406 | 135° | 31km/h | 27120m | 5.8m/s | -46.8°C | 0.7% | 19.5hPa | 0V | 00:00:00 | 00:00:00 | 00:00:00 | |
| OM5KV | 2026-09-06 00:35:00 | 48.60985 | 21.72406 | 135° | 31km/h | 27120m | 5.8m/s | -46.8°C | 0.7% | 19.5hPa | 0V | 00:00:00 | 00:00:00 | 00:00:00 | |
| SQ9EZE-13 | 2026-09-06 00:34:59 | 48.60990 | 21.72398 | 138° | 31km/h | 27114m | 7.4m/s | -46.9°C | 0.7% | 19.5hPa | 0V | 00:00:00 | 00:00:00 | 00:00:00 | |
| OM5KV | 2026-09-06 00:34:56 | 48.61006 | 21.72374 | 129° | 29km/h | 27096m | 6.6m/s | -47.1°C | 0.7% | 19.5hPa | 0V | 00:00:00 | 00:00:00 | 00:00:00 | |
| OM5KV | 2026-09-06 00:34:54 | 48.61016 | 21.72350 | 118° | 18km/h | 27077m | 5.8m/s | -47.2°C | 0.7% | 19.6hPa | 0V | 00:00:00 | 00:00:00 | 00:00:00 | |
| OM5KV | 2026-09-06 00:34:51 | 48.61023 | 21.72340 | 160° | 13km/h | 27057m | 5.4m/s | -47.3°C | 0.7% | 19.7hPa | 0V | 00:00:00 | 00:00:00 | 00:00:00 | |
| SQ9EZE-13 | 2026-09-06 00:34:43 | 48.61052 | 21.72298 | 134° | 24km/h | 27016m | 5.2m/s | -47.4°C | 0.7% | 19.8hPa | 0V | 00:00:00 | 00:00:00 | 00:00:00 | |
| OM5KV | 2026-09-06 00:34:42 | 48.61056 | 21.72292 | 122° | 20km/h | 27011m | 4.9m/s | -47.4°C | 0.7% | 19.8hPa | 0V | 00:00:00 | 00:00:00 | 00:00:00 | |
| OM5KV | 2026-09-06 00:34:41 | 48.61058 | 21.72285 | 105° | 18km/h | 27005m | 7.3m/s | -47.4°C | 0.7% | 19.8hPa | 0V | 00:00:00 | 00:00:00 | 00:00:00 | |
| SQ9EZE-14 | 2026-09-06 00:34:40 | 48.61058 | 21.72278 | 86° | 18km/h | 26998m | 7.0m/s | -47.5°C | 0.7% | 19.8hPa | 0V | 00:00:00 | 00:00:00 | 00:00:00 | |
| OM5KV | 2026-09-06 00:34:38 | 48.61056 | 21.72268 | 76° | 9km/h | 26985m | 6.8m/s | -47.6°C | 0.7% | 19.9hPa | 0V | 00:00:00 | 00:00:00 | 00:00:00 | |
| OM5KV | 2026-09-06 00:34:36 | 48.61058 | 21.72264 | 163° | 9km/h | 26972m | 5.7m/s | -47.7°C | 0.7% | 19.9hPa | 0V | 00:00:00 | 00:00:00 | 00:00:00 | |
| OM5KV | 2026-09-06 00:34:32 | 48.61084 | 21.72249 | 165° | 31km/h | 26941m | 7.5m/s | -48.1°C | 0.8% | 20.0hPa | 0V | 00:00:00 | 00:00:00 | 00:00:00 | |
| OM5KV | 2026-09-06 00:34:30 | 48.61092 | 21.72246 | 168° | 31km/h | 26934m | 6.0m/s | -48.1°C | 0.8% | 20.0hPa | 0V | 00:00:00 | 00:00:00 | 00:00:00 | |
| SQ9EZE-13 | 2026-09-06 00:34:28 | 48.61105 | 21.72238 | 152° | 26km/h | 26924m | 5.5m/s | -48.2°C | 0.8% | 20.0hPa | 0V | 00:00:00 | 00:00:00 | 00:00:00 | |
| OM5KV | 2026-09-06 00:34:25 | 48.61116 | 21.72214 | 103° | 13km/h | 26899m | 6.6m/s | -48.3°C | 0.8% | 20.1hPa | 0V | 00:00:00 | 00:00:00 | 00:00:00 | |
| OM5KV | 2026-09-06 00:34:22 | 48.61118 | 21.72208 | 131° | 7km/h | 26886m | 5.4m/s | -48.4°C | 0.8% | 20.2hPa | 0V | 00:00:00 | 00:00:00 | 00:00:00 | |
| OM5KV | 2026-09-06 00:34:20 | 48.61124 | 21.72200 | 142° | 18km/h | 26868m | 5.9m/s | -48.6°C | 0.8% | 20.2hPa | 0V | 00:00:00 | 00:00:00 | 00:00:00 | |
| OM5KV | 2026-09-06 00:34:14 | 48.61151 | 21.72176 | 158° | 24km/h | 26839m | 5.3m/s | -48.7°C | 0.8% | 20.3hPa | 0V | 00:00:00 | 00:00:00 | 00:00:00 | |
| SQ9EZE-13 | 2026-09-06 00:34:12 | 48.61159 | 21.72168 | 119° | 15km/h | 26829m | 7.0m/s | -48.7°C | 0.8% | 20.3hPa | 0V | 00:00:00 | 00:00:00 | 00:00:00 | |
| OM5KV | 2026-09-06 00:34:08 | 48.61151 | 21.72148 | 32° | 15km/h | 26802m | 7.1m/s | -48.8°C | 0.8% | 20.4hPa | 0V | 00:00:00 | 00:00:00 | 00:00:00 | |
| SQ9EZE-13 | 2026-09-06 00:33:57 | 48.61183 | 21.72113 | 97° | 16km/h | 26735m | 7.2m/s | -49.2°C | 0.8% | 20.6hPa | 0V | 00:00:00 | 00:00:00 | 00:00:00 | |
| LZ4TU-5 | 2026-09-06 00:33:51 | 48.61180 | 21.72088 | 155° | 20km/h | 26694m | 7.2m/s | 0°C | 0% | 20.8hPa | 0V | 00:00:00 | 00:00:00 | 00:00:00 | |
| OM5KV | 2026-09-06 00:33:50 | 48.61180 | 21.72088 | 155° | 20km/h | 26694m | 7.2m/s | -49.6°C | 0% | 20.8hPa | 0V | 00:00:00 | 00:00:00 | 00:00:00 | |
| OM5KV | 2026-09-06 00:33:49 | 48.61185 | 21.72084 | 157° | 31km/h | 26687m | 6.6m/s | -49.7°C | 0.8% | 20.8hPa | 0V | 00:00:00 | 00:00:00 | 00:00:00 | |
| LZ4TU-5 | 2026-09-06 00:33:46 | 48.61212 | 21.72072 | 169° | 38km/h | 26668m | 6.3m/s | 0°C | 0% | 20.9hPa | 0V | 00:00:00 | 00:00:00 | 00:00:00 | |
| OM5KV | 2026-09-06 00:33:45 | 48.61221 | 21.72069 | 164° | 33km/h | 26663m | 3.8m/s | -49.9°C | 0.9% | 20.9hPa | 0V | 00:00:00 | 00:00:00 | 00:00:00 | |
| SQ9EZE-13 | 2026-09-06 00:33:42 | 48.61241 | 21.72046 | 110° | 18km/h | 26639m | 6.4m/s | -50.0°C | 0.9% | 21.0hPa | 0V | 00:00:00 | 00:00:00 | 00:00:00 | |
| OM5KV | 2026-09-06 00:33:40 | 48.61243 | 21.72036 | 107° | 11km/h | 26625m | 5.0m/s | -50.1°C | 0.9% | 21.0hPa | 0V | 00:00:00 | 00:00:00 | 00:00:00 | |
| OM5KV | 2026-09-06 00:33:34 | 48.61268 | 21.72010 | 168° | 29km/h | 26588m | 6.8m/s | -50.0°C | 0.9% | 21.1hPa | 0V | 00:00:00 | 00:00:00 | 00:00:00 | |
| OM5KV | 2026-09-06 00:33:28 | 48.61299 | 21.71986 | 129° | 24km/h | 26558m | 5.6m/s | -49.9°C | 0.9% | 21.2hPa | 0V | 00:00:00 | 00:00:00 | 00:00:00 | |
| SQ9EZE-13 | 2026-09-06 00:33:26 | 48.61306 | 21.71969 | 116° | 16km/h | 26540m | 4.4m/s | -49.9°C | 0.9% | 21.3hPa | 0V | 00:00:00 | 00:00:00 | 00:00:00 | |
| OM5KV | 2026-09-06 00:33:19 | 48.61344 | 21.71911 | 150° | 35km/h | 26497m | 4.9m/s | -49.8°C | 0.9% | 21.4hPa | 0V | 00:00:00 | 00:00:00 | 00:00:00 | |
| OM5KV | 2026-09-06 00:33:18 | 48.61351 | 21.71904 | 149° | 35km/h | 26492m | 5.3m/s | -49.8°C | 0.9% | 21.4hPa | 0V | 00:00:00 | 00:00:00 | 00:00:00 | |
| GYPAP8-17 | 2026-09-06 00:33:16 | 48.61358 | 21.71897 | 146° | 35km/h | 26486m | 6.9m/s | -49.8°C | 0.9% | 21.4hPa | 0V | 00:00:00 | 00:00:00 | 00:00:00 | |
| OM5KV | 2026-09-06 00:33:11 | 48.61386 | 21.71856 | 132° | 22km/h | 26456m | 6.6m/s | -49.8°C | 0.8% | 21.5hPa | 0V | 00:00:00 | 00:00:00 | 00:00:00 | |
| SQ9EZE-13 | 2026-09-06 00:33:10 | 48.61390 | 21.71849 | 135° | 22km/h | 26451m | 4.7m/s | -49.8°C | 0.9% | 21.5hPa | 0V | 00:00:00 | 00:00:00 | 00:00:00 | |
| OM5KV | 2026-09-06 00:33:06 | 48.61411 | 21.71816 | 135° | 37km/h | 26427m | 4.7m/s | -49.8°C | 0.8% | 21.6hPa | 0V | 00:00:00 | 00:00:00 | 00:00:00 | |
| OM5KV | 2026-09-06 00:33:04 | 48.61430 | 21.71787 | 139° | 35km/h | 26409m | 5.2m/s | -49.8°C | 0.8% | 21.7hPa | 0V | 00:00:00 | 00:00:00 | 00:00:00 | |
| OM5KV | 2026-09-06 00:33:01 | 48.61449 | 21.71762 | 143° | 33km/h | 26391m | 5.2m/s | -49.7°C | 0.8% | 21.8hPa | 0V | 00:00:00 | 00:00:00 | 00:00:00 | |
| SQ9EZE-13 | 2026-09-06 00:32:55 | 48.61482 | 21.71732 | 148° | 31km/h | 26355m | 5.9m/s | -49.6°C | 0.8% | 21.9hPa | 0V | 00:00:00 | 00:00:00 | 00:00:00 | |
| OM5KV | 2026-09-06 00:32:49 | 48.61512 | 21.71699 | 137° | 24km/h | 26326m | 4.1m/s | -49.6°C | 0.8% | 22.0hPa | 0V | 00:00:00 | 00:00:00 | 00:00:00 | |
| OM5KV | 2026-09-06 00:32:48 | 48.61520 | 21.71686 | 129° | 24km/h | 26314m | 5.8m/s | -49.6°C | 0.9% | 22.0hPa | 0V | 00:00:00 | 00:00:00 | 00:00:00 | |
| OM5KV | 2026-09-06 00:32:42 | 48.61532 | 21.71660 | 145° | 11km/h | 26280m | 6.1m/s | -49.7°C | 0.8% | 22.1hPa | 0V | 00:00:00 | 00:00:00 | 00:00:00 | |
| OM5KV | 2026-09-06 00:32:40 | 48.61534 | 21.71657 | 146° | 16km/h | 26273m | 6.2m/s | -49.7°C | 0.8% | 22.2hPa | 0V | 00:00:00 | 00:00:00 | 00:00:00 | |
| SQ9EZE-13 | 2026-09-06 00:32:38 | 48.61549 | 21.71644 | 152° | 22km/h | 26256m | 6.8m/s | -49.7°C | 0.8% | 22.2hPa | 0V | 00:00:00 | 00:00:00 | 00:00:00 | |
| OM5KV | 2026-09-06 00:32:32 | 48.61569 | 21.71623 | 128° | 20km/h | 26228m | 5.4m/s | -49.7°C | 0.8% | 22.3hPa | 0V | 00:00:00 | 00:00:00 | 00:00:00 | |
| OM5KV | 2026-09-06 00:32:30 | 48.61573 | 21.71608 | 75° | 9km/h | 26210m | 7.0m/s | -49.6°C | 0.8% | 22.4hPa | 0V | 00:00:00 | 00:00:00 | 00:00:00 | |
| OM5KV | 2026-09-06 00:32:28 | 48.61572 | 21.71606 | 47° | 7km/h | 26204m | 4.8m/s | -49.6°C | 0.8% | 22.4hPa | 0V | 00:00:00 | 00:00:00 | 00:00:00 | |
| SQ9EZE-14 | 2026-09-06 00:32:26 | 48.61571 | 21.71602 | 113° | 7km/h | 26195m | 5.8m/s | -49.6°C | 0.8% | 22.4hPa | 0V | 00:00:00 | 00:00:00 | 00:00:00 | |
| OM5KV | 2026-09-06 00:32:23 | 48.61580 | 21.71592 | 153° | 20km/h | 26179m | 5.2m/s | -49.5°C | 0.8% | 22.5hPa | 0V | 00:00:00 | 00:00:00 | 00:00:00 | |
| OM5KV | 2026-09-06 00:32:22 | 48.61584 | 21.71589 | 155° | 20km/h | 26173m | 6.8m/s | -49.5°C | 0.8% | 22.5hPa | 0V | 00:00:00 | 00:00:00 | 00:00:00 | |
| OM5KV | 2026-09-06 00:32:21 | 48.61589 | 21.71586 | 155° | 18km/h | 26166m | 6.2m/s | -49.5°C | 0.8% | 22.5hPa | 0V | 00:00:00 | 00:00:00 | 00:00:00 | |
| OM5KV | 2026-09-06 00:32:16 | 48.61606 | 21.71564 | 102° | 7km/h | 26134m | 6.8m/s | -49.5°C | 0.8% | 22.6hPa | 0V | 00:00:00 | 00:00:00 | 00:00:00 | |
| GYPAP8-17 | 2026-09-06 00:32:11 | 48.61604 | 21.71556 | 108° | 7km/h | 26109m | 6.3m/s | -49.7°C | 0.8% | 22.7hPa | 0V | 00:00:00 | 00:00:00 | 00:00:00 | |
| OM5KV | 2026-09-06 00:32:09 | 48.61608 | 21.71551 | 153° | 15km/h | 26099m | 4.6m/s | -49.7°C | 0.8% | 22.7hPa | 0V | 00:00:00 | 00:00:00 | 00:00:00 | |
| OM5KV | 2026-09-06 00:32:07 | 48.61621 | 21.71545 | 172° | 20km/h | 26080m | 4.7m/s | -49.7°C | 0.8% | 22.8hPa | 0V | 00:00:00 | 00:00:00 | 00:00:00 | |
| OM5KV | 2026-09-06 00:32:04 | 48.61632 | 21.71541 | 159° | 24km/h | 26069m | 6.9m/s | -49.7°C | 0.8% | 22.8hPa | 0V | 00:00:00 | 00:00:00 | 00:00:00 | |
| OM5KV | 2026-09-06 00:32:03 | 48.61637 | 21.71537 | 147° | 20km/h | 26063m | 4.8m/s | -49.8°C | 0.8% | 22.9hPa | 0V | 00:00:00 | 00:00:00 | 00:00:00 | |
| LZ4TU-5 | 2026-09-06 00:32:01 | 48.61642 | 21.71529 | 116° | 11km/h | 26052m | 7.5m/s | 0°C | 0% | 22.9hPa | 0V | 00:00:00 | 00:00:00 | 00:00:00 | |
| OM5KV | 2026-09-06 00:31:59 | 48.61640 | 21.71517 | 72° | 15km/h | 26033m | 6.5m/s | -49.9°C | 0.8% | 23.0hPa | 0V | 00:00:00 | 00:00:00 | 00:00:00 | |
| SQ9EZE-13 | 2026-09-06 00:31:58 | 48.61640 | 21.71512 | 96° | 15km/h | 26027m | 5.2m/s | -49.9°C | 0.8% | 23.0hPa | 0V | 00:00:00 | 00:00:00 | 00:00:00 | |
| OM5KV | 2026-09-06 00:31:55 | 48.61647 | 21.71499 | 162° | 18km/h | 26011m | 7.1m/s | -49.9°C | 0.8% | 23.1hPa | 0V | 00:00:00 | 00:00:00 | 00:00:00 | |
| OM5KV | 2026-09-06 00:31:51 | 48.61664 | 21.71496 | 174° | 26km/h | 25994m | 5.8m/s | -50.0°C | 0.8% | 23.1hPa | 0V | 00:00:00 | 00:00:00 | 00:00:00 | |
| OM5KV | 2026-09-06 00:31:50 | 48.61671 | 21.71494 | 164° | 26km/h | 25988m | 6.2m/s | -50.0°C | 0.9% | 23.1hPa | 0V | 00:00:00 | 00:00:00 | 00:00:00 | |
| OM5KV | 2026-09-06 00:31:47 | 48.61683 | 21.71480 | 119° | 16km/h | 25970m | 6.9m/s | -50.1°C | 0.9% | 23.2hPa | 0V | 00:00:00 | 00:00:00 | 00:00:00 | |
| OM5KV | 2026-09-06 00:31:46 | 48.61684 | 21.71470 | 92° | 11km/h | 25959m | 4.0m/s | -50.1°C | 0.9% | 23.2hPa | 0V | 00:00:00 | 00:00:00 | 00:00:00 | |
| OM5KV | 2026-09-06 00:31:43 | 48.61686 | 21.71461 | 112° | 15km/h | 25949m | 6.2m/s | -50.1°C | 0.9% | 23.3hPa | 0V | 00:00:00 | 00:00:00 | 00:00:00 | |
| SQ9EZE-13 | 2026-09-06 00:31:42 | 48.61690 | 21.71450 | 138° | 22km/h | 25938m | 4.6m/s | -50.1°C | 0.8% | 23.3hPa | 0V | 00:00:00 | 00:00:00 | 00:00:00 | |
| OM5KV | 2026-09-06 00:31:37 | 48.61716 | 21.71426 | 146° | 29km/h | 25909m | 7.0m/s | -50.1°C | 0.9% | 23.4hPa | 0V | 00:00:00 | 00:00:00 | 00:00:00 | |
| OM5KV | 2026-09-06 00:31:36 | 48.61716 | 21.71426 | 146° | 29km/h | 25909m | 7.0m/s | -50.1°C | 0.9% | 23.4hPa | 0V | 00:00:00 | 00:00:00 | 00:00:00 | |
| OM5KV | 2026-09-06 00:31:31 | 48.61738 | 21.71388 | 116° | 18km/h | 25880m | 4.6m/s | -50.2°C | 0.8% | 23.5hPa | 0V | 00:00:00 | 00:00:00 | 00:00:00 | |
| OM5KV | 2026-09-06 00:31:30 | 48.61740 | 21.71382 | 115° | 18km/h | 25875m | 5.7m/s | -50.2°C | 0.8% | 23.6hPa | 0V | 00:00:00 | 00:00:00 | 00:00:00 | |
| SQ9EZE-13 | 2026-09-06 00:31:26 | 48.61753 | 21.71353 | 139° | 24km/h | 25852m | 7.0m/s | -50.4°C | 0.8% | 23.6hPa | 0V | 00:00:00 | 00:00:00 | 00:00:00 | |
| OM5KV | 2026-09-06 00:31:25 | 48.61757 | 21.71348 | 143° | 22km/h | 25845m | 6.0m/s | -50.5°C | 0.8% | 23.7hPa | 0V | 00:00:00 | 00:00:00 | 00:00:00 | |
| OM5KV | 2026-09-06 00:31:20 | 48.61779 | 21.71304 | 112° | 33km/h | 25816m | 5.6m/s | -50.8°C | 0.9% | 23.7hPa | 0V | 00:00:00 | 00:00:00 | 00:00:00 | |
| OM5KV | 2026-09-06 00:31:15 | 48.61797 | 21.71239 | 127° | 33km/h | 25781m | 5.2m/s | -51.0°C | 0.9% | 23.9hPa | 0V | 00:00:00 | 00:00:00 | 00:00:00 | |
| OM5KV | 2026-09-06 00:31:14 | 48.61801 | 21.71230 | 131° | 31km/h | 25775m | 7.0m/s | -51.1°C | 0.9% | 23.9hPa | 0V | 00:00:00 | 00:00:00 | 00:00:00 | |
| OM5KV | 2026-09-06 00:31:10 | 48.61817 | 21.71206 | 136° | 31km/h | 25758m | 5.3m/s | -51.2°C | 0.9% | 23.9hPa | 0V | 00:00:00 | 00:00:00 | 00:00:00 | |
| SQ9EZE-13 | 2026-09-06 00:31:09 | 48.61823 | 21.71197 | 132° | 35km/h | 25752m | 6.8m/s | -51.3°C | 0.9% | 24.0hPa | 0V | 00:00:00 | 00:00:00 | 00:00:00 | |
| OM5KV | 2026-09-06 00:31:06 | 48.61837 | 21.71163 | 115° | 33km/h | 25735m | 7.3m/s | -51.3°C | 0.9% | 24.0hPa | 0V | 00:00:00 | 00:00:00 | 00:00:00 | |
| OM5KV | 2026-09-06 00:31:04 | 48.61841 | 21.71140 | 95° | 33km/h | 25723m | 5.3m/s | -51.3°C | 0.9% | 24.1hPa | 0V | 00:00:00 | 00:00:00 | 00:00:00 | |
| OM5KV | 2026-09-06 00:31:02 | 48.61842 | 21.71099 | 96° | 37km/h | 25705m | 4.3m/s | -51.3°C | 0.9% | 24.2hPa | 0V | 00:00:00 | 00:00:00 | 00:00:00 | |
| GYPAP8-17 | 2026-09-06 00:31:01 | 48.61842 | 21.71099 | 96° | 37km/h | 25705m | 4.3m/s | -51.3°C | 0.9% | 24.2hPa | 0V | 00:00:00 | 00:00:00 | 00:00:00 | |
| OM5KV | 2026-09-06 00:30:58 | 48.61847 | 21.71062 | 112° | 29km/h | 25687m | 5.7m/s | -51.4°C | 0.9% | 24.2hPa | 0V | 00:00:00 | 00:00:00 | 00:00:00 | |
| SQ9EZE-13 | 2026-09-06 00:30:54 | 48.61860 | 21.71022 | 116° | 24km/h | 25665m | 4.4m/s | -51.6°C | 0.9% | 24.3hPa | 0V | 00:00:00 | 00:00:00 | 00:00:00 | |
| OM5KV | 2026-09-06 00:30:51 | 48.61863 | 21.71002 | 85° | 16km/h | 25646m | 5.1m/s | -51.7°C | 0.9% | 24.4hPa | 0V | 00:00:00 | 00:00:00 | 00:00:00 | |
| OM5KV | 2026-09-06 00:30:46 | 48.61856 | 21.70951 | 74° | 35km/h | 25616m | 6.8m/s | -51.9°C | 0.9% | 24.5hPa | 0V | 00:00:00 | 00:00:00 | 00:00:00 | |
| OM5KV | 2026-09-06 00:30:40 | 48.61855 | 21.70888 | 109° | 13km/h | 25580m | 7.5m/s | -52.1°C | 0.9% | 24.6hPa | 0V | 00:00:00 | 00:00:00 | 00:00:00 | |
| OM5KV | 2026-09-06 00:30:38 | 48.61855 | 21.70883 | 60° | 2km/h | 25567m | 4.6m/s | -52.2°C | 0.9% | 24.7hPa | 0V | 00:00:00 | 00:00:00 | 00:00:00 | |
| OM5KV | 2026-09-06 00:30:32 | 48.61847 | 21.70856 | 58° | 24km/h | 25533m | 7.2m/s | -52.6°C | 1.0% | 24.8hPa | 0V | 00:00:00 | 00:00:00 | 00:00:00 | |
| SQ9EZE-13 | 2026-09-06 00:30:31 | 48.61843 | 21.70848 | 54° | 26km/h | 25526m | 5.7m/s | -52.6°C | 1.0% | 24.8hPa | 0V | 00:00:00 | 00:00:00 | 00:00:00 | |
| SQ9EZE-14 | 2026-09-06 00:30:30 | 48.61836 | 21.70832 | 62° | 24km/h | 25515m | 6.1m/s | -52.6°C | 1.0% | 24.9hPa | 0V | 00:00:00 | 00:00:00 | 00:00:00 | |
| OM5KV | 2026-09-06 00:30:27 | 48.61832 | 21.70810 | 84° | 15km/h | 25498m | 5.0m/s | -52.6°C | 1.0% | 24.9hPa | 0V | 00:00:00 | 00:00:00 | 00:00:00 | |
| OM5KV | 2026-09-06 00:30:21 | 48.61824 | 21.70804 | 343° | 5km/h | 25467m | 7.8m/s | -52.6°C | 1.0% | 25.1hPa | 0V | 00:00:00 | 00:00:00 | 00:00:00 | |
| LZ4TU-5 | 2026-09-06 00:30:18 | 48.61820 | 21.70806 | 332° | 7km/h | 25442m | 7.2m/s | 0°C | 0% | 25.2hPa | 0V | 00:00:00 | 00:00:00 | 00:00:00 | |
| OM5KV | 2026-09-06 00:30:17 | 48.61818 | 21.70807 | 40° | 4km/h | 25431m | 6.1m/s | -52.8°C | 1.0% | 25.2hPa | 0V | 00:00:00 | 00:00:00 | 00:00:00 | |
| SQ9EZE-14 | 2026-09-06 00:30:15 | 48.61818 | 21.70805 | 90° | 5km/h | 25424m | 7.7m/s | -52.8°C | 1.0% | 25.3hPa | 0V | 00:00:00 | 00:00:00 | 00:00:00 | |
| LZ4TU-5 | 2026-09-06 00:30:14 | 48.61818 | 21.70802 | 93° | 9km/h | 25417m | 5.0m/s | 0°C | 0% | 25.2hPa | 0V | 00:00:00 | 00:00:00 | 00:00:00 | |
| OM5KV | 2026-09-06 00:30:10 | 48.61816 | 21.70795 | 10° | 4km/h | 25399m | 5.0m/s | -52.7°C | 1.0% | 25.3hPa | 0V | 00:00:00 | 00:00:00 | 00:00:00 | |
| OM5KV | 2026-09-06 00:30:09 | 48.61815 | 21.70795 | 315° | 4km/h | 25394m | 5.3m/s | -52.7°C | 1.0% | 25.3hPa | 0V | 00:00:00 | 00:00:00 | 00:00:00 | |
| OM5KV | 2026-09-06 00:30:04 | 48.61819 | 21.70811 | 261° | 11km/h | 25363m | 6.1m/s | -52.6°C | 1.0% | 25.5hPa | 0V | 00:00:00 | 00:00:00 | 00:00:00 | |
| OM5KV | 2026-09-06 00:30:03 | 48.61819 | 21.70814 | 268° | 5km/h | 25358m | 5.0m/s | -52.6°C | 1.0% | 25.5hPa | 0V | 00:00:00 | 00:00:00 | 00:00:00 | |
| SQ9EZE-13 | 2026-09-06 00:30:00 | 48.61820 | 21.70810 | 101° | 15km/h | 25339m | 6.2m/s | -52.5°C | 1.0% | 25.6hPa | 0V | 00:00:00 | 00:00:00 | 00:00:00 | |
| OM5KV | 2026-09-06 00:29:59 | 48.61821 | 21.70795 | 87° | 22km/h | 25328m | 5.1m/s | -52.4°C | 1.0% | 25.6hPa | 0V | 00:00:00 | 00:00:00 | 00:00:00 | |
| OM5KV | 2026-09-06 00:29:52 | 48.61811 | 21.70757 | 101° | 9km/h | 25291m | 5.9m/s | -52.2°C | 0.9% | 25.8hPa | 0V | 00:00:00 | 00:00:00 | 00:00:00 | |
| OM5KV | 2026-09-06 00:29:47 | 48.61820 | 21.70752 | 141° | 15km/h | 25260m | 7.0m/s | -52.0°C | 1.0% | 25.9hPa | 0V | 00:00:00 | 00:00:00 | 00:00:00 | |
| SQ9EZE-14 | 2026-09-06 00:29:44 | 48.61823 | 21.70719 | 73° | 29km/h | 25236m | 6.4m/s | -51.9°C | 0.9% | 26.0hPa | 0V | 00:00:00 | 00:00:00 | 00:00:00 | |
| OM5KV | 2026-09-06 00:29:40 | 48.61813 | 21.70685 | 69° | 31km/h | 25217m | 6.0m/s | -51.9°C | 0.9% | 26.1hPa | 0V | 00:00:00 | 00:00:00 | 00:00:00 | |
| OM5KV | 2026-09-06 00:29:35 | 48.61804 | 21.70652 | 100° | 11km/h | 25187m | 6.2m/s | -52.0°C | 0.9% | 26.2hPa | 0V | 00:00:00 | 00:00:00 | 00:00:00 | |
| OM5KV | 2026-09-06 00:29:30 | 48.61810 | 21.70596 | 79° | 35km/h | 25152m | 5.7m/s | -52.1°C | 1.0% | 26.3hPa | 0V | 00:00:00 | 00:00:00 | 00:00:00 | |
| SQ9EZE-13 | 2026-09-06 00:29:29 | 48.61810 | 21.70596 | 79° | 35km/h | 25152m | 5.7m/s | -52.1°C | 1.0% | 26.3hPa | 0V | 00:00:00 | 00:00:00 | 00:00:00 | |
| OM5KV | 2026-09-06 00:29:20 | 48.61776 | 21.70492 | 60° | 27km/h | 25097m | 6.6m/s | -52.0°C | 0.9% | 26.5hPa | 0V | 00:00:00 | 00:00:00 | 00:00:00 | |
| OM5KV | 2026-09-06 00:29:17 | 48.61767 | 21.70447 | 75° | 35km/h | 25072m | 7.5m/s | -52.1°C | 1.0% | 26.6hPa | 0V | 00:00:00 | 00:00:00 | 00:00:00 | |
| OM5KV | 2026-09-06 00:29:14 | 48.61759 | 21.70408 | 76° | 35km/h | 25053m | 7.2m/s | -52.1°C | 1.0% | 26.7hPa | 0V | 00:00:00 | 00:00:00 | 00:00:00 | |
| OM5KV | 2026-09-06 00:29:09 | 48.61737 | 21.70365 | 30° | 29km/h | 25023m | 5.2m/s | -51.9°C | 1.0% | 26.8hPa | 0V | 00:00:00 | 00:00:00 | 00:00:00 | |
| OM5KV | 2026-09-06 00:29:07 | 48.61726 | 21.70354 | 43° | 26km/h | 25010m | 6.5m/s | -51.9°C | 1.0% | 26.9hPa | 0V | 00:00:00 | 00:00:00 | 00:00:00 | |
| SQ9EZE-13 | 2026-09-06 00:28:58 | 48.61698 | 21.70279 | 67° | 26km/h | 24960m | 4.7m/s | -51.6°C | 1.0% | 27.1hPa | 0V | 00:00:00 | 00:00:00 | 00:00:00 | |
| OM5KV | 2026-09-06 00:28:57 | 48.61690 | 21.70264 | 38° | 24km/h | 24948m | 6.3m/s | -51.6°C | 0.9% | 27.2hPa | 0V | 00:00:00 | 00:00:00 | 00:00:00 | |
| OM5KV | 2026-09-06 00:28:54 | 48.61680 | 21.70256 | 18° | 24km/h | 24936m | 5.8m/s | -51.5°C | 0.9% | 27.2hPa | 0V | 00:00:00 | 00:00:00 | 00:00:00 | |
| OM5KV | 2026-09-06 00:28:51 | 48.61667 | 21.70247 | 45° | 16km/h | 24918m | 5.6m/s | -51.5°C | 0.9% | 27.3hPa | 0V | 00:00:00 | 00:00:00 | 00:00:00 | |
| OM5KV | 2026-09-06 00:28:44 | 48.61640 | 21.70197 | 55° | 16km/h | 24870m | 5.2m/s | -51.7°C | 0.9% | 27.5hPa | 0V | 00:00:00 | 00:00:00 | 00:00:00 | |
| OM5KV | 2026-09-06 00:28:31 | 48.61587 | 21.70157 | 27° | 11km/h | 24795m | 5.8m/s | -52.1°C | 0.9% | 27.8hPa | 0V | 00:00:00 | 00:00:00 | 00:00:00 | |
| OM5KV | 2026-09-06 00:28:30 | 48.61584 | 21.70156 | 25° | 9km/h | 24790m | 5.3m/s | -52.1°C | 0.9% | 27.8hPa | 0V | 00:00:00 | 00:00:00 | 00:00:00 | |
| SQ9EZE-13 | 2026-09-06 00:28:27 | 48.61576 | 21.70153 | 361° | 13km/h | 24771m | 4.3m/s | -52.1°C | 0.9% | 27.9hPa | 0V | 00:00:00 | 00:00:00 | 00:00:00 | |
| OM5KV | 2026-09-06 00:28:26 | 48.61573 | 21.70153 | 355° | 9km/h | 24765m | 6.9m/s | -52.2°C | 0.9% | 27.9hPa | 0V | 00:00:00 | 00:00:00 | 00:00:00 | |
| LZ4TU-5 | 2026-09-06 00:28:24 | 48.61568 | 21.70155 | 353° | 7km/h | 24746m | 6.5m/s | 0°C | 0% | 28.0hPa | 0V | 00:00:00 | 00:00:00 | 00:00:00 | |
| OM5KV | 2026-09-06 00:28:20 | 48.61558 | 21.70153 | 20° | 9km/h | 24721m | 7.4m/s | -52.2°C | 0.9% | 28.1hPa | 0V | 00:00:00 | 00:00:00 | 00:00:00 | |
| LZ4TU-5 | 2026-09-06 00:28:19 | 48.61556 | 21.70152 | 28° | 7km/h | 24714m | 5.3m/s | 0°C | 0% | 28.1hPa | 0V | 00:00:00 | 00:00:00 | 00:00:00 | |
| OM5KV | 2026-09-06 00:28:18 | 48.61556 | 21.70152 | 28° | 7km/h | 24714m | 5.3m/s | -52.2°C | 0.9% | 28.1hPa | 0V | 00:00:00 | 00:00:00 | 00:00:00 | |
| OM5KV | 2026-09-06 00:28:15 | 48.61550 | 21.70148 | 13° | 7km/h | 24695m | 5.2m/s | -52.2°C | 0.9% | 28.2hPa | 0V | 00:00:00 | 00:00:00 | 00:00:00 | |
| SQ9EZE-13 | 2026-09-06 00:28:11 | 48.61549 | 21.70154 | 265° | 9km/h | 24672m | 5.7m/s | -52.3°C | 1.0% | 28.3hPa | 0V | 00:00:00 | 00:00:00 | 00:00:00 | |
| OM5KV | 2026-09-06 00:28:10 | 48.61549 | 21.70158 | 280° | 11km/h | 24665m | 7.6m/s | -52.3°C | 0.9% | 28.4hPa | 0V | 00:00:00 | 00:00:00 | 00:00:00 | |
| OM5KV | 2026-09-06 00:28:06 | 48.61546 | 21.70174 | 260° | 7km/h | 24640m | 6.1m/s | -52.3°C | 1.0% | 28.5hPa | 0V | 00:00:00 | 00:00:00 | 00:00:00 | |
| OM5KV | 2026-09-06 00:28:04 | 48.61546 | 21.70176 | 30° | 2km/h | 24628m | 7.4m/s | -52.3°C | 1.0% | 28.5hPa | 0V | 00:00:00 | 00:00:00 | 00:00:00 | |
| OM5KV | 2026-09-06 00:28:00 | 48.61543 | 21.70171 | 236° | 4km/h | 24599m | 4.9m/s | -52.2°C | 0.9% | 28.6hPa | 0V | 00:00:00 | 00:00:00 | 00:00:00 | |
| SQ9EZE-13 | 2026-09-06 00:27:56 | 48.61542 | 21.70179 | 308° | 13km/h | 24582m | 6.2m/s | -52.3°C | 0.9% | 28.7hPa | 0V | 00:00:00 | 00:00:00 | 00:00:00 | |
| OM5KV | 2026-09-06 00:27:55 | 48.61538 | 21.70186 | 322° | 13km/h | 24571m | 5.1m/s | -52.4°C | 1.0% | 28.8hPa | 0V | 00:00:00 | 00:00:00 | 00:00:00 | |
| OM5KV | 2026-09-06 00:27:52 | 48.61535 | 21.70190 | 166° | 4km/h | 24552m | 5.9m/s | -52.5°C | 1.0% | 28.9hPa | 0V | 00:00:00 | 00:00:00 | 00:00:00 | |
| OM5KV | 2026-09-06 00:27:51 | 48.61536 | 21.70189 | 132° | 5km/h | 24546m | 5.7m/s | -52.5°C | 1.0% | 28.9hPa | 0V | 00:00:00 | 00:00:00 | 00:00:00 | |
| OM5KV | 2026-09-06 00:27:47 | 48.61537 | 21.70182 | 90° | 7km/h | 24528m | 5.1m/s | -52.5°C | 1.0% | 29.0hPa | 0V | 00:00:00 | 00:00:00 | 00:00:00 | |
| OM5KV | 2026-09-06 00:27:46 | 48.61537 | 21.70179 | 106° | 9km/h | 24521m | 6.9m/s | -52.4°C | 1.0% | 29.0hPa | 0V | 00:00:00 | 00:00:00 | 00:00:00 | |
| OM5KV | 2026-09-06 00:27:43 | 48.61540 | 21.70169 | 84° | 4km/h | 24497m | 6.5m/s | -52.4°C | 1.0% | 29.1hPa | 0V | 00:00:00 | 00:00:00 | 00:00:00 | |
| SQ9EZE-13 | 2026-09-06 00:27:41 | 48.61540 | 21.70168 | 0° | 0km/h | 24486m | 5.7m/s | -52.4°C | 1.0% | 29.2hPa | 0V | 00:00:00 | 00:00:00 | 00:00:00 | |
| GYPAP8-17 | 2026-09-06 00:27:40 | 48.61540 | 21.70168 | 0° | 0km/h | 24486m | 5.7m/s | -52.4°C | 1.0% | 29.2hPa | 0V | 00:00:00 | 00:00:00 | 00:00:00 | |
| OM5KV | 2026-09-06 00:27:39 | 48.61541 | 21.70168 | 140° | 4km/h | 24474m | 4.9m/s | -52.5°C | 1.0% | 29.2hPa | 0V | 00:00:00 | 00:00:00 | 00:00:00 | |
| OM5KV | 2026-09-06 00:27:34 | 48.61539 | 21.70158 | 68° | 11km/h | 24451m | 4.4m/s | -52.5°C | 1.0% | 29.3hPa | 0V | 00:00:00 | 00:00:00 | 00:00:00 | |
| OM5KV | 2026-09-06 00:27:31 | 48.61539 | 21.70145 | 109° | 11km/h | 24432m | 5.6m/s | -52.6°C | 1.0% | 29.4hPa | 0V | 00:00:00 | 00:00:00 | 00:00:00 | |
| SQ9EZE-13 | 2026-09-06 00:27:25 | 48.61546 | 21.70137 | 189° | 11km/h | 24391m | 5.5m/s | -52.5°C | 1.0% | 29.6hPa | 0V | 00:00:00 | 00:00:00 | 00:00:00 | |
| OM5KV | 2026-09-06 00:27:22 | 48.61550 | 21.70138 | 180° | 4km/h | 24379m | 6.4m/s | -52.5°C | 1.0% | 29.6hPa | 0V | 00:00:00 | 00:00:00 | 00:00:00 | |
| OM5KV | 2026-09-06 00:27:19 | 48.61551 | 21.70132 | 112° | 9km/h | 24364m | 6.5m/s | -52.5°C | 1.0% | 29.7hPa | 0V | 00:00:00 | 00:00:00 | 00:00:00 | |
| OM5KV | 2026-09-06 00:27:16 | 48.61556 | 21.70117 | 108° | 16km/h | 24347m | 6.3m/s | -52.4°C | 1.0% | 29.8hPa | 0V | 00:00:00 | 00:00:00 | 00:00:00 | |
| OM5KV | 2026-09-06 00:27:12 | 48.61560 | 21.70095 | 119° | 15km/h | 24322m | 7.1m/s | -52.3°C | 1.0% | 29.9hPa | 0V | 00:00:00 | 00:00:00 | 00:00:00 | |
| OM5KV | 2026-09-06 00:27:10 | 48.61565 | 21.70083 | 117° | 9km/h | 24304m | 7.1m/s | -52.3°C | 1.0% | 30.0hPa | 0V | 00:00:00 | 00:00:00 | 00:00:00 | |
| SQ9EZE-13 | 2026-09-06 00:27:08 | 48.61566 | 21.70081 | 92° | 5km/h | 24298m | 6.1m/s | -52.3°C | 1.0% | 30.0hPa | 0V | 00:00:00 | 00:00:00 | 00:00:00 | |
| OM5KV | 2026-09-06 00:27:06 | 48.61565 | 21.70073 | 95° | 9km/h | 24280m | 6.2m/s | -52.3°C | 1.0% | 30.1hPa | 0V | 00:00:00 | 00:00:00 | 00:00:00 | |
| OM5KV | 2026-09-06 00:27:04 | 48.61565 | 21.70069 | 99° | 11km/h | 24274m | 5.4m/s | -52.2°C | 1.0% | 30.1hPa | 0V | 00:00:00 | 00:00:00 | 00:00:00 | |
| OM5KV | 2026-09-06 00:26:59 | 48.61564 | 21.70042 | 96° | 18km/h | 24246m | 6.6m/s | -52.2°C | 0.9% | 30.3hPa | 0V | 00:00:00 | 00:00:00 | 00:00:00 | |
| OM5KV | 2026-09-06 00:26:58 | 48.61565 | 21.70035 | 109° | 20km/h | 24239m | 6.5m/s | -52.2°C | 0.9% | 30.3hPa | 0V | 00:00:00 | 00:00:00 | 00:00:00 | |
| SQ9EZE-13 | 2026-09-06 00:26:53 | 48.61571 | 21.70006 | 103° | 15km/h | 24211m | 5.2m/s | -52.5°C | 1.0% | 30.4hPa | 0V | 00:00:00 | 00:00:00 | 00:00:00 | |
| OM5KV | 2026-09-06 00:26:52 | 48.61572 | 21.70001 | 106° | 16km/h | 24205m | 6.7m/s | -52.5°C | 1.0% | 30.4hPa | 0V | 00:00:00 | 00:00:00 | 00:00:00 | |
| OM5KV | 2026-09-06 00:26:47 | 48.61573 | 21.69963 | 94° | 13km/h | 24170m | 6.2m/s | -52.7°C | 1.0% | 30.6hPa | 0V | 00:00:00 | 00:00:00 | 00:00:00 | |
| GYPAP8-17 | 2026-09-06 00:26:46 | 48.61573 | 21.69963 | 94° | 13km/h | 24170m | 6.2m/s | -52.7°C | 1.0% | 30.6hPa | 0V | 00:00:00 | 00:00:00 | 00:00:00 | |
| LZ4TU-5 | 2026-09-06 00:26:45 | 48.61576 | 21.69953 | 127° | 16km/h | 24158m | 5.0m/s | 0°C | 0% | 0hPa | 0V | 00:00:00 | 00:00:00 | 00:00:00 | |
| OM5KV | 2026-09-06 00:26:42 | 48.61582 | 21.69936 | 107° | 18km/h | 24141m | 5.6m/s | -52.8°C | 1.0% | 30.8hPa | 0V | 00:00:00 | 00:00:00 | 00:00:00 | |
| OM5KV | 2026-09-06 00:26:41 | 48.61583 | 21.69929 | 100° | 18km/h | 24136m | 4.2m/s | -52.8°C | 1.0% | 30.8hPa | 0V | 00:00:00 | 00:00:00 | 00:00:00 | |
| SQ9EZE-13 | 2026-09-06 00:26:37 | 48.61586 | 21.69909 | 99° | 15km/h | 24119m | 4.6m/s | -52.8°C | 1.0% | 30.9hPa | 0V | 00:00:00 | 00:00:00 | 00:00:00 | |
| OM5KV | 2026-09-06 00:26:35 | 48.61585 | 21.69900 | 60° | 9km/h | 24108m | 7.8m/s | -52.8°C | 1.0% | 30.9hPa | 0V | 00:00:00 | 00:00:00 | 00:00:00 | |
| OM5KV | 2026-09-06 00:26:34 | 48.61584 | 21.69897 | 37° | 9km/h | 24101m | 5.8m/s | -52.9°C | 1.0% | 30.9hPa | 0V | 00:00:00 | 00:00:00 | 00:00:00 | |
| OM5KV | 2026-09-06 00:26:28 | 48.61573 | 21.69864 | 78° | 22km/h | 24065m | 5.1m/s | -52.9°C | 1.0% | 31.1hPa | 0V | 00:00:00 | 00:00:00 | 00:00:00 | |
| OM5KV | 2026-09-06 00:26:24 | 48.61577 | 21.69833 | 122° | 16km/h | 24042m | 5.2m/s | -52.8°C | 1.0% | 31.2hPa | 0V | 00:00:00 | 00:00:00 | 00:00:00 | |
| OM5KV | 2026-09-06 00:26:23 | 48.61579 | 21.69828 | 122° | 13km/h | 24036m | 7.3m/s | -52.8°C | 1.0% | 31.3hPa | 0V | 00:00:00 | 00:00:00 | 00:00:00 | |
| SQ9EZE-13 | 2026-09-06 00:26:21 | 48.61580 | 21.69823 | 84° | 5km/h | 24024m | 5.2m/s | -52.7°C | 1.0% | 31.3hPa | 0V | 00:00:00 | 00:00:00 | 00:00:00 | |
| OM5KV | 2026-09-06 00:26:19 | 48.61579 | 21.69816 | 82° | 11km/h | 24012m | 6.1m/s | -52.8°C | 1.0% | 31.4hPa | 0V | 00:00:00 | 00:00:00 | 00:00:00 | |
| OM5KV | 2026-09-06 00:26:17 | 48.61577 | 21.69805 | 73° | 16km/h | 24001m | 5.7m/s | -52.8°C | 1.0% | 31.4hPa | 0V | 00:00:00 | 00:00:00 | 00:00:00 | |
| OM5KV | 2026-09-06 00:26:13 | 48.61572 | 21.69779 | 90° | 18km/h | 23978m | 6.7m/s | -52.9°C | 1.0% | 31.5hPa | 0V | 00:00:00 | 00:00:00 | 00:00:00 | |
| OM5KV | 2026-09-06 00:26:12 | 48.61573 | 21.69773 | 110° | 16km/h | 23972m | 5.9m/s | -52.9°C | 1.0% | 31.6hPa | 0V | 00:00:00 | 00:00:00 | 00:00:00 | |
| OM5KV | 2026-09-06 00:26:08 | 48.61578 | 21.69760 | 0° | 0km/h | 23942m | 5.4m/s | -53.1°C | 1.0% | 31.7hPa | 0V | 00:00:00 | 00:00:00 | 00:00:00 | |
| SQ9EZE-13 | 2026-09-06 00:26:06 | 48.61579 | 21.69761 | 0° | 0km/h | 23936m | 7.2m/s | -53.1°C | 1.0% | 31.8hPa | 0V | 00:00:00 | 00:00:00 | 00:00:00 | |
| OM5KV | 2026-09-06 00:26:01 | 48.61577 | 21.69756 | 61° | 7km/h | 23906m | 5.2m/s | -53.2°C | 1.0% | 31.9hPa | 0V | 00:00:00 | 00:00:00 | 00:00:00 | |
| OM5KV | 2026-09-06 00:25:55 | 48.61581 | 21.69728 | 83° | 7km/h | 23866m | 4.6m/s | -53.3°C | 1.0% | 32.1hPa | 0V | 00:00:00 | 00:00:00 | 00:00:00 | |
| SQ9EZE-13 | 2026-09-06 00:25:51 | 48.61582 | 21.69722 | 121° | 5km/h | 23849m | 5.5m/s | -53.4°C | 1.0% | 32.2hPa | 0V | 00:00:00 | 00:00:00 | 00:00:00 | |
| OM5KV | 2026-09-06 00:25:50 | 48.61582 | 21.69718 | 76° | 5km/h | 23838m | 5.8m/s | -53.5°C | 1.0% | 32.2hPa | 0V | 00:00:00 | 00:00:00 | 00:00:00 | |
| GYPAP8-17 | 2026-09-06 00:25:49 | 48.61582 | 21.69718 | 76° | 5km/h | 23838m | 5.8m/s | -53.5°C | 1.0% | 32.2hPa | 0V | 00:00:00 | 00:00:00 | 00:00:00 | |
| OM5KV | 2026-09-06 00:25:44 | 48.61574 | 21.69686 | 85° | 29km/h | 23807m | 6.5m/s | -53.5°C | 1.0% | 32.4hPa | 0V | 00:00:00 | 00:00:00 | 00:00:00 | |
| OM5KV | 2026-09-06 00:25:41 | 48.61571 | 21.69651 | 80° | 29km/h | 23789m | 6.3m/s | -53.5°C | 1.0% | 32.5hPa | 0V | 00:00:00 | 00:00:00 | 00:00:00 | |
| OM5KV | 2026-09-06 00:25:39 | 48.61568 | 21.69623 | 84° | 18km/h | 23773m | 6.5m/s | -53.5°C | 1.0% | 32.5hPa | 0V | 00:00:00 | 00:00:00 | 00:00:00 | |
| SQ9EZE-13 | 2026-09-06 00:25:36 | 48.61566 | 21.69613 | 63° | 11km/h | 23760m | 6.8m/s | -53.4°C | 1.1% | 32.6hPa | 0V | 00:00:00 | 00:00:00 | 00:00:00 | |
| OM5KV | 2026-09-06 00:25:32 | 48.61558 | 21.69604 | 75° | 9km/h | 23730m | 4.8m/s | -53.4°C | 1.0% | 32.8hPa | 0V | 00:00:00 | 00:00:00 | 00:00:00 | |
| OM5KV | 2026-09-06 00:25:24 | 48.61546 | 21.69556 | 71° | 13km/h | 23691m | 5.0m/s | -53.3°C | 1.1% | 33.0hPa | 0V | 00:00:00 | 00:00:00 | 00:00:00 | |
| SQ9EZE-13 | 2026-09-06 00:25:21 | 48.61539 | 21.69549 | 4° | 13km/h | 23674m | 5.7m/s | -53.2°C | 1.0% | 33.1hPa | 0V | 00:00:00 | 00:00:00 | 00:00:00 | |
| OM5KV | 2026-09-06 00:25:18 | 48.61530 | 21.69545 | 42° | 13km/h | 23657m | 5.5m/s | -53.1°C | 1.0% | 33.2hPa | 0V | 00:00:00 | 00:00:00 | 00:00:00 | |
| OM5KV | 2026-09-06 00:25:17 | 48.61527 | 21.69541 | 51° | 16km/h | 23652m | 4.9m/s | -53.1°C | 1.0% | 33.2hPa | 0V | 00:00:00 | 00:00:00 | 00:00:00 | |
| OM5KV | 2026-09-06 00:25:11 | 48.61509 | 21.69500 | 64° | 18km/h | 23618m | 3.9m/s | -53.1°C | 1.1% | 33.4hPa | 0V | 00:00:00 | 00:00:00 | 00:00:00 | |
| SQ9EZE-14 | 2026-09-06 00:25:07 | 48.61497 | 21.69493 | 331° | 15km/h | 23595m | 5.7m/s | -53.0°C | 1.0% | 33.5hPa | 0V | 00:00:00 | 00:00:00 | 00:00:00 | |
| OM5KV | 2026-09-06 00:25:06 | 48.61495 | 21.69496 | 317° | 13km/h | 23588m | 7.5m/s | -53.0°C | 1.0% | 33.5hPa | 0V | 00:00:00 | 00:00:00 | 00:00:00 | |
| LZ4TU-5 | 2026-09-06 00:25:05 | 48.61493 | 21.69499 | 310° | 11km/h | 23581m | 5.1m/s | 0°C | 0% | 0hPa | 0V | 00:00:00 | 00:00:00 | 00:00:00 | |
| OM5KV | 2026-09-06 00:25:04 | 48.61491 | 21.69502 | 321° | 11km/h | 23577m | 4.8m/s | -52.9°C | 1.1% | 33.5hPa | 0V | 00:00:00 | 00:00:00 | 00:00:00 | |
| OM5KV | 2026-09-06 00:25:00 | 48.61480 | 21.69504 | 28° | 11km/h | 23552m | 7.4m/s | -52.7°C | 1.0% | 33.7hPa | 0V | 00:00:00 | 00:00:00 | 00:00:00 | |
| OM5KV | 2026-09-06 00:24:59 | 48.61477 | 21.69502 | 46° | 11km/h | 23545m | 5.3m/s | -52.7°C | 1.0% | 33.7hPa | 0V | 00:00:00 | 00:00:00 | 00:00:00 | |
| OM5KV | 2026-09-06 00:24:54 | 48.61467 | 21.69495 | 323° | 5km/h | 23516m | 6.9m/s | -52.6°C | 1.0% | 33.9hPa | 0V | 00:00:00 | 00:00:00 | 00:00:00 | |
| OM5KV | 2026-09-06 00:24:49 | 48.61461 | 21.69516 | 298° | 15km/h | 23488m | 4.5m/s | -52.5°C | 1.0% | 34.0hPa | 0V | 00:00:00 | 00:00:00 | 00:00:00 | |
| OM5KV | 2026-09-06 00:24:48 | 48.61460 | 21.69521 | 298° | 11km/h | 23482m | 5.8m/s | -52.5°C | 1.0% | 34.0hPa | 0V | 00:00:00 | 00:00:00 | 00:00:00 | |
| OM5KV | 2026-09-06 00:24:42 | 48.61454 | 21.69527 | 320° | 9km/h | 23449m | 4.5m/s | -52.3°C | 1.0% | 34.3hPa | 0V | 00:00:00 | 00:00:00 | 00:00:00 | |
| OM5KV | 2026-09-06 00:24:36 | 48.61457 | 21.69553 | 259° | 11km/h | 23415m | 6.3m/s | -52.1°C | 1.0% | 34.4hPa | 0V | 00:00:00 | 00:00:00 | 00:00:00 | |
| SQ9EZE-13 | 2026-09-06 00:24:33 | 48.61459 | 21.69562 | 231° | 7km/h | 23397m | 7.2m/s | -52.1°C | 1.0% | 34.5hPa | 0V | 00:00:00 | 00:00:00 | 00:00:00 | |
| OM5KV | 2026-09-06 00:24:31 | 48.61462 | 21.69567 | 239° | 7km/h | 23386m | 5.0m/s | -52.1°C | 1.0% | 34.6hPa | 0V | 00:00:00 | 00:00:00 | 00:00:00 | |
| GYPAP8-17 | 2026-09-06 00:24:29 | 48.61462 | 21.69572 | 275° | 7km/h | 23373m | 5.6m/s | -52.1°C | 1.0% | 34.7hPa | 0V | 00:00:00 | 00:00:00 | 00:00:00 | |
| OM5KV | 2026-09-06 00:24:24 | 48.61468 | 21.69595 | 245° | 16km/h | 23345m | 6.3m/s | -52.0°C | 1.0% | 34.8hPa | 0V | 00:00:00 | 00:00:00 | 00:00:00 | |
| OM5KV | 2026-09-06 00:24:20 | 48.61473 | 21.69614 | 232° | 13km/h | 23320m | 6.6m/s | -51.8°C | 1.0% | 34.9hPa | 0V | 00:00:00 | 00:00:00 | 00:00:00 | |
| OM5KV | 2026-09-06 00:24:19 | 48.61475 | 21.69618 | 216° | 15km/h | 23314m | 5.3m/s | -51.8°C | 1.0% | 35.0hPa | 0V | 00:00:00 | 00:00:00 | 00:00:00 | |
| OM5KV | 2026-09-06 00:24:18 | 48.61478 | 21.69621 | 204° | 15km/h | 23309m | 4.2m/s | -51.8°C | 0.9% | 35.0hPa | 0V | 00:00:00 | 00:00:00 | 00:00:00 | |
| SQ9EZE-13 | 2026-09-06 00:24:17 | 48.61482 | 21.69622 | 198° | 13km/h | 23304m | 6.1m/s | -51.7°C | 0.9% | 35.0hPa | 0V | 00:00:00 | 00:00:00 | 00:00:00 | |
| OM5KV | 2026-09-06 00:24:14 | 48.61490 | 21.69624 | 181° | 13km/h | 23287m | 5.5m/s | -51.8°C | 0.9% | 35.1hPa | 0V | 00:00:00 | 00:00:00 | 00:00:00 | |
| OM5KV | 2026-09-06 00:24:13 | 48.61494 | 21.69624 | 187° | 15km/h | 23281m | 6.4m/s | -51.9°C | 1.0% | 35.1hPa | 0V | 00:00:00 | 00:00:00 | 00:00:00 | |
| OM5KV | 2026-09-06 00:24:12 | 48.61497 | 21.69625 | 201° | 15km/h | 23275m | 5.1m/s | -52.0°C | 1.0% | 35.2hPa | 0V | 00:00:00 | 00:00:00 | 00:00:00 | |
| OM5KV | 2026-09-06 00:24:08 | 48.61505 | 21.69644 | 258° | 16km/h | 23253m | 4.7m/s | -52.1°C | 1.0% | 35.3hPa | 0V | 00:00:00 | 00:00:00 | 00:00:00 | |
| OM5KV | 2026-09-06 00:24:07 | 48.61506 | 21.69650 | 248° | 16km/h | 23247m | 6.5m/s | -52.1°C | 1.0% | 35.3hPa | 0V | 00:00:00 | 00:00:00 | 00:00:00 | |
| OM5KV | 2026-09-06 00:24:01 | 48.61521 | 21.69645 | 141° | 18km/h | 23212m | 6.9m/s | -52.2°C | 0.9% | 35.5hPa | 0V | 00:00:00 | 00:00:00 | 00:00:00 | |
| OM5KV | 2026-09-06 00:23:56 | 48.61538 | 21.69633 | 175° | 9km/h | 23183m | 5.2m/s | -52.6°C | 1.0% | 35.7hPa | 0V | 00:00:00 | 00:00:00 | 00:00:00 | |
| OM5KV | 2026-09-06 00:23:53 | 48.61546 | 21.69632 | 169° | 11km/h | 23165m | 5.0m/s | -52.7°C | 1.0% | 35.8hPa | 0V | 00:00:00 | 00:00:00 | 00:00:00 | |
| SQ9EZE-13 | 2026-09-06 00:23:45 | 48.61560 | 21.69604 | 113° | 15km/h | 23120m | 6.9m/s | -52.5°C | 1.0% | 36.0hPa | 0V | 00:00:00 | 00:00:00 | 00:00:00 | |
| OM5KV | 2026-09-06 00:23:44 | 48.61562 | 21.69598 | 103° | 15km/h | 23114m | 5.0m/s | -52.5°C | 1.0% | 36.1hPa | 0V | 00:00:00 | 00:00:00 | 00:00:00 | |
| OM5KV | 2026-09-06 00:23:43 | 48.61562 | 21.69593 | 100° | 13km/h | 23109m | 4.7m/s | -52.5°C | 1.0% | 36.1hPa | 0V | 00:00:00 | 00:00:00 | 00:00:00 | |
| OM5KV | 2026-09-06 00:23:39 | 48.61568 | 21.69580 | 148° | 11km/h | 23087m | 5.3m/s | -52.4°C | 1.0% | 36.2hPa | 0V | 00:00:00 | 00:00:00 | 00:00:00 | |
| OM5KV | 2026-09-06 00:23:35 | 48.61576 | 21.69570 | 151° | 11km/h | 23062m | 7.0m/s | -52.2°C | 1.0% | 36.3hPa | 0V | 00:00:00 | 00:00:00 | 00:00:00 | |
| OM5KV | 2026-09-06 00:23:33 | 48.61581 | 21.69566 | 147° | 13km/h | 23052m | 3.8m/s | -52.1°C | 1.0% | 36.4hPa | 0V | 00:00:00 | 00:00:00 | 00:00:00 | |
| SQ9EZE-13 | 2026-09-06 00:23:29 | 48.61589 | 21.69549 | 124° | 15km/h | 23029m | 5.3m/s | -52.0°C | 1.0% | 36.5hPa | 0V | 00:00:00 | 00:00:00 | 00:00:00 | |
| OM5KV | 2026-09-06 00:23:25 | 48.61601 | 21.69534 | 149° | 15km/h | 23005m | 6.5m/s | -51.9°C | 1.0% | 36.7hPa | 0V | 00:00:00 | 00:00:00 | 00:00:00 | |
| OM5KV | 2026-09-06 00:23:24 | 48.61605 | 21.69531 | 155° | 15km/h | 22999m | 5.3m/s | -51.9°C | 1.0% | 36.7hPa | 0V | 00:00:00 | 00:00:00 | 00:00:00 | |
| GYPAP8-17 | 2026-09-06 00:23:19 | 48.61623 | 21.69522 | 140° | 13km/h | 22969m | 6.3m/s | -51.8°C | 1.0% | 36.9hPa | 0V | 00:00:00 | 00:00:00 | 00:00:00 | |
| OM5KV | 2026-09-06 00:23:17 | 48.61627 | 21.69514 | 134° | 16km/h | 22959m | 5.2m/s | -51.8°C | 1.0% | 36.9hPa | 0V | 00:00:00 | 00:00:00 | 00:00:00 | |
| OM5KV | 2026-09-06 00:23:14 | 48.61640 | 21.69501 | 152° | 24km/h | 22942m | 4.8m/s | -51.8°C | 1.0% | 37.0hPa | 0V | 00:00:00 | 00:00:00 | 00:00:00 | |
| OM5KV | 2026-09-06 00:23:09 | 48.61665 | 21.69487 | 170° | 22km/h | 22912m | 5.1m/s | -51.6°C | 1.0% | 37.2hPa | 0V | 00:00:00 | 00:00:00 | 00:00:00 | |
| OM5KV | 2026-09-06 00:23:06 | 48.61677 | 21.69480 | 141° | 13km/h | 22895m | 6.1m/s | -51.5°C | 1.0% | 37.3hPa | 0V | 00:00:00 | 00:00:00 | 00:00:00 | |
| OM5KV | 2026-09-06 00:23:03 | 48.61684 | 21.69469 | 141° | 16km/h | 22877m | 6.1m/s | -51.4°C | 1.0% | 37.4hPa | 0V | 00:00:00 | 00:00:00 | 00:00:00 | |
| OM5KV | 2026-09-06 00:23:00 | 48.61694 | 21.69454 | 130° | 20km/h | 22859m | 6.4m/s | -51.4°C | 0.9% | 37.5hPa | 0V | 00:00:00 | 00:00:00 | 00:00:00 | |
| SQ9EZE-13 | 2026-09-06 00:22:59 | 48.61698 | 21.69448 | 132° | 22km/h | 22853m | 4.6m/s | -51.4°C | 0.9% | 37.5hPa | 0V | 00:00:00 | 00:00:00 | 00:00:00 | |
| OM5KV | 2026-09-06 00:22:58 | 48.61702 | 21.69442 | 137° | 26km/h | 22848m | 5.9m/s | -51.4°C | 1.0% | 37.6hPa | 0V | 00:00:00 | 00:00:00 | 00:00:00 | |
| OM5KV | 2026-09-06 00:22:57 | 48.61707 | 21.69435 | 141° | 27km/h | 22842m | 6.6m/s | -51.4°C | 0.9% | 37.6hPa | 0V | 00:00:00 | 00:00:00 | 00:00:00 | |
| OM5KV | 2026-09-06 00:22:51 | 48.61727 | 21.69395 | 122° | 13km/h | 22808m | 6.2m/s | -51.3°C | 1.0% | 37.8hPa | 0V | 00:00:00 | 00:00:00 | 00:00:00 | |
| OM5KV | 2026-09-06 00:22:48 | 48.61730 | 21.69384 | 93° | 11km/h | 22791m | 6.9m/s | -51.3°C | 0.9% | 37.9hPa | 0V | 00:00:00 | 00:00:00 | 00:00:00 | |
| OM5KV | 2026-09-06 00:22:45 | 48.61732 | 21.69369 | 111° | 15km/h | 22773m | 7.0m/s | -51.3°C | 0.9% | 38.0hPa | 0V | 00:00:00 | 00:00:00 | 00:00:00 | |
| SQ9EZE-13 | 2026-09-06 00:22:44 | 48.61733 | 21.69363 | 119° | 16km/h | 22767m | 5.9m/s | -51.3°C | 0.9% | 38.0hPa | 0V | 00:00:00 | 00:00:00 | 00:00:00 | |
| OM5KV | 2026-09-06 00:22:42 | 48.61737 | 21.69351 | 108° | 18km/h | 22755m | 6.2m/s | -51.2°C | 0.9% | 38.1hPa | 0V | 00:00:00 | 00:00:00 | 00:00:00 | |
| OM5KV | 2026-09-06 00:22:39 | 48.61740 | 21.69333 | 115° | 15km/h | 22739m | 6.5m/s | -51.2°C | 0.9% | 38.2hPa | 0V | 00:00:00 | 00:00:00 | 00:00:00 | |
| OM5KV | 2026-09-06 00:22:35 | 48.61742 | 21.69314 | 72° | 16km/h | 22716m | 6.0m/s | -51.2°C | 0.9% | 38.3hPa | 0V | 00:00:00 | 00:00:00 | 00:00:00 | |
| OM5KV | 2026-09-06 00:22:34 | 48.61740 | 21.69308 | 70° | 18km/h | 22710m | 5.0m/s | -51.3°C | 0.9% | 38.4hPa | 0V | 00:00:00 | 00:00:00 | 00:00:00 | |
| OM5KV | 2026-09-06 00:22:29 | 48.61735 | 21.69271 | 80° | 20km/h | 22682m | 5.4m/s | -51.4°C | 0.9% | 38.5hPa | 0V | 00:00:00 | 00:00:00 | 00:00:00 | |
| SQ9EZE-13 | 2026-09-06 00:22:28 | 48.61734 | 21.69264 | 86° | 18km/h | 22677m | 4.8m/s | -51.5°C | 0.9% | 38.5hPa | 0V | 00:00:00 | 00:00:00 | 00:00:00 | |
| OM5KV | 2026-09-06 00:22:23 | 48.61737 | 21.69241 | 93° | 13km/h | 22648m | 6.0m/s | -51.7°C | 0.9% | 38.7hPa | 0V | 00:00:00 | 00:00:00 | 00:00:00 | |
| SQ9EZE-13 | 2026-09-06 00:22:13 | 48.61749 | 21.69172 | 107° | 20km/h | 22593m | 4.7m/s | -52.1°C | 1.0% | 39.0hPa | 0V | 00:00:00 | 00:00:00 | 00:00:00 | |
| OM5KV | 2026-09-06 00:22:11 | 48.61751 | 21.69160 | 92° | 15km/h | 22581m | 5.3m/s | -52.1°C | 1.0% | 39.1hPa | 0V | 00:00:00 | 00:00:00 | 00:00:00 | |
| GYPAP8-17 | 2026-09-06 00:22:08 | 48.61753 | 21.69147 | 125° | 11km/h | 22564m | 4.9m/s | -52.2°C | 1.0% | 39.2hPa | 0V | 00:00:00 | 00:00:00 | 00:00:00 | |
| OM5KV | 2026-09-06 00:22:05 | 48.61755 | 21.69135 | 85° | 13km/h | 22548m | 5.1m/s | -52.4°C | 1.0% | 39.3hPa | 0V | 00:00:00 | 00:00:00 | 00:00:00 | |
| OM5KV | 2026-09-06 00:21:59 | 48.61758 | 21.69104 | 100° | 18km/h | 22515m | 5.4m/s | -52.5°C | 1.0% | 39.5hPa | 0V | 00:00:00 | 00:00:00 | 00:00:00 | |
| SQ9EZE-13 | 2026-09-06 00:21:56 | 48.61762 | 21.69085 | 128° | 18km/h | 22499m | 5.5m/s | -52.6°C | 1.0% | 39.6hPa | 0V | 00:00:00 | 00:00:00 | 00:00:00 | |
| OM5KV | 2026-09-06 00:21:46 | 48.61786 | 21.69052 | 153° | 7km/h | 22447m | 4.7m/s | -52.9°C | 1.0% | 39.9hPa | 0V | 00:00:00 | 00:00:00 | 00:00:00 | |
| OM5KV | 2026-09-06 00:21:42 | 48.61797 | 21.69047 | 163° | 18km/h | 22426m | 5.1m/s | -53.0°C | 1.0% | 40.1hPa | 0V | 00:00:00 | 00:00:00 | 00:00:00 | |
| OM5KV | 2026-09-06 00:21:41 | 48.61801 | 21.69044 | 154° | 18km/h | 22420m | 6.2m/s | -53.0°C | 1.0% | 40.1hPa | 0V | 00:00:00 | 00:00:00 | 00:00:00 | |
| OM5KV | 2026-09-06 00:21:36 | 48.61825 | 21.69028 | 169° | 20km/h | 22394m | 4.7m/s | -53.1°C | 1.0% | 40.3hPa | 0V | 00:00:00 | 00:00:00 | 00:00:00 | |
| OM5KV | 2026-09-06 00:21:35 | 48.61830 | 21.69027 | 169° | 16km/h | 22388m | 6.5m/s | -53.2°C | 1.0% | 40.3hPa | 0V | 00:00:00 | 00:00:00 | 00:00:00 | |
| OM5KV | 2026-09-06 00:21:29 | 48.61851 | 21.69019 | 151° | 20km/h | 22356m | 6.3m/s | -53.1°C | 1.0% | 40.5hPa | 0V | 00:00:00 | 00:00:00 | 00:00:00 | |
| SQ9EZE-13 | 2026-09-06 00:21:25 | 48.61873 | 21.68991 | 145° | 35km/h | 22333m | 5.1m/s | -53.2°C | 1.1% | 40.7hPa | 0V | 00:00:00 | 00:00:00 | 00:00:00 | |
| OM5KV | 2026-09-06 00:21:24 | 48.61880 | 21.68984 | 145° | 33km/h | 22329m | 3.7m/s | -53.3°C | 1.0% | 40.7hPa | 0V | 00:00:00 | 00:00:00 | 00:00:00 | |
| OM5KV | 2026-09-06 00:21:23 | 48.61886 | 21.68977 | 142° | 29km/h | 22324m | 5.0m/s | -53.3°C | 1.0% | 40.7hPa | 0V | 00:00:00 | 00:00:00 | 00:00:00 | |
| OM5KV | 2026-09-06 00:21:17 | 48.61905 | 21.68940 | 129° | 16km/h | 22292m | 4.1m/s | -53.4°C | 1.1% | 40.9hPa | 0V | 00:00:00 | 00:00:00 | 00:00:00 | |
| GYPAP8-17 | 2026-09-06 00:21:15 | 48.61910 | 21.68927 | 120° | 22km/h | 22281m | 5.9m/s | -53.3°C | 1.1% | 41.0hPa | 0V | 00:00:00 | 00:00:00 | 00:00:00 | |
| OM5KV | 2026-09-06 00:21:12 | 48.61922 | 21.68903 | 137° | 29km/h | 22265m | 6.6m/s | -53.3°C | 1.1% | 41.1hPa | 0V | 00:00:00 | 00:00:00 | 00:00:00 | |
| SQ9EZE-13 | 2026-09-06 00:21:08 | 48.61946 | 21.68869 | 129° | 33km/h | 22244m | 5.4m/s | -53.2°C | 1.1% | 41.2hPa | 0V | 00:00:00 | 00:00:00 | 00:00:00 | |
| OM5KV | 2026-09-06 00:21:06 | 48.61955 | 21.68850 | 120° | 27km/h | 22234m | 5.4m/s | -53.2°C | 1.0% | 41.3hPa | 0V | 00:00:00 | 00:00:00 | 00:00:00 | |
| OM5KV | 2026-09-06 00:21:05 | 48.61958 | 21.68842 | 119° | 24km/h | 22228m | 6.0m/s | -53.2°C | 1.0% | 41.3hPa | 0V | 00:00:00 | 00:00:00 | 00:00:00 | |
| OM5KV | 2026-09-06 00:20:58 | 48.61978 | 21.68773 | 125° | 35km/h | 22191m | 5.7m/s | -53.2°C | 1.0% | 41.6hPa | 0V | 00:00:00 | 00:00:00 | 00:00:00 | |
| OM5KV | 2026-09-06 00:20:55 | 48.61991 | 21.68740 | 113° | 31km/h | 22176m | 6.4m/s | -53.1°C | 1.1% | 41.6hPa | 0V | 00:00:00 | 00:00:00 | 00:00:00 | |
| OM5KV | 2026-09-06 00:20:52 | 48.61995 | 21.68710 | 97° | 24km/h | 22159m | 6.0m/s | -53.0°C | 1.0% | 41.8hPa | 0V | 00:00:00 | 00:00:00 | 00:00:00 | |
| SQ9EZE-13 | 2026-09-06 00:20:51 | 48.61996 | 21.68700 | 95° | 24km/h | 22154m | 4.8m/s | -53.0°C | 1.0% | 41.8hPa | 0V | 00:00:00 | 00:00:00 | 00:00:00 | |
| OM5KV | 2026-09-06 00:20:46 | 48.62001 | 21.68641 | 109° | 35km/h | 22127m | 5.7m/s | -53.0°C | 1.0% | 42.0hPa | 0V | 00:00:00 | 00:00:00 | 00:00:00 | |
| OM5KV | 2026-09-06 00:20:43 | 48.62009 | 21.68601 | 103° | 38km/h | 22111m | 6.4m/s | -53.0°C | 1.0% | 42.1hPa | 0V | 00:00:00 | 00:00:00 | 00:00:00 | |
| SQ9EZE-14 | 2026-09-06 00:20:42 | 48.62012 | 21.68574 | 99° | 35km/h | 22101m | 5.6m/s | -53.0°C | 1.0% | 42.1hPa | 0V | 00:00:00 | 00:00:00 | 00:00:00 | |
| SQ9EZE-13 | 2026-09-06 00:20:36 | 48.62013 | 21.68515 | 84° | 35km/h | 22074m | 5.1m/s | -53.2°C | 1.0% | 42.3hPa | 0V | 00:00:00 | 00:00:00 | 00:00:00 | |
| OM5KV | 2026-09-06 00:20:35 | 48.62012 | 21.68502 | 87° | 35km/h | 22068m | 5.1m/s | -53.3°C | 1.0% | 42.3hPa | 0V | 00:00:00 | 00:00:00 | 00:00:00 | |
| OM5KV | 2026-09-06 00:20:32 | 48.62014 | 21.68460 | 98° | 40km/h | 22052m | 5.4m/s | -53.3°C | 1.1% | 42.5hPa | 0V | 00:00:00 | 00:00:00 | 00:00:00 | |
| OM5KV | 2026-09-06 00:20:30 | 48.62016 | 21.68428 | 97° | 44km/h | 22041m | 4.5m/s | -53.3°C | 1.0% | 42.5hPa | 0V | 00:00:00 | 00:00:00 | 00:00:00 | |
| OM5KV | 2026-09-06 00:20:29 | 48.62017 | 21.68412 | 99° | 42km/h | 22037m | 4.2m/s | -53.3°C | 1.0% | 42.6hPa | 0V | 00:00:00 | 00:00:00 | 00:00:00 | |
| SQ9EZE-14 | 2026-09-06 00:20:26 | 48.62021 | 21.68367 | 92° | 37km/h | 22021m | 5.2m/s | -53.4°C | 1.1% | 42.7hPa | 0V | 00:00:00 | 00:00:00 | 00:00:00 | |
| OM5KV | 2026-09-06 00:20:24 | 48.62019 | 21.68339 | 76° | 38km/h | 22009m | 5.1m/s | -53.4°C | 1.0% | 42.7hPa | 0V | 00:00:00 | 00:00:00 | 00:00:00 | |
| OM5KV | 2026-09-06 00:20:23 | 48.62016 | 21.68325 | 72° | 37km/h | 22004m | 4.9m/s | -53.4°C | 1.1% | 42.8hPa | 0V | 00:00:00 | 00:00:00 | 00:00:00 | |
| OM5KV | 2026-09-06 00:20:20 | 48.62007 | 21.68289 | 69° | 33km/h | 21989m | 4.3m/s | -53.4°C | 1.0% | 42.9hPa | 0V | 00:00:00 | 00:00:00 | 00:00:00 | |
| OM5KV | 2026-09-06 00:20:19 | 48.62004 | 21.68277 | 70° | 35km/h | 21983m | 6.9m/s | -53.4°C | 1.0% | 42.9hPa | 0V | 00:00:00 | 00:00:00 | 00:00:00 | |
| OM5KV | 2026-09-06 00:20:18 | 48.62001 | 21.68264 | 72° | 37km/h | 21977m | 5.3m/s | -53.4°C | 1.0% | 43.0hPa | 0V | 00:00:00 | 00:00:00 | 00:00:00 | |
| OM5KV | 2026-09-06 00:20:14 | 48.61993 | 21.68217 | 87° | 31km/h | 21955m | 5.2m/s | -53.6°C | 1.0% | 43.1hPa | 0V | 00:00:00 | 00:00:00 | 00:00:00 | |
| OM5KV | 2026-09-06 00:20:13 | 48.61992 | 21.68205 | 88° | 33km/h | 21949m | 6.7m/s | -53.6°C | 1.0% | 43.2hPa | 0V | 00:00:00 | 00:00:00 | 00:00:00 | |
| GYPAP8-17 | 2026-09-06 00:20:08 | 48.61993 | 21.68147 | 88° | 29km/h | 21922m | 5.4m/s | -53.7°C | 1.1% | 43.3hPa | 0V | 00:00:00 | 00:00:00 | 00:00:00 | |
| SQ9EZE-13 | 2026-09-06 00:20:04 | 48.61985 | 21.68100 | 66° | 31km/h | 21899m | 6.3m/s | -54.1°C | 1.1% | 43.5hPa | 0V | 00:00:00 | 00:00:00 | 00:00:00 | |
| OM5KV | 2026-09-06 00:20:02 | 48.61978 | 21.68080 | 61° | 29km/h | 21888m | 5.8m/s | -54.3°C | 1.1% | 43.6hPa | 0V | 00:00:00 | 00:00:00 | 00:00:00 | |
| OM5KV | 2026-09-06 00:20:01 | 48.61974 | 21.68071 | 65° | 29km/h | 21882m | 6.0m/s | -54.3°C | 1.1% | 43.6hPa | 0V | 00:00:00 | 00:00:00 | 00:00:00 | |
| OM5KV | 2026-09-06 00:19:56 | 48.61973 | 21.68024 | 109° | 26km/h | 21856m | 4.1m/s | -54.4°C | 1.1% | 43.8hPa | 0V | 00:00:00 | 00:00:00 | 00:00:00 | |
| OM5KV | 2026-09-06 00:19:51 | 48.61974 | 21.67966 | 79° | 31km/h | 21829m | 5.2m/s | -54.5°C | 1.1% | 44.0hPa | 0V | 00:00:00 | 00:00:00 | 00:00:00 | |
| SQ9EZE-13 | 2026-09-06 00:19:48 | 48.61968 | 21.67928 | 78° | 37km/h | 21812m | 6.1m/s | -54.7°C | 1.1% | 44.1hPa | 0V | 00:00:00 | 00:00:00 | 00:00:00 | |
| OM5KV | 2026-09-06 00:19:44 | 48.61962 | 21.67877 | 86° | 29km/h | 21789m | 4.4m/s | -55.0°C | 1.2% | 44.3hPa | 0V | 00:00:00 | 00:00:00 | 00:00:00 | |
| OM5KV | 2026-09-06 00:19:39 | 48.61949 | 21.67792 | 66° | 44km/h | 21756m | 5.9m/s | -55.2°C | 1.1% | 44.5hPa | 0V | 00:00:00 | 00:00:00 | 00:00:00 | |
| OM5KV | 2026-09-06 00:19:34 | 48.61932 | 21.67730 | 72° | 47km/h | 21733m | 5.3m/s | -55.2°C | 1.2% | 44.6hPa | 0V | 00:00:00 | 00:00:00 | 00:00:00 | |
| SQ9EZE-13 | 2026-09-06 00:19:33 | 48.61928 | 21.67714 | 74° | 46km/h | 21729m | 3.9m/s | -55.2°C | 1.2% | 44.7hPa | 0V | 00:00:00 | 00:00:00 | 00:00:00 | |
| OM5KV | 2026-09-06 00:19:27 | 48.61905 | 21.67620 | 67° | 42km/h | 21695m | 4.1m/s | -55.2°C | 1.2% | 44.9hPa | 0V | 00:00:00 | 00:00:00 | 00:00:00 | |
| OM5KV | 2026-09-06 00:19:22 | 48.61884 | 21.67556 | 72° | 35km/h | 21666m | 5.8m/s | -55.2°C | 1.2% | 45.1hPa | 0V | 00:00:00 | 00:00:00 | 00:00:00 | |
| OM5KV | 2026-09-06 00:19:21 | 48.61881 | 21.67543 | 75° | 33km/h | 21660m | 5.0m/s | -55.1°C | 1.1% | 45.1hPa | 0V | 00:00:00 | 00:00:00 | 00:00:00 | |
| SQ9EZE-13 | 2026-09-06 00:19:17 | 48.61871 | 21.67502 | 67° | 29km/h | 21638m | 5.9m/s | -55.1°C | 1.2% | 45.3hPa | 0V | 00:00:00 | 00:00:00 | 00:00:00 | |
| OM5KV | 2026-09-06 00:19:14 | 48.61861 | 21.67469 | 64° | 31km/h | 21620m | 6.4m/s | -55.0°C | 1.2% | 45.4hPa | 0V | 00:00:00 | 00:00:00 | 00:00:00 | |
| OM5KV | 2026-09-06 00:19:08 | 48.61840 | 21.67410 | 60° | 26km/h | 21588m | 5.5m/s | -54.8°C | 1.2% | 45.6hPa | 0V | 00:00:00 | 00:00:00 | 00:00:00 | |
| GYPAP8-17 | 2026-09-06 00:19:02 | 48.61820 | 21.67361 | 58° | 31km/h | 21554m | 6.5m/s | -54.7°C | 1.2% | 45.9hPa | 0V | 00:00:00 | 00:00:00 | 00:00:00 | |
| SQ9EZE-13 | 2026-09-06 00:19:01 | 48.61816 | 21.67351 | 54° | 33km/h | 21548m | 5.1m/s | -54.8°C | 1.1% | 45.9hPa | 0V | 00:00:00 | 00:00:00 | 00:00:00 | |
| OM5KV | 2026-09-06 00:18:58 | 48.61798 | 21.67318 | 53° | 44km/h | 21532m | 6.1m/s | -54.9°C | 1.2% | 46.1hPa | 0V | 00:00:00 | 00:00:00 | 00:00:00 | |
| OM5KV | 2026-09-06 00:18:51 | 48.61755 | 21.67250 | 50° | 29km/h | 21494m | 5.2m/s | -54.7°C | 1.1% | 46.3hPa | 0V | 00:00:00 | 00:00:00 | 00:00:00 | |
| OM5KV | 2026-09-06 00:18:46 | 48.61728 | 21.67210 | 43° | 35km/h | 21464m | 7.0m/s | -54.6°C | 1.1% | 46.5hPa | 0V | 00:00:00 | 00:00:00 | 00:00:00 | |
| OM5KV | 2026-09-06 00:18:45 | 48.61721 | 21.67201 | 46° | 38km/h | 21458m | 5.8m/s | -54.6°C | 1.1% | 46.6hPa | 0V | 00:00:00 | 00:00:00 | 00:00:00 | |
| OM5KV | 2026-09-06 00:18:40 | 48.61695 | 21.67158 | 55° | 24km/h | 21430m | 6.7m/s | -54.5°C | 1.1% | 46.8hPa | 0V | 00:00:00 | 00:00:00 | 00:00:00 | |
| OM5KV | 2026-09-06 00:18:39 | 48.61692 | 21.67151 | 58° | 24km/h | 21424m | 6.0m/s | -54.5°C | 1.1% | 46.8hPa | 0V | 00:00:00 | 00:00:00 | 00:00:00 | |
| OM5KV | 2026-09-06 00:18:34 | 48.61672 | 21.67124 | 32° | 26km/h | 21395m | 6.4m/s | -54.7°C | 1.1% | 47.0hPa | 0V | 00:00:00 | 00:00:00 | 00:00:00 | |
| OM5KV | 2026-09-06 00:18:33 | 48.61666 | 21.67119 | 30° | 29km/h | 21389m | 4.5m/s | -54.7°C | 1.2% | 47.1hPa | 0V | 00:00:00 | 00:00:00 | 00:00:00 | |
| OM5KV | 2026-09-06 00:18:29 | 48.61640 | 21.67101 | 32° | 27km/h | 21368m | 5.3m/s | -54.7°C | 1.1% | 47.2hPa | 0V | 00:00:00 | 00:00:00 | 00:00:00 | |
| OM5KV | 2026-09-06 00:18:22 | 48.61612 | 21.67062 | 40° | 18km/h | 21330m | 6.9m/s | -54.5°C | 1.1% | 47.5hPa | 0V | 00:00:00 | 00:00:00 | 00:00:00 | |
| OM5KV | 2026-09-06 00:18:21 | 48.61608 | 21.67058 | 35° | 18km/h | 21324m | 5.3m/s | -54.5°C | 1.1% | 47.6hPa | 0V | 00:00:00 | 00:00:00 | 00:00:00 | |
| SQ9EZE-13 | 2026-09-06 00:18:13 | 48.61577 | 21.67039 | 44° | 22km/h | 21281m | 5.1m/s | -54.4°C | 1.1% | 47.9hPa | 0V | 00:00:00 | 00:00:00 | 00:00:00 | |
| OM5KV | 2026-09-06 00:18:10 | 48.61564 | 21.67023 | 39° | 22km/h | 21263m | 5.5m/s | -54.3°C | 1.1% | 48.0hPa | 0V | 00:00:00 | 00:00:00 | 00:00:00 | |
| OM5KV | 2026-09-06 00:18:09 | 48.61560 | 21.67018 | 48° | 20km/h | 21257m | 6.7m/s | -54.3°C | 1.1% | 48.1hPa | 0V | 00:00:00 | 00:00:00 | 00:00:00 | |
| OM5KV | 2026-09-06 00:18:08 | 48.61558 | 21.67013 | 61° | 16km/h | 21251m | 5.7m/s | -54.2°C | 1.1% | 48.1hPa | 0V | 00:00:00 | 00:00:00 | 00:00:00 | |
| SQ9EZE-14 | 2026-09-06 00:18:07 | 48.61556 | 21.67008 | 72° | 13km/h | 21245m | 5.6m/s | -54.2°C | 1.1% | 48.2hPa | 0V | 00:00:00 | 00:00:00 | 00:00:00 | |
| OM5KV | 2026-09-06 00:18:05 | 48.61555 | 21.67000 | 85° | 5km/h | 21229m | 3.3m/s | -54.2°C | 1.1% | 48.3hPa | 0V | 00:00:00 | 00:00:00 | 00:00:00 | |
| OM5KV | 2026-09-06 00:17:58 | 48.61548 | 21.66963 | 65° | 24km/h | 21196m | 5.9m/s | -54.2°C | 1.1% | 48.5hPa | 0V | 00:00:00 | 00:00:00 | 00:00:00 | |
| OM5KV | 2026-09-06 00:17:53 | 48.61532 | 21.66921 | 66° | 22km/h | 21167m | 6.5m/s | -54.0°C | 1.1% | 48.7hPa | 0V | 00:00:00 | 00:00:00 | 00:00:00 | |
| OM5KV | 2026-09-06 00:17:48 | 48.61527 | 21.66884 | 81° | 26km/h | 21138m | 5.1m/s | -53.9°C | 1.1% | 48.9hPa | 0V | 00:00:00 | 00:00:00 | 00:00:00 | |
| SQ9EZE-13 | 2026-09-06 00:17:43 | 48.61514 | 21.66838 | 62° | 29km/h | 21110m | 6.4m/s | -53.7°C | 1.1% | 49.2hPa | 0V | 00:00:00 | 00:00:00 | 00:00:00 | |
| OM5KV | 2026-09-06 00:17:42 | 48.61510 | 21.66828 | 64° | 27km/h | 21104m | 4.9m/s | -53.6°C | 1.1% | 49.2hPa | 0V | 00:00:00 | 00:00:00 | 00:00:00 | |
| OM5KV | 2026-09-06 00:17:30 | 48.61495 | 21.66727 | 71° | 31km/h | 21038m | 6.5m/s | -53.9°C | 1.1% | 49.7hPa | 0V | 00:00:00 | 00:00:00 | 00:00:00 | |
| SQ9EZE-13 | 2026-09-06 00:17:28 | 48.61490 | 21.66702 | 82° | 35km/h | 21026m | 4.9m/s | -53.9°C | 1.1% | 49.8hPa | 0V | 00:00:00 | 00:00:00 | 00:00:00 | |
| OM5KV | 2026-09-06 00:17:24 | 48.61489 | 21.66657 | 97° | 27km/h | 21003m | 6.1m/s | -53.8°C | 1.1% | 50.0hPa | 0V | 00:00:00 | 00:00:00 | 00:00:00 | |
| OM5KV | 2026-09-06 00:17:18 | 48.61493 | 21.66595 | 87° | 26km/h | 20968m | 7.2m/s | -53.8°C | 1.1% | 50.3hPa | 0V | 00:00:00 | 00:00:00 | 00:00:00 | |
| OM5KV | 2026-09-06 00:17:17 | 48.61492 | 21.66585 | 85° | 29km/h | 20961m | 5.9m/s | -53.8°C | 1.1% | 50.3hPa | 0V | 00:00:00 | 00:00:00 | 00:00:00 | |
| OM5KV | 2026-09-06 00:17:11 | 48.61488 | 21.66530 | 105° | 22km/h | 20927m | 4.9m/s | -54.0°C | 1.1% | 50.6hPa | 0V | 00:00:00 | 00:00:00 | 00:00:00 | |
| OM5KV | 2026-09-06 00:17:05 | 48.61496 | 21.66489 | 99° | 20km/h | 20893m | 5.1m/s | -54.0°C | 1.1% | 50.9hPa | 0V | 00:00:00 | 00:00:00 | 00:00:00 | |
| SQ9EZE-13 | 2026-09-06 00:16:56 | 48.61496 | 21.66424 | 134° | 15km/h | 20842m | 5.7m/s | -54.4°C | 1.1% | 51.3hPa | 0V | 00:00:00 | 00:00:00 | 00:00:00 | |
| OM5KV | 2026-09-06 00:16:54 | 48.61503 | 21.66416 | 145° | 20km/h | 20831m | 6.5m/s | -54.3°C | 1.1% | 51.4hPa | 0V | 00:00:00 | 00:00:00 | 00:00:00 | |
| OM5KV | 2026-09-06 00:16:53 | 48.61507 | 21.66411 | 141° | 24km/h | 20825m | 6.3m/s | -54.3°C | 1.2% | 51.4hPa | 0V | 00:00:00 | 00:00:00 | 00:00:00 | |
| OM5KV | 2026-09-06 00:16:48 | 48.61527 | 21.66375 | 127° | 24km/h | 20798m | 5.2m/s | -54.2°C | 1.1% | 51.6hPa | 0V | 00:00:00 | 00:00:00 | 00:00:00 | |
| OM5KV | 2026-09-06 00:16:47 | 48.61531 | 21.66367 | 132° | 26km/h | 20793m | 4.7m/s | -54.2°C | 1.1% | 51.7hPa | 0V | 00:00:00 | 00:00:00 | 00:00:00 | |
| OM5KV | 2026-09-06 00:16:42 | 48.61551 | 21.66339 | 132° | 22km/h | 20770m | 3.5m/s | -54.1°C | 1.1% | 51.9hPa | 0V | 00:00:00 | 00:00:00 | 00:00:00 | |
| SQ9EZE-13 | 2026-09-06 00:16:41 | 48.61560 | 21.66323 | 127° | 33km/h | 20760m | 6.0m/s | -54.0°C | 1.1% | 51.9hPa | 0V | 00:00:00 | 00:00:00 | 00:00:00 | |
| OM5KV | 2026-09-06 00:16:37 | 48.61576 | 21.66290 | 127° | 35km/h | 20743m | 5.1m/s | -54.0°C | 1.1% | 52.1hPa | 0V | 00:00:00 | 00:00:00 | 00:00:00 | |
| OM5KV | 2026-09-06 00:16:36 | 48.61580 | 21.66279 | 126° | 35km/h | 20738m | 4.6m/s | -54.0°C | 1.1% | 52.1hPa | 0V | 00:00:00 | 00:00:00 | 00:00:00 | |
| OM5KV | 2026-09-06 00:16:31 | 48.61602 | 21.66230 | 129° | 22km/h | 20712m | 5.9m/s | -54.3°C | 1.1% | 52.3hPa | 0V | 00:00:00 | 00:00:00 | 00:00:00 | |
| OM5KV | 2026-09-06 00:16:30 | 48.61605 | 21.66224 | 128° | 16km/h | 20707m | 4.6m/s | -54.4°C | 1.1% | 52.4hPa | 0V | 00:00:00 | 00:00:00 | 00:00:00 | |
| OM5KV | 2026-09-06 00:16:26 | 48.61614 | 21.66190 | 109° | 38km/h | 20688m | 5.2m/s | -54.5°C | 1.2% | 52.5hPa | 0V | 00:00:00 | 00:00:00 | 00:00:00 | |
| OM5KV | 2026-09-06 00:16:25 | 48.61618 | 21.66175 | 111° | 44km/h | 20683m | 4.6m/s | -54.5°C | 1.2% | 52.6hPa | 0V | 00:00:00 | 00:00:00 | 00:00:00 | |
| OM5KV | 2026-09-06 00:16:20 | 48.61643 | 21.66100 | 119° | 42km/h | 20657m | 5.1m/s | -54.4°C | 1.1% | 52.8hPa | 0V | 00:00:00 | 00:00:00 | 00:00:00 | |
| OM5KV | 2026-09-06 00:16:14 | 48.61655 | 21.66023 | 93° | 29km/h | 20627m | 4.4m/s | -54.5°C | 1.1% | 53.0hPa | 0V | 00:00:00 | 00:00:00 | 00:00:00 | |
| OM5KV | 2026-09-06 00:16:13 | 48.61656 | 21.66011 | 94° | 31km/h | 20622m | 6.0m/s | -54.5°C | 1.1% | 53.1hPa | 0V | 00:00:00 | 00:00:00 | 00:00:00 | |
| SQ9EZE-13 | 2026-09-06 00:16:09 | 48.61663 | 21.65955 | 107° | 40km/h | 20601m | 4.9m/s | -54.7°C | 1.2% | 53.2hPa | 0V | 00:00:00 | 00:00:00 | 00:00:00 | |
| OM5KV | 2026-09-06 00:16:08 | 48.61665 | 21.65940 | 107° | 40km/h | 20597m | 3.4m/s | -54.8°C | 1.1% | 53.2hPa | 0V | 00:00:00 | 00:00:00 | 00:00:00 | |
| OM5KV | 2026-09-06 00:16:07 | 48.61668 | 21.65925 | 104° | 42km/h | 20593m | 4.6m/s | -54.8°C | 1.1% | 53.3hPa | 0V | 00:00:00 | 00:00:00 | 00:00:00 | |
| SQ9EZE-14 | 2026-09-06 00:16:03 | 48.61673 | 21.65860 | 94° | 40km/h | 20573m | 5.3m/s | -55.0°C | 1.2% | 53.5hPa | 0V | 00:00:00 | 00:00:00 | 00:00:00 | |
| OM5KV | 2026-09-06 00:16:02 | 48.61673 | 21.65846 | 94° | 37km/h | 20569m | 4.6m/s | -55.0°C | 1.2% | 53.5hPa | 0V | 00:00:00 | 00:00:00 | 00:00:00 | |
| OM5KV | 2026-09-06 00:15:57 | 48.61671 | 21.65779 | 83° | 31km/h | 20544m | 5.8m/s | -55.2°C | 1.2% | 53.7hPa | 0V | 00:00:00 | 00:00:00 | 00:00:00 | |
| OM5KV | 2026-09-06 00:15:56 | 48.61669 | 21.65769 | 83° | 27km/h | 20538m | 5.7m/s | -55.2°C | 1.2% | 53.8hPa | 0V | 00:00:00 | 00:00:00 | 00:00:00 | |
| OM5KV | 2026-09-06 00:15:50 | 48.61664 | 21.65701 | 81° | 33km/h | 20509m | 5.5m/s | -55.2°C | 1.2% | 54.0hPa | 0V | 00:00:00 | 00:00:00 | 00:00:00 | |
| SQ9EZE-14 | 2026-09-06 00:15:47 | 48.61655 | 21.65669 | 57° | 33km/h | 20493m | 5.3m/s | -55.3°C | 1.1% | 54.1hPa | 0V | 00:00:00 | 00:00:00 | 00:00:00 | |
| OM5KV | 2026-09-06 00:15:45 | 48.61645 | 21.65646 | 58° | 38km/h | 20483m | 5.1m/s | -55.4°C | 1.2% | 54.2hPa | 0V | 00:00:00 | 00:00:00 | 00:00:00 | |
| OM5KV | 2026-09-06 00:15:40 | 48.61631 | 21.65592 | 81° | 24km/h | 20457m | 6.1m/s | -56.1°C | 1.3% | 54.4hPa | 0V | 00:00:00 | 00:00:00 | 00:00:00 | |
| OM5KV | 2026-09-06 00:15:39 | 48.61630 | 21.65584 | 83° | 24km/h | 20451m | 6.3m/s | -56.1°C | 1.2% | 54.5hPa | 0V | 00:00:00 | 00:00:00 | 00:00:00 | |
| SQ9EZE-13 | 2026-09-06 00:15:37 | 48.61629 | 21.65567 | 92° | 20km/h | 20440m | 6.2m/s | -56.1°C | 1.3% | 54.6hPa | 0V | 00:00:00 | 00:00:00 | 00:00:00 | |
| OM5KV | 2026-09-06 00:15:28 | 48.61620 | 21.65492 | 59° | 16km/h | 20392m | 5.0m/s | -55.7°C | 1.3% | 55.0hPa | 0V | 00:00:00 | 00:00:00 | 00:00:00 | |
| OM5KV | 2026-09-06 00:15:22 | 48.61609 | 21.65458 | 84° | 16km/h | 20359m | 5.1m/s | -55.4°C | 1.2% | 55.3hPa | 0V | 00:00:00 | 00:00:00 | 00:00:00 | |
| SQ9EZE-13 | 2026-09-06 00:15:21 | 48.61608 | 21.65451 | 83° | 20km/h | 20353m | 6.6m/s | -55.4°C | 1.2% | 55.3hPa | 0V | 00:00:00 | 00:00:00 | 00:00:00 | |
| OM5KV | 2026-09-06 00:15:17 | 48.61605 | 21.65412 | 78° | 22km/h | 20327m | 5.7m/s | -55.2°C | 1.2% | 55.6hPa | 0V | 00:00:00 | 00:00:00 | 00:00:00 | |
| OM5KV | 2026-09-06 00:15:10 | 48.61592 | 21.65376 | 46° | 15km/h | 20294m | 6.7m/s | -55.2°C | 1.2% | 55.8hPa | 0V | 00:00:00 | 00:00:00 | 00:00:00 | |
| SQ9EZE-13 | 2026-09-06 00:15:06 | 48.61586 | 21.65359 | 96° | 15km/h | 20272m | 4.4m/s | -55.1°C | 1.2% | 56.0hPa | 0V | 00:00:00 | 00:00:00 | 00:00:00 | |
| OM5KV | 2026-09-06 00:15:05 | 48.61586 | 21.65353 | 96° | 18km/h | 20267m | 5.8m/s | -55.0°C | 1.2% | 56.1hPa | 0V | 00:00:00 | 00:00:00 | 00:00:00 | |
| OM5KV | 2026-09-06 00:15:04 | 48.61586 | 21.65345 | 92° | 22km/h | 20261m | 6.4m/s | -55.0°C | 1.2% | 56.1hPa | 0V | 00:00:00 | 00:00:00 | 00:00:00 | |
| OM5KV | 2026-09-06 00:15:00 | 48.61584 | 21.65301 | 72° | 26km/h | 20234m | 6.3m/s | -54.8°C | 1.2% | 56.4hPa | 0V | 00:00:00 | 00:00:00 | 00:00:00 | |
| OM5KV | 2026-09-06 00:14:59 | 48.61584 | 21.65301 | 72° | 26km/h | 20234m | 6.3m/s | -54.8°C | 1.2% | 56.4hPa | 0V | 00:00:00 | 00:00:00 | 00:00:00 | |
| OM5KV | 2026-09-06 00:14:54 | 48.61569 | 21.65265 | 57° | 18km/h | 20208m | 4.4m/s | -54.6°C | 1.1% | 56.6hPa | 0V | 00:00:00 | 00:00:00 | 00:00:00 | |
| OM5KV | 2026-09-06 00:14:53 | 48.61567 | 21.65259 | 55° | 20km/h | 20202m | 7.2m/s | -54.6°C | 1.1% | 56.7hPa | 0V | 00:00:00 | 00:00:00 | 00:00:00 | |
| OM5KV | 2026-09-06 00:14:52 | 48.61564 | 21.65252 | 62° | 22km/h | 20195m | 5.1m/s | -54.6°C | 1.1% | 56.7hPa | 0V | 00:00:00 | 00:00:00 | 00:00:00 | |
| SQ9EZE-13 | 2026-09-06 00:14:50 | 48.61561 | 21.65237 | 84° | 22km/h | 20184m | 6.5m/s | -54.6°C | 1.1% | 56.8hPa | 0V | 00:00:00 | 00:00:00 | 00:00:00 | |
| OM5KV | 2026-09-06 00:14:47 | 48.61560 | 21.65210 | 86° | 26km/h | 20167m | 5.8m/s | -54.5°C | 1.1% | 57.0hPa | 0V | 00:00:00 | 00:00:00 | 00:00:00 | |
| OM5KV | 2026-09-06 00:14:43 | 48.61556 | 21.65173 | 77° | 24km/h | 20146m | 4.9m/s | -54.4°C | 1.1% | 57.1hPa | 0V | 00:00:00 | 00:00:00 | 00:00:00 | |
| OM5KV | 2026-09-06 00:14:42 | 48.61555 | 21.65165 | 71° | 24km/h | 20141m | 6.8m/s | -54.4°C | 1.1% | 57.2hPa | 0V | 00:00:00 | 00:00:00 | 00:00:00 | |
| OM5KV | 2026-09-06 00:14:37 | 48.61541 | 21.65125 | 62° | 24km/h | 20113m | 5.4m/s | -54.4°C | 1.1% | 57.5hPa | 0V | 00:00:00 | 00:00:00 | 00:00:00 | |
| OM5KV | 2026-09-06 00:14:36 | 48.61538 | 21.65117 | 62° | 26km/h | 20107m | 6.6m/s | -54.4°C | 1.1% | 57.5hPa | 0V | 00:00:00 | 00:00:00 | 00:00:00 | |
| SQ9EZE-13 | 2026-09-06 00:14:35 | 48.61535 | 21.65108 | 67° | 27km/h | 20102m | 4.0m/s | -54.5°C | 1.1% | 57.5hPa | 0V | 00:00:00 | 00:00:00 | 00:00:00 | |
| OM5KV | 2026-09-06 00:14:31 | 48.61529 | 21.65072 | 79° | 24km/h | 20082m | 5.3m/s | -54.8°C | 1.2% | 57.7hPa | 0V | 00:00:00 | 00:00:00 | 00:00:00 | |
| OM5KV | 2026-09-06 00:14:30 | 48.61527 | 21.65063 | 73° | 24km/h | 20077m | 6.3m/s | -54.9°C | 1.2% | 57.8hPa | 0V | 00:00:00 | 00:00:00 | 00:00:00 | |
| OM5KV | 2026-09-06 00:14:26 | 48.61516 | 21.65029 | 61° | 24km/h | 20054m | 4.9m/s | -55.1°C | 1.2% | 58.0hPa | 0V | 00:00:00 | 00:00:00 | 00:00:00 | |
| OM5KV | 2026-09-06 00:14:23 | 48.61506 | 21.65001 | 63° | 31km/h | 20039m | 7.2m/s | -55.0°C | 1.2% | 58.1hPa | 0V | 00:00:00 | 00:00:00 | 00:00:00 | |
| SQ9EZE-13 | 2026-09-06 00:14:19 | 48.61492 | 21.64956 | 70° | 31km/h | 20017m | 4.6m/s | -54.8°C | 1.2% | 58.3hPa | 0V | 00:00:00 | 00:00:00 | 00:00:00 | |
| GYPAP8-17 | 2026-09-06 00:14:18 | 48.61489 | 21.64945 | 72° | 33km/h | 20012m | 5.9m/s | -54.8°C | 1.2% | 58.4hPa | 0V | 00:00:00 | 00:00:00 | 00:00:00 | |
| OM5KV | 2026-09-06 00:14:17 | 48.61487 | 21.64933 | 74° | 33km/h | 20006m | 5.7m/s | -54.7°C | 1.2% | 58.4hPa | 0V | 00:00:00 | 00:00:00 | 00:00:00 | |
| OM5KV | 2026-09-06 00:14:12 | 48.61476 | 21.64884 | 66° | 26km/h | 19978m | 6.3m/s | -54.5°C | 1.2% | 58.7hPa | 0V | 00:00:00 | 00:00:00 | 00:00:00 | |
| OM5KV | 2026-09-06 00:14:11 | 48.61473 | 21.64875 | 66° | 27km/h | 19972m | 5.1m/s | -54.4°C | 1.2% | 58.7hPa | 0V | 00:00:00 | 00:00:00 | 00:00:00 | |
| OM5KV | 2026-09-06 00:14:09 | 48.61467 | 21.64857 | 67° | 26km/h | 19962m | 6.0m/s | -54.3°C | 1.2% | 58.8hPa | 0V | 00:00:00 | 00:00:00 | 00:00:00 | |
| OM5KV | 2026-09-06 00:14:06 | 48.61462 | 21.64830 | 78° | 27km/h | 19945m | 6.8m/s | -54.2°C | 1.2% | 59.0hPa | 0V | 00:00:00 | 00:00:00 | 00:00:00 | |
| OM5KV | 2026-09-06 00:14:04 | 48.61458 | 21.64808 | 79° | 31km/h | 19935m | 4.5m/s | -54.1°C | 1.1% | 59.1hPa | 0V | 00:00:00 | 00:00:00 | 00:00:00 | |
| SQ9EZE-13 | 2026-09-06 00:14:03 | 48.61457 | 21.64797 | 78° | 27km/h | 19929m | 6.1m/s | -54.0°C | 1.1% | 59.1hPa | 0V | 00:00:00 | 00:00:00 | 00:00:00 | |
| OM5KV | 2026-09-06 00:14:00 | 48.61449 | 21.64768 | 60° | 29km/h | 19914m | 6.7m/s | -53.9°C | 1.1% | 59.2hPa | 0V | 00:00:00 | 00:00:00 | 00:00:00 | |
| OM5KV | 2026-09-06 00:13:58 | 48.61441 | 21.64750 | 59° | 27km/h | 19903m | 4.4m/s | -53.8°C | 1.1% | 59.4hPa | 0V | 00:00:00 | 00:00:00 | 00:00:00 | |
| OM5KV | 2026-09-06 00:13:52 | 48.61428 | 21.64689 | 74° | 33km/h | 19872m | 4.7m/s | -53.5°C | 1.1% | 59.6hPa | 0V | 00:00:00 | 00:00:00 | 00:00:00 | |
| OM5KV | 2026-09-06 00:13:49 | 48.61421 | 21.64659 | 72° | 22km/h | 19857m | 5.3m/s | -53.3°C | 1.1% | 59.8hPa | 0V | 00:00:00 | 00:00:00 | 00:00:00 | |
| SQ9EZE-13 | 2026-09-06 00:13:48 | 48.61420 | 21.64651 | 70° | 22km/h | 19851m | 4.6m/s | -53.3°C | 1.1% | 59.8hPa | 0V | 00:00:00 | 00:00:00 | 00:00:00 | |
| OM5KV | 2026-09-06 00:13:46 | 48.61415 | 21.64635 | 64° | 26km/h | 19841m | 5.7m/s | -53.2°C | 1.1% | 59.9hPa | 0V | 00:00:00 | 00:00:00 | 00:00:00 | |
| SQ9EZE-14 | 2026-09-06 00:13:45 | 48.61412 | 21.64625 | 65° | 27km/h | 19835m | 5.0m/s | -53.2°C | 1.1% | 60.0hPa | 0V | 00:00:00 | 00:00:00 | 00:00:00 | |
| OM5KV | 2026-09-06 00:13:44 | 48.61408 | 21.64616 | 67° | 27km/h | 19830m | 5.4m/s | -53.1°C | 1.1% | 60.0hPa | 0V | 00:00:00 | 00:00:00 | 00:00:00 | |
| OM5KV | 2026-09-06 00:13:38 | 48.61393 | 21.64554 | 76° | 31km/h | 19800m | 4.2m/s | -52.9°C | 1.1% | 60.3hPa | 0V | 00:00:00 | 00:00:00 | 00:00:00 | |
| OM5KV | 2026-09-06 00:13:33 | 48.61388 | 21.64503 | 73° | 27km/h | 19774m | 5.7m/s | -52.7°C | 1.1% | 60.5hPa | 0V | 00:00:00 | 00:00:00 | 00:00:00 | |
| SQ9EZE-13 | 2026-09-06 00:13:32 | 48.61385 | 21.64493 | 67° | 27km/h | 19768m | 4.9m/s | -52.7°C | 1.1% | 60.6hPa | 0V | 00:00:00 | 00:00:00 | 00:00:00 | |
| SQ9EZE-14 | 2026-09-06 00:13:29 | 48.61377 | 21.64466 | 65° | 26km/h | 19753m | 3.8m/s | -52.8°C | 1.0% | 60.8hPa | 0V | 00:00:00 | 00:00:00 | 00:00:00 | |
| OM5KV | 2026-09-06 00:13:17 | 48.61357 | 21.64364 | 87° | 22km/h | 19689m | 5.5m/s | -53.3°C | 1.1% | 61.3hPa | 0V | 00:00:00 | 00:00:00 | 00:00:00 | |
| OM5KV | 2026-09-06 00:13:16 | 48.61356 | 21.64355 | 77° | 22km/h | 19684m | 6.2m/s | -53.4°C | 1.1% | 61.4hPa | 0V | 00:00:00 | 00:00:00 | 00:00:00 | |
| OM5KV | 2026-09-06 00:13:12 | 48.61349 | 21.64326 | 66° | 18km/h | 19663m | 4.2m/s | -53.6°C | 1.1% | 61.6hPa | 0V | 00:00:00 | 00:00:00 | 00:00:00 | |
| OM5KV | 2026-09-06 00:13:11 | 48.61346 | 21.64320 | 61° | 18km/h | 19658m | 5.8m/s | -53.5°C | 1.1% | 61.6hPa | 0V | 00:00:00 | 00:00:00 | 00:00:00 | |
| OM5KV | 2026-09-06 00:13:06 | 48.61337 | 21.64290 | 81° | 16km/h | 19632m | 4.3m/s | -53.5°C | 1.1% | 61.9hPa | 0V | 00:00:00 | 00:00:00 | 00:00:00 | |
| OM5KV | 2026-09-06 00:13:03 | 48.61334 | 21.64269 | 77° | 20km/h | 19615m | 5.2m/s | -53.4°C | 1.1% | 62.1hPa | 0V | 00:00:00 | 00:00:00 | 00:00:00 | |
| SQ9EZE-13 | 2026-09-06 00:13:01 | 48.61332 | 21.64254 | 81° | 22km/h | 19605m | 4.1m/s | -53.4°C | 1.1% | 62.2hPa | 0V | 00:00:00 | 00:00:00 | 00:00:00 | |
| OM5KV | 2026-09-06 00:12:57 | 48.61325 | 21.64217 | 75° | 26km/h | 19583m | 5.8m/s | -53.2°C | 1.0% | 62.4hPa | 0V | 00:00:00 | 00:00:00 | 00:00:00 | |
| GYPAP8-17 | 2026-09-06 00:12:56 | 48.61324 | 21.64208 | 79° | 22km/h | 19578m | 5.3m/s | -53.2°C | 1.1% | 62.4hPa | 0V | 00:00:00 | 00:00:00 | 00:00:00 | |
| OM5KV | 2026-09-06 00:12:54 | 48.61323 | 21.64193 | 86° | 20km/h | 19568m | 5.8m/s | -53.2°C | 1.0% | 62.5hPa | 0V | 00:00:00 | 00:00:00 | 00:00:00 | |
| OM5KV | 2026-09-06 00:12:48 | 48.61327 | 21.64147 | 110° | 22km/h | 19538m | 5.0m/s | -53.6°C | 1.0% | 62.8hPa | 0V | 00:00:00 | 00:00:00 | 00:00:00 | |
| SQ9EZE-13 | 2026-09-06 00:12:45 | 48.61330 | 21.64120 | 95° | 24km/h | 19522m | 5.2m/s | -53.9°C | 1.1% | 63.0hPa | 0V | 00:00:00 | 00:00:00 | 00:00:00 | |
| OM5KV | 2026-09-06 00:12:43 | 48.61329 | 21.64104 | 80° | 20km/h | 19512m | 4.1m/s | -54.0°C | 1.1% | 63.1hPa | 0V | 00:00:00 | 00:00:00 | 00:00:00 | |
| OM5KV | 2026-09-06 00:12:37 | 48.61320 | 21.64057 | 86° | 18km/h | 19485m | 5.0m/s | -54.6°C | 1.1% | 63.3hPa | 0V | 00:00:00 | 00:00:00 | 00:00:00 | |
| OM5KV | 2026-09-06 00:12:34 | 48.61323 | 21.64034 | 109° | 27km/h | 19470m | 5.9m/s | -54.6°C | 1.2% | 63.5hPa | 0V | 00:00:00 | 00:00:00 | 00:00:00 | |
| OM5KV | 2026-09-06 00:12:32 | 48.61328 | 21.64013 | 112° | 33km/h | 19460m | 5.1m/s | -54.7°C | 1.2% | 63.6hPa | 0V | 00:00:00 | 00:00:00 | 00:00:00 | |
| SQ9EZE-13 | 2026-09-06 00:12:29 | 48.61337 | 21.63976 | 108° | 37km/h | 19445m | 6.4m/s | -54.8°C | 1.2% | 63.7hPa | 0V | 00:00:00 | 00:00:00 | 00:00:00 | |
| OM5KV | 2026-09-06 00:12:28 | 48.61339 | 21.63963 | 104° | 38km/h | 19440m | 4.6m/s | -54.8°C | 1.1% | 63.8hPa | 0V | 00:00:00 | 00:00:00 | 00:00:00 | |
| OM5KV | 2026-09-06 00:12:26 | 48.61342 | 21.63936 | 101° | 33km/h | 19431m | 6.1m/s | -54.8°C | 1.2% | 63.9hPa | 0V | 00:00:00 | 00:00:00 | 00:00:00 | |
| OM5KV | 2026-09-06 00:12:23 | 48.61346 | 21.63903 | 98° | 29km/h | 19416m | 5.0m/s | -54.7°C | 1.2% | 64.0hPa | 0V | 00:00:00 | 00:00:00 | 00:00:00 | |
| OM5KV | 2026-09-06 00:12:20 | 48.61348 | 21.63871 | 96° | 27km/h | 19402m | 4.4m/s | -54.6°C | 1.2% | 64.1hPa | 0V | 00:00:00 | 00:00:00 | 00:00:00 | |
| OM5KV | 2026-09-06 00:12:19 | 48.61348 | 21.63860 | 95° | 29km/h | 19398m | 4.3m/s | -54.6°C | 1.2% | 64.2hPa | 0V | 00:00:00 | 00:00:00 | 00:00:00 | |
| SQ9EZE-13 | 2026-09-06 00:12:13 | 48.61347 | 21.63780 | 85° | 35km/h | 19371m | 4.4m/s | -54.5°C | 1.2% | 64.5hPa | 0V | 00:00:00 | 00:00:00 | 00:00:00 | |
| OM5KV | 2026-09-06 00:12:11 | 48.61345 | 21.63753 | 88° | 35km/h | 19361m | 4.3m/s | -54.4°C | 1.2% | 64.6hPa | 0V | 00:00:00 | 00:00:00 | 00:00:00 | |
| OM5KV | 2026-09-06 00:12:03 | 48.61345 | 21.63660 | 89° | 27km/h | 19324m | 4.5m/s | -54.5°C | 1.2% | 64.9hPa | 0V | 00:00:00 | 00:00:00 | 00:00:00 | |
| OM5KV | 2026-09-06 00:12:01 | 48.61345 | 21.63638 | 92° | 33km/h | 19315m | 5.1m/s | -54.5°C | 1.2% | 65.0hPa | 0V | 00:00:00 | 00:00:00 | 00:00:00 | |
| OM5KV | 2026-09-06 00:11:58 | 48.61345 | 21.63598 | 86° | 35km/h | 19301m | 5.5m/s | -54.6°C | 1.2% | 65.2hPa | 0V | 00:00:00 | 00:00:00 | 00:00:00 | |
| SQ9EZE-13 | 2026-09-06 00:11:57 | 48.61343 | 21.63584 | 84° | 35km/h | 19296m | 4.3m/s | -54.6°C | 1.2% | 65.2hPa | 0V | 00:00:00 | 00:00:00 | 00:00:00 | |
| OM5KV | 2026-09-06 00:11:55 | 48.61341 | 21.63559 | 87° | 33km/h | 19287m | 5.4m/s | -54.5°C | 1.2% | 65.3hPa | 0V | 00:00:00 | 00:00:00 | 00:00:00 | |
| OM5KV | 2026-09-06 00:11:48 | 48.61340 | 21.63493 | 95° | 27km/h | 19257m | 3.8m/s | -54.4°C | 1.2% | 65.6hPa | 0V | 00:00:00 | 00:00:00 | 00:00:00 | |
| GYPAP8-17 | 2026-09-06 00:11:45 | 48.61342 | 21.63460 | 99° | 27km/h | 19243m | 3.7m/s | -54.4°C | 1.2% | 65.8hPa | 0V | 00:00:00 | 00:00:00 | 00:00:00 | |
| OM5KV | 2026-09-06 00:11:42 | 48.61351 | 21.63413 | 108° | 35km/h | 19224m | 3.9m/s | -54.3°C | 1.2% | 65.9hPa | 0V | 00:00:00 | 00:00:00 | 00:00:00 | |
| OM5KV | 2026-09-06 00:11:38 | 48.61357 | 21.63377 | 109° | 31km/h | 19211m | 3.9m/s | -54.2°C | 1.2% | 66.1hPa | 0V | 00:00:00 | 00:00:00 | 00:00:00 | |
| OM5KV | 2026-09-06 00:11:36 | 48.61363 | 21.63356 | 118° | 31km/h | 19201m | 4.5m/s | -54.1°C | 1.2% | 66.2hPa | 0V | 00:00:00 | 00:00:00 | 00:00:00 | |
| OM5KV | 2026-09-06 00:11:35 | 48.61367 | 21.63345 | 119° | 31km/h | 19197m | 3.8m/s | -54.1°C | 1.1% | 66.3hPa | 0V | 00:00:00 | 00:00:00 | 00:00:00 | |
| OM5KV | 2026-09-06 00:11:30 | 48.61383 | 21.63293 | 115° | 37km/h | 19173m | 3.8m/s | -53.9°C | 1.1% | 66.5hPa | 0V | 00:00:00 | 00:00:00 | 00:00:00 | |
| OM5KV | 2026-09-06 00:11:27 | 48.61392 | 21.63252 | 104° | 38km/h | 19160m | 4.0m/s | -53.9°C | 1.1% | 66.6hPa | 0V | 00:00:00 | 00:00:00 | 00:00:00 | |
| SQ9EZE-13 | 2026-09-06 00:11:26 | 48.61395 | 21.63237 | 104° | 42km/h | 19156m | 4.1m/s | -53.9°C | 1.1% | 66.7hPa | 0V | 00:00:00 | 00:00:00 | 00:00:00 | |
| OM5KV | 2026-09-06 00:11:24 | 48.61400 | 21.63204 | 106° | 46km/h | 19147m | 3.2m/s | -53.9°C | 1.1% | 66.8hPa | 0V | 00:00:00 | 00:00:00 | 00:00:00 | |
| OM5KV | 2026-09-06 00:11:19 | 48.61414 | 21.63132 | 115° | 35km/h | 19126m | 5.0m/s | -54.0°C | 1.1% | 67.0hPa | 0V | 00:00:00 | 00:00:00 | 00:00:00 | |
| OM5KV | 2026-09-06 00:11:18 | 48.61417 | 21.63120 | 119° | 35km/h | 19122m | 4.1m/s | -54.1°C | 1.1% | 67.0hPa | 0V | 00:00:00 | 00:00:00 | 00:00:00 | |
| OM5KV | 2026-09-06 00:11:14 | 48.61438 | 21.63062 | 121° | 38km/h | 19100m | 5.3m/s | -54.2°C | 1.1% | 67.2hPa | 0V | 00:00:00 | 00:00:00 | 00:00:00 | |
| SQ9EZE-13 | 2026-09-06 00:11:11 | 48.61449 | 21.63034 | 121° | 44km/h | 19092m | 3.5m/s | -54.2°C | 1.2% | 67.3hPa | 0V | 00:00:00 | 00:00:00 | 00:00:00 | |
| OM5KV | 2026-09-06 00:11:10 | 48.61454 | 21.63020 | 119° | 42km/h | 19088m | 4.5m/s | -54.2°C | 1.1% | 67.4hPa | 0V | 00:00:00 | 00:00:00 | 00:00:00 | |
| OM5KV | 2026-09-06 00:11:08 | 48.61466 | 21.62978 | 111° | 40km/h | 19075m | 3.8m/s | -54.2°C | 1.2% | 67.5hPa | 0V | 00:00:00 | 00:00:00 | 00:00:00 | |
| OM5KV | 2026-09-06 00:11:02 | 48.61496 | 21.62886 | 126° | 44km/h | 19048m | 3.2m/s | -54.2°C | 1.2% | 67.8hPa | 0V | 00:00:00 | 00:00:00 | 00:00:00 | |
| OM5KV | 2026-09-06 00:10:43 | 48.61615 | 21.62651 | 128° | 38km/h | 18965m | 5.4m/s | 0°C | 0% | 68.7hPa | 0V | 00:00:00 | 00:00:00 | 00:00:00 | |
| OM5KV | 2026-09-06 00:10:42 | 48.61627 | 21.62628 | 127° | 37km/h | 18955m | 5.7m/s | -53.6°C | 1.1% | 68.8hPa | 0V | 00:00:00 | 00:00:00 | 00:00:00 | |
| SQ9EZE-13 | 2026-09-06 00:10:40 | 48.61632 | 21.62617 | 128° | 38km/h | 18949m | 4.8m/s | -53.5°C | 1.1% | 68.8hPa | 0V | 00:00:00 | 00:00:00 | 00:00:00 | |
| OM5KV | 2026-09-06 00:10:32 | 48.61687 | 21.62513 | 135° | 44km/h | 18913m | 5.2m/s | 0°C | 0% | 0hPa | 0V | 00:00:00 | 00:00:00 | 00:00:00 | |
| OM5KV | 2026-09-06 00:10:29 | 48.61710 | 21.62477 | 137° | 42km/h | 18898m | 5.6m/s | -53.4°C | 1.1% | 69.4hPa | 0V | 00:00:00 | 00:00:00 | 00:00:00 | |
| OM5KV | 2026-09-06 00:10:27 | 48.61725 | 21.62456 | 139° | 40km/h | 18888m | 4.3m/s | 0°C | 0% | 0hPa | 0V | 00:00:00 | 00:00:00 | 00:00:00 | |
| OM5KV | 2026-09-06 00:10:26 | 48.61733 | 21.62445 | 137° | 44km/h | 18883m | 5.9m/s | -53.5°C | 1.1% | 69.6hPa | 0V | 00:00:00 | 00:00:00 | 00:00:00 | |
| SQ9EZE-13 | 2026-09-06 00:10:25 | 48.61741 | 21.62433 | 134° | 47km/h | 18877m | 5.0m/s | -53.5°C | 1.1% | 69.6hPa | 0V | 00:00:00 | 00:00:00 | 00:00:00 | |
| OM5KV | 2026-09-06 00:10:21 | 48.61774 | 21.62382 | 140° | 46km/h | 18858m | 4.5m/s | 0°C | 0% | 0hPa | 0V | 00:00:00 | 00:00:00 | 00:00:00 | |
| OM5KV | 2026-09-06 00:10:17 | 48.61811 | 21.62335 | 141° | 47km/h | 18839m | 5.8m/s | -54.0°C | 1.1% | 70.0hPa | 0V | 00:00:00 | 00:00:00 | 00:00:00 | |
| OM5KV | 2026-09-06 00:10:16 | 48.61820 | 21.62323 | 139° | 47km/h | 18834m | 4.2m/s | 0°C | 0% | 0hPa | 0V | 00:00:00 | 00:00:00 | 00:00:00 | |
| OM5KV | 2026-09-06 00:10:15 | 48.61829 | 21.62310 | 136° | 51km/h | 18830m | 4.6m/s | -54.0°C | 1.1% | 70.1hPa | 0V | 00:00:00 | 00:00:00 | 00:00:00 | |
| OM5KV | 2026-09-06 00:10:11 | 48.61866 | 21.62249 | 133° | 53km/h | 18810m | 5.7m/s | 0°C | 0% | 0hPa | 0V | 00:00:00 | 00:00:00 | 00:00:00 | |
| OM5KV | 2026-09-06 00:10:10 | 48.61875 | 21.62234 | 134° | 51km/h | 18806m | 4.0m/s | -53.9°C | 0% | 70.4hPa | 0V | 00:00:00 | 00:00:00 | 00:00:00 | |
| SQ9EZE-13 | 2026-09-06 00:10:09 | 48.61884 | 21.62219 | 135° | 53km/h | 18801m | 5.7m/s | -53.9°C | 1.1% | 70.5hPa | 0V | 00:00:00 | 00:00:00 | 00:00:00 | |
| OM5KV | 2026-09-06 00:10:03 | 48.61937 | 21.62143 | 134° | 46km/h | 18771m | 5.1m/s | -54.2°C | 0% | 70.8hPa | 0V | 00:00:00 | 00:00:00 | 00:00:00 | |
| OM5KV | 2026-09-06 00:10:02 | 48.61953 | 21.62116 | 129° | 47km/h | 18761m | 4.9m/s | -54.4°C | 1.2% | 70.9hPa | 0V | 00:00:00 | 00:00:00 | 00:00:00 | |
| OM5KV | 2026-09-06 00:09:58 | 48.61975 | 21.62075 | 131° | 47km/h | 18746m | 4.9m/s | 0°C | 0% | 71.1hPa | 0V | 00:00:00 | 00:00:00 | 00:00:00 | |
| OM5KV | 2026-09-06 00:09:56 | 48.61992 | 21.62046 | 132° | 53km/h | 18736m | 4.2m/s | 0°C | 0% | 71.2hPa | 0V | 00:00:00 | 00:00:00 | 00:00:00 | |
| SQ9EZE-13 | 2026-09-06 00:09:53 | 48.62019 | 21.62002 | 135° | 53km/h | 18721m | 4.7m/s | -54.4°C | 1.2% | 71.3hPa | 0V | 00:00:00 | 00:00:00 | 00:00:00 | |
| OM5KV | 2026-09-06 00:09:50 | 48.62046 | 21.61959 | 135° | 49km/h | 18705m | 6.1m/s | 0°C | 0% | 71.5hPa | 0V | 00:00:00 | 00:00:00 | 00:00:00 | |
| OM5KV | 2026-09-06 00:09:47 | 48.62068 | 21.61919 | 126° | 46km/h | 18689m | 6.2m/s | 0°C | 0% | 71.7hPa | 0V | 00:00:00 | 00:00:00 | 00:00:00 | |
| OM5KV | 2026-09-06 00:09:41 | 48.62107 | 21.61833 | 129° | 49km/h | 18658m | 4.8m/s | 0°C | 0% | 0hPa | 0V | 00:00:00 | 00:00:00 | 00:00:00 | |
| GYPAP8-17 | 2026-09-06 00:09:40 | 48.62115 | 21.61818 | 130° | 49km/h | 18653m | 4.5m/s | -54.1°C | 1.2% | 72.1hPa | 0V | 00:00:00 | 00:00:00 | 00:00:00 | |
| OM5KV | 2026-09-06 00:09:39 | 48.62123 | 21.61804 | 131° | 47km/h | 18648m | 6.4m/s | 0°C | 0% | 0hPa | 0V | 00:00:00 | 00:00:00 | 00:00:00 | |
| SQ9EZE-13 | 2026-09-06 00:09:38 | 48.62130 | 21.61790 | 131° | 46km/h | 18642m | 4.2m/s | -54.0°C | 1.2% | 72.2hPa | 0V | 00:00:00 | 00:00:00 | 00:00:00 | |
| OM5KV | 2026-09-06 00:09:35 | 48.62153 | 21.61748 | 128° | 47km/h | 18628m | 4.6m/s | 0°C | 0% | 0hPa | 0V | 00:00:00 | 00:00:00 | 00:00:00 | |
| OM5KV | 2026-09-06 00:09:33 | 48.62167 | 21.61720 | 126° | 42km/h | 18617m | 4.6m/s | 0°C | 0% | 0hPa | 0V | 00:00:00 | 00:00:00 | 00:00:00 | |
| OM5KV | 2026-09-06 00:09:29 | 48.62191 | 21.61664 | 122° | 46km/h | 18598m | 5.3m/s | 0°C | 0% | 0hPa | 0V | 00:00:00 | 00:00:00 | 00:00:00 | |
| OM5KV | 2026-09-06 00:09:27 | 48.62202 | 21.61636 | 123° | 44km/h | 18587m | 4.6m/s | 0°C | 0% | 0hPa | 0V | 00:00:00 | 00:00:00 | 00:00:00 | |
| OM5KV | 2026-09-06 00:09:24 | 48.62221 | 21.61592 | 126° | 46km/h | 18572m | 4.2m/s | 0°C | 0% | 0hPa | 0V | 00:00:00 | 00:00:00 | 00:00:00 | |
| SQ9EZE-13 | 2026-09-06 00:09:23 | 48.62227 | 21.61579 | 126° | 42km/h | 18567m | 5.8m/s | -53.5°C | 1.1% | 73.1hPa | 0V | 00:00:00 | 00:00:00 | 00:00:00 | |
| OM5KV | 2026-09-06 00:09:21 | 48.62239 | 21.61553 | 123° | 40km/h | 18557m | 3.7m/s | 0°C | 0% | 0hPa | 0V | 00:00:00 | 00:00:00 | 00:00:00 | |
| OM5KV | 2026-09-06 00:09:15 | 48.62268 | 21.61468 | 114° | 42km/h | 18526m | 4.9m/s | 0°C | 0% | 0hPa | 0V | 00:00:00 | 00:00:00 | 00:00:00 | |
| OM5KV | 2026-09-06 00:09:10 | 48.62294 | 21.61395 | 125° | 42km/h | 18502m | 4.3m/s | 0°C | 0% | 0hPa | 0V | 00:00:00 | 00:00:00 | 00:00:00 | |
| SQ9EZE-13 | 2026-09-06 00:09:07 | 48.62314 | 21.61355 | 131° | 46km/h | 18488m | 4.4m/s | -53.2°C | 1.1% | 74.0hPa | 0V | 00:00:00 | 00:00:00 | 00:00:00 | |
| SQ9EZE-14 | 2026-09-06 00:09:00 | 48.62357 | 21.61254 | 111° | 47km/h | 18451m | 6.3m/s | -53.0°C | 1.1% | 74.4hPa | 0V | 00:00:00 | 00:00:00 | 00:00:00 | |
| SQ9EZE-13 | 2026-09-06 00:08:51 | 48.62407 | 21.61114 | 132° | 49km/h | 18405m | 4.7m/s | -53.6°C | 1.1% | 74.9hPa | 0V | 00:00:00 | 00:00:00 | 00:00:00 | |
| SQ9EZE-14 | 2026-09-06 00:08:44 | 48.62455 | 21.61001 | 116° | 55km/h | 18370m | 5.5m/s | -53.7°C | 1.2% | 75.3hPa | 0V | 00:00:00 | 00:00:00 | 00:00:00 | |
| SQ9EZE-13 | 2026-09-06 00:08:36 | 48.62502 | 21.60851 | 116° | 55km/h | 18327m | 6.2m/s | -53.7°C | 1.1% | 75.8hPa | 0V | 00:00:00 | 00:00:00 | 00:00:00 | |
| GYPAP8-17 | 2026-09-06 00:08:35 | 48.62508 | 21.60831 | 114° | 58km/h | 18322m | 5.3m/s | -53.6°C | 1.1% | 75.9hPa | 0V | 00:00:00 | 00:00:00 | 00:00:00 | |
| SQ9EZE-13 | 2026-09-06 00:08:20 | 48.62585 | 21.60534 | 115° | 55km/h | 18244m | 4.5m/s | -53.6°C | 1.2% | 76.8hPa | 0V | 00:00:00 | 00:00:00 | 00:00:00 | |
| SQ9EZE-13 | 2026-09-06 00:08:04 | 48.62643 | 21.60200 | 104° | 57km/h | 18161m | 4.6m/s | -53.3°C | 1.1% | 77.8hPa | 0V | 00:00:00 | 00:00:00 | 00:00:00 | |
| SQ9EZE-13 | 2026-09-06 00:07:48 | 48.62691 | 21.59855 | 101° | 57km/h | 18080m | 4.8m/s | -53.2°C | 1.1% | 78.8hPa | 0V | 00:00:00 | 00:00:00 | 00:00:00 | |
| SQ9EZE-13 | 2026-09-06 00:07:32 | 48.62723 | 21.59505 | 99° | 58km/h | 17997m | 5.9m/s | -53.8°C | 1.2% | 79.8hPa | 0V | 00:00:00 | 00:00:00 | 00:00:00 | |
| GYPAP8-17 | 2026-09-06 00:07:29 | 48.62727 | 21.59439 | 94° | 57km/h | 17982m | 5.9m/s | -54.2°C | 1.2% | 80.0hPa | 0V | 00:00:00 | 00:00:00 | 00:00:00 | |
| SQ9EZE-13 | 2026-09-06 00:07:16 | 48.62745 | 21.59189 | 96° | 51km/h | 17918m | 5.6m/s | -54.4°C | 1.2% | 80.8hPa | 0V | 00:00:00 | 00:00:00 | 00:00:00 | |
| SQ9EZE-13 | 2026-09-06 00:07:01 | 48.62777 | 21.58857 | 101° | 62km/h | 17841m | 4.1m/s | -54.4°C | 1.2% | 81.8hPa | 0V | 00:00:00 | 00:00:00 | 00:00:00 | |
| SQ9EZE-13 | 2026-09-06 00:06:46 | 48.62828 | 21.58502 | 101° | 62km/h | 17762m | 4.6m/s | -54.5°C | 1.2% | 82.8hPa | 0V | 00:00:00 | 00:00:00 | 00:00:00 | |
| SQ9EZE-13 | 2026-09-06 00:06:30 | 48.62867 | 21.58097 | 95° | 71km/h | 17679m | 6.3m/s | -55.3°C | 1.3% | 83.8hPa | 0V | 00:00:00 | 00:00:00 | 00:00:00 | |
| GYPAP8-17 | 2026-09-06 00:06:26 | 48.62874 | 21.57983 | 97° | 77km/h | 17657m | 4.4m/s | -55.5°C | 1.3% | 84.1hPa | 0V | 00:00:00 | 00:00:00 | 00:00:00 | |
| SQ9EZE-14 | 2026-09-06 00:06:25 | 48.62876 | 21.57953 | 96° | 78km/h | 17652m | 6.0m/s | -55.6°C | 1.3% | 84.2hPa | 0V | 00:00:00 | 00:00:00 | 00:00:00 | |
| SQ9EZE-13 | 2026-09-06 00:06:15 | 48.62887 | 21.57645 | 87° | 64km/h | 17594m | 5.2m/s | -55.4°C | 1.4% | 85.0hPa | 0V | 00:00:00 | 00:00:00 | 00:00:00 | |
| SQ9EZE-14 | 2026-09-06 00:06:12 | 48.62882 | 21.57549 | 87° | 66km/h | 17575m | 4.8m/s | -55.2°C | 1.3% | 85.2hPa | 0V | 00:00:00 | 00:00:00 | 00:00:00 | |
| SQ9EZE-13 | 2026-09-06 00:05:59 | 48.62875 | 21.57263 | 86° | 57km/h | 17517m | 4.7m/s | -54.7°C | 1.3% | 86.0hPa | 0V | 00:00:00 | 00:00:00 | 00:00:00 | |
| SQ9EZE-13 | 2026-09-06 00:05:45 | 48.62864 | 21.56899 | 77° | 58km/h | 17437m | 5.7m/s | -54.6°C | 1.3% | 87.0hPa | 0V | 00:00:00 | 00:00:00 | 00:00:00 | |
| SQ9EZE-13 | 2026-09-06 00:05:29 | 48.62829 | 21.56532 | 77° | 55km/h | 17362m | 4.9m/s | -53.9°C | 1.2% | 88.1hPa | 0V | 00:00:00 | 00:00:00 | 00:00:00 | |
| GYPAP8-17 | 2026-09-06 00:05:25 | 48.62824 | 21.56413 | 87° | 68km/h | 17338m | 4.5m/s | -53.7°C | 1.2% | 88.5hPa | 0V | 00:00:00 | 00:00:00 | 00:00:00 | |
| SQ9EZE-13 | 2026-09-06 00:05:13 | 48.62809 | 21.56199 | 83° | 47km/h | 17289m | 5.1m/s | -53.2°C | 1.2% | 89.1hPa | 0V | 00:00:00 | 00:00:00 | 00:00:00 | |
| SQ9EZE-13 | 2026-09-06 00:04:58 | 48.62791 | 21.55868 | 83° | 58km/h | 17197m | 6.2m/s | -52.4°C | 1.2% | 90.4hPa | 0V | 00:00:00 | 00:00:00 | 00:00:00 | |
| SQ9EZE-13 | 2026-09-06 00:04:43 | 48.62780 | 21.55562 | 77° | 62km/h | 17111m | 5.6m/s | -51.8°C | 1.2% | 91.7hPa | 0V | 00:00:00 | 00:00:00 | 00:00:00 | |
| SQ9EZE-13 | 2026-09-06 00:04:28 | 48.62757 | 21.55273 | 80° | 68km/h | 17022m | 6.1m/s | -51.2°C | 1.1% | 92.9hPa | 0V | 00:00:00 | 00:00:00 | 00:00:00 | |
| GYPAP8-17 | 2026-09-06 00:04:19 | 48.62757 | 21.55096 | 94° | 51km/h | 16980m | 5.7m/s | -51.4°C | 1.1% | 93.5hPa | 0V | 00:00:00 | 00:00:00 | 00:00:00 | |
| SQ9EZE-13 | 2026-09-06 00:04:11 | 48.62721 | 21.54966 | 95° | 38km/h | 16930m | 8.5m/s | -51.5°C | 1.1% | 94.2hPa | 0V | 00:00:00 | 00:00:00 | 00:00:00 | |
| SQ9EZE-13 | 2026-09-06 00:03:55 | 48.62780 | 21.54581 | 105° | 66km/h | 16849m | 3.1m/s | -53.0°C | 1.2% | 95.4hPa | 0V | 00:00:00 | 00:00:00 | 00:00:00 | |
| SQ9EZE-13 | 2026-09-06 00:03:38 | 48.62857 | 21.54190 | 107° | 68km/h | 16789m | 4.1m/s | -53.9°C | 1.3% | 96.3hPa | 0V | 00:00:00 | 00:00:00 | 00:00:00 | |
| SQ9EZE-13 | 2026-09-06 00:03:22 | 48.62943 | 21.53801 | 119° | 53km/h | 16711m | 4.3m/s | -54.8°C | 1.4% | 97.4hPa | 0V | 00:00:00 | 00:00:00 | 00:00:00 | |
| GYPAP8-17 | 2026-09-06 00:03:21 | 48.62957 | 21.53765 | 122° | 57km/h | 16701m | 4.7m/s | -54.8°C | 1.4% | 97.6hPa | 0V | 00:00:00 | 00:00:00 | 00:00:00 | |
| SQ9EZE-13 | 2026-09-06 00:03:08 | 48.63094 | 21.53352 | 119° | 82km/h | 16615m | 5.8m/s | -54.7°C | 1.4% | 98.9hPa | 0V | 00:00:00 | 00:00:00 | 00:00:00 | |
| SQ9EZE-13 | 2026-09-06 00:02:53 | 48.63218 | 21.52933 | 116° | 80km/h | 16543m | 4.9m/s | -55.2°C | 1.4% | 100.1hPa | 0V | 00:00:00 | 00:00:00 | 00:00:00 | |
| SQ9EZE-13 | 2026-09-06 00:02:32 | 48.63343 | 21.52440 | 112° | 84km/h | 16470m | 3.5m/s | -55.2°C | 1.4% | 101.3hPa | 0V | 00:00:00 | 00:00:00 | 00:00:00 | |
| SQ9EZE-14 | 2026-09-06 00:02:21 | 48.63399 | 21.52178 | 105° | 91km/h | 16432m | 5.4m/s | -55.2°C | 1.4% | 101.8hPa | 0V | 00:00:00 | 00:00:00 | 00:00:00 | |
| GYPAP8-17 | 2026-09-06 00:02:17 | 48.63430 | 21.52012 | 108° | 97km/h | 16409m | 2.9m/s | -55.8°C | 1.4% | 102.2hPa | 0V | 00:00:00 | 00:00:00 | 00:00:00 | |
| SQ9EZE-13 | 2026-09-06 00:02:07 | 48.63473 | 21.51701 | 102° | 104km/h | 16371m | 5.5m/s | -56.1°C | 1.5% | 102.8hPa | 0V | 00:00:00 | 00:00:00 | 00:00:00 | |
| SQ9EZE-14 | 2026-09-06 00:02:06 | 48.63482 | 21.51627 | 100° | 91km/h | 16360m | 3.9m/s | -56.0°C | 1.5% | 103.0hPa | 0V | 00:00:00 | 00:00:00 | 00:00:00 | |
| SQ9EZE-13 | 2026-09-06 00:01:39 | 48.63565 | 21.50636 | 94° | 80km/h | 16223m | 4.1m/s | -55.2°C | 1.4% | 105.3hPa | 0V | 00:00:00 | 00:00:00 | 00:00:00 | |
| SQ9EZE-13 | 2026-09-06 00:01:17 | 48.63606 | 21.49950 | 98° | 82km/h | 16117m | 4.7m/s | -54.2°C | 1.4% | 107.0hPa | 0V | 00:00:00 | 00:00:00 | 00:00:00 | |
| GYPAP8-17 | 2026-09-06 00:01:15 | 48.63612 | 21.49852 | 93° | 89km/h | 16103m | 4.8m/s | -54.1°C | 1.3% | 107.2hPa | 0V | 00:00:00 | 00:00:00 | 00:00:00 | |
| SQ9EZE-13 | 2026-09-06 00:00:59 | 48.63631 | 21.49432 | 97° | 77km/h | 16035m | 6.2m/s | -53.6°C | 1.3% | 108.4hPa | 0V | 00:00:00 | 00:00:00 | 00:00:00 | |
| SQ9EZE-13 | 2026-09-06 00:00:46 | 48.63643 | 21.48964 | 89° | 77km/h | 15957m | 5.8m/s | -52.9°C | 1.3% | 109.7hPa | 0V | 00:00:00 | 00:00:00 | 00:00:00 | |
| SQ9EZE-13 | 2026-09-06 00:00:14 | 48.63645 | 21.48139 | 95° | 71km/h | 15788m | 4.4m/s | -51.6°C | 1.2% | 112.6hPa | 0V | 00:00:00 | 00:00:00 | 00:00:00 | |
| SQ9EZE-14 | 2026-09-06 00:00:11 | 48.63651 | 21.48057 | 100° | 77km/h | 15771m | 6.8m/s | -51.5°C | 1.2% | 112.9hPa | 0V | 00:00:00 | 00:00:00 | 00:00:00 | |
| SQ9EZE-13 | 2026-09-05 23:59:56 | 48.63683 | 21.47687 | 108° | 66km/h | 15680m | 5.9m/s | -51.2°C | 1.2% | 114.4hPa | 0V | 00:00:00 | 00:00:00 | 00:00:00 | |
| SQ9EZE-14 | 2026-09-05 23:59:53 | 48.63693 | 21.47641 | 110° | 62km/h | 15667m | 7.0m/s | -51.2°C | 1.2% | 114.6hPa | 0V | 00:00:00 | 00:00:00 | 00:00:00 | |
| SQ9EZE-14 | 2026-09-05 23:59:39 | 48.63752 | 21.47314 | 110° | 64km/h | 15594m | 4.9m/s | -51.1°C | 1.2% | 116.0hPa | 0V | 00:00:00 | 00:00:00 | 00:00:00 | |
| SQ9EZE-13 | 2026-09-05 23:59:21 | 48.63834 | 21.46905 | 108° | 71km/h | 15514m | 4.1m/s | -50.8°C | 1.2% | 117.5hPa | 0V | 00:00:00 | 00:00:00 | 00:00:00 | |
| SQ9EZE-13 | 2026-09-05 23:59:05 | 48.63918 | 21.46491 | 107° | 78km/h | 15436m | 5.5m/s | -50.9°C | 1.2% | 118.8hPa | 0V | 00:00:00 | 00:00:00 | 00:00:00 | |
| SQ9EZE-13 | 2026-09-05 23:58:45 | 48.64012 | 21.45900 | 101° | 84km/h | 15341m | 5.6m/s | -51.4°C | 1.2% | 120.6hPa | 0V | 00:00:00 | 00:00:00 | 00:00:00 | |
| GYPAP8-17 | 2026-09-05 23:58:41 | 48.64029 | 21.45746 | 101° | 77km/h | 15317m | 6.1m/s | -51.5°C | 1.2% | 121.0hPa | 0V | 00:00:00 | 00:00:00 | 00:00:00 | |
| SQ9EZE-13 | 2026-09-05 23:58:30 | 48.64062 | 21.45470 | 104° | 73km/h | 15268m | 4.4m/s | -51.4°C | 1.3% | 122.0hPa | 0V | 00:00:00 | 00:00:00 | 00:00:00 | |
| SQ9EZE-13 | 2026-09-05 23:58:13 | 48.64145 | 21.45007 | 110° | 77km/h | 15186m | 4.3m/s | -51.2°C | 1.3% | 123.5hPa | 0V | 00:00:00 | 00:00:00 | 00:00:00 | |
| SQ9EZE-13 | 2026-09-05 23:57:57 | 48.64252 | 21.44554 | 111° | 82km/h | 15104m | 4.1m/s | -51.1°C | 1.3% | 125.0hPa | 0V | 00:00:00 | 00:00:00 | 00:00:00 | |
| SQ9EZE-13 | 2026-09-05 23:57:42 | 48.64384 | 21.44069 | 117° | 88km/h | 15021m | 4.8m/s | -51.0°C | 1.3% | 126.6hPa | 0V | 00:00:00 | 00:00:00 | 00:00:00 | |
| SQ9EZE-14 | 2026-09-05 23:57:33 | 48.64460 | 21.43834 | 114° | 102km/h | 14984m | 6.6m/s | -51.3°C | 1.4% | 127.4hPa | 0V | 00:00:00 | 00:00:00 | 00:00:00 | |
| SQ9EZE-13 | 2026-09-05 23:57:26 | 48.64530 | 21.43581 | 112° | 86km/h | 14947m | 4.0m/s | -51.8°C | 1.4% | 128.1hPa | 0V | 00:00:00 | 00:00:00 | 00:00:00 | |
| SQ9EZE-14 | 2026-09-05 23:57:17 | 48.64633 | 21.43256 | 120° | 120km/h | 14885m | 5.6m/s | -52.6°C | 1.5% | 129.3hPa | 0V | 00:00:00 | 00:00:00 | 00:00:00 | |
| SQ9EZE-13 | 2026-09-05 23:57:11 | 48.64732 | 21.42988 | 119° | 110km/h | 14850m | 3.8m/s | -52.7°C | 1.5% | 130.0hPa | 0V | 00:00:00 | 00:00:00 | 00:00:00 | |
| SQ9EZE-14 | 2026-09-05 23:57:01 | 48.64857 | 21.42633 | 118° | 117km/h | 14810m | 4.2m/s | -53.2°C | 1.5% | 130.8hPa | 0V | 00:00:00 | 00:00:00 | 00:00:00 | |
| SQ9EZE-13 | 2026-09-05 23:56:56 | 48.64927 | 21.42418 | 118° | 95km/h | 14781m | 5.1m/s | -53.4°C | 1.5% | 131.4hPa | 0V | 00:00:00 | 00:00:00 | 00:00:00 | |
| SQ9EZE-14 | 2026-09-05 23:56:44 | 48.65068 | 21.42012 | 120° | 117km/h | 14729m | 4.4m/s | -53.8°C | 1.5% | 132.4hPa | 0V | 00:00:00 | 00:00:00 | 00:00:00 | |
| SQ9EZE-13 | 2026-09-05 23:56:23 | 48.65387 | 21.41177 | 119° | 124km/h | 14632m | 4.1m/s | -54.2°C | 1.6% | 134.4hPa | 0V | 00:00:00 | 00:00:00 | 00:00:00 | |
| SQ9EZE-13 | 2026-09-05 23:56:07 | 48.65616 | 21.40514 | 120° | 122km/h | 14556m | 5.5m/s | -54.6°C | 1.7% | 136.0hPa | 0V | 00:00:00 | 00:00:00 | 00:00:00 | |
| SQ9EZE-13 | 2026-09-05 23:55:52 | 48.65837 | 21.39925 | 123° | 119km/h | 14486m | 5.4m/s | -54.5°C | 1.8% | 137.5hPa | 0V | 00:00:00 | 00:00:00 | 00:00:00 | |
| SQ9EZE-13 | 2026-09-05 23:55:37 | 48.66072 | 21.39331 | 121° | 122km/h | 14414m | 3.5m/s | -54.2°C | 1.7% | 139.0hPa | 0V | 00:00:00 | 00:00:00 | 00:00:00 | |
| GYPAP8-17 | 2026-09-05 23:55:36 | 48.66088 | 21.39290 | 121° | 122km/h | 14410m | 5.5m/s | -54.3°C | 1.7% | 139.1hPa | 0V | 00:00:00 | 00:00:00 | 00:00:00 | |
| SQ9EZE-13 | 2026-09-05 23:55:22 | 48.66309 | 21.38697 | 120° | 128km/h | 14341m | 5.2m/s | -54.6°C | 1.9% | 140.6hPa | 0V | 00:00:00 | 00:00:00 | 00:00:00 | |
| SQ9EZE-13 | 2026-09-05 23:55:07 | 48.66545 | 21.38069 | 124° | 131km/h | 14271m | 4.4m/s | -54.8°C | 1.9% | 142.2hPa | 0V | 00:00:00 | 00:00:00 | 00:00:00 | |
| SQ9EZE-13 | 2026-09-05 23:54:51 | 48.66810 | 21.37365 | 122° | 135km/h | 14194m | 4.3m/s | -54.8°C | 1.9% | 143.9hPa | 0V | 00:00:00 | 00:00:00 | 00:00:00 | |
| SQ9EZE-14 | 2026-09-05 23:54:38 | 48.67019 | 21.36808 | 121° | 128km/h | 14134m | 4.4m/s | -54.5°C | 1.8% | 145.3hPa | 0V | 00:00:00 | 00:00:00 | 00:00:00 | |
| SQ9EZE-13 | 2026-09-05 23:54:36 | 48.67052 | 21.36725 | 123° | 128km/h | 14124m | 4.3m/s | -54.5°C | 1.9% | 145.5hPa | 0V | 00:00:00 | 00:00:00 | 00:00:00 | |
| SQ9EZE-14 | 2026-09-05 23:54:23 | 48.67269 | 21.36187 | 124° | 128km/h | 14066m | 4.0m/s | -54.8°C | 1.9% | 146.8hPa | 0V | 00:00:00 | 00:00:00 | 00:00:00 | |
| SQ9EZE-13 | 2026-09-05 23:54:20 | 48.67324 | 21.36067 | 127° | 126km/h | 14052m | 4.3m/s | -54.8°C | 1.9% | 147.1hPa | 0V | 00:00:00 | 00:00:00 | 00:00:00 | |
| SQ9EZE-14 | 2026-09-05 23:54:08 | 48.67550 | 21.35568 | 124° | 131km/h | 14000m | 3.7m/s | -54.9°C | 2.0% | 148.3hPa | 0V | 00:00:00 | 00:00:00 | 00:00:00 | |
| GYPAP8-17 | 2026-09-05 23:54:07 | 48.67586 | 21.35483 | 123° | 133km/h | 13992m | 4.2m/s | -55.0°C | 2.0% | 148.5hPa | 0V | 00:00:00 | 00:00:00 | 00:00:00 | |
| SQ9EZE-13 | 2026-09-05 23:54:05 | 48.67604 | 21.35440 | 123° | 133km/h | 13988m | 4.4m/s | -55.0°C | 2.0% | 148.6hPa | 0V | 00:00:00 | 00:00:00 | 00:00:00 | |
| SQ9EZE-13 | 2026-09-05 23:53:34 | 48.68147 | 21.34005 | 122° | 141km/h | 13849m | 4.4m/s | -55.7°C | 2.3% | 151.9hPa | 0V | 00:00:00 | 00:00:00 | 00:00:00 | |
| SQ9EZE-13 | 2026-09-05 23:53:18 | 48.68427 | 21.33264 | 123° | 142km/h | 13778m | 5.1m/s | -55.8°C | 2.4% | 153.7hPa | 0V | 00:00:00 | 00:00:00 | 00:00:00 | |
| SQ9EZE-13 | 2026-09-05 23:53:03 | 48.68716 | 21.32557 | 123° | 148km/h | 13709m | 5.4m/s | -55.8°C | 2.4% | 155.3hPa | 0V | 00:00:00 | 00:00:00 | 00:00:00 | |
| SQ9EZE-13 | 2026-09-05 23:52:48 | 48.68989 | 21.31816 | 118° | 150km/h | 13640m | 5.1m/s | -55.7°C | 2.5% | 157.0hPa | 0V | 00:00:00 | 00:00:00 | 00:00:00 | |
| SQ9EZE-13 | 2026-09-05 23:52:32 | 48.69279 | 21.30965 | 116° | 157km/h | 13555m | 5.3m/s | -55.4°C | 2.6% | 159.1hPa | 0V | 00:00:00 | 00:00:00 | 00:00:00 | |
| SQ9EZE-13 | 2026-09-05 23:52:17 | 48.69527 | 21.30132 | 113° | 166km/h | 13476m | 2.5m/s | -55.2°C | 3.1% | 161.1hPa | 0V | 00:00:00 | 00:00:00 | 00:00:00 | |
| SQ9EZE-14 | 2026-09-05 23:52:05 | 48.69711 | 21.29434 | 113° | 166km/h | 13410m | 5.2m/s | -55.1°C | 3.4% | 162.8hPa | 0V | 00:00:00 | 00:00:00 | 00:00:00 | |
| SQ9EZE-13 | 2026-09-05 23:52:02 | 48.69768 | 21.29195 | 107° | 166km/h | 13388m | 8.2m/s | -55.1°C | 3.4% | 163.3hPa | 0V | 00:00:00 | 00:00:00 | 00:00:00 | |
| SQ9EZE-14 | 2026-09-05 23:51:49 | 48.69919 | 21.28423 | 109° | 175km/h | 13312m | 3.8m/s | -55.4°C | 4.1% | 165.3hPa | 0V | 00:00:00 | 00:00:00 | 00:00:00 | |
| SQ9EZE-13 | 2026-09-05 23:51:46 | 48.69962 | 21.28235 | 110° | 172km/h | 13296m | 4.6m/s | -55.7°C | 4.4% | 165.7hPa | 0V | 00:00:00 | 00:00:00 | 00:00:00 | |
| SQ9EZE-13 | 2026-09-05 23:51:30 | 48.70165 | 21.27222 | 104° | 170km/h | 13215m | 5.3m/s | -57.0°C | 5.3% | 167.8hPa | 0V | 00:00:00 | 00:00:00 | 00:00:00 | |
| SQ9EZE-13 | 2026-09-05 23:51:14 | 48.70317 | 21.26185 | 104° | 173km/h | 13130m | 4.9m/s | -56.3°C | 5.8% | 170.1hPa | 0V | 00:00:00 | 00:00:00 | 00:00:00 | |
| SQ9EZE-13 | 2026-09-05 23:50:59 | 48.70445 | 21.25190 | 104° | 170km/h | 13039m | 6.6m/s | -55.7°C | 6.0% | 172.5hPa | 0V | 00:00:00 | 00:00:00 | 00:00:00 | |
| SQ9EZE-13 | 2026-09-05 23:50:43 | 48.70606 | 21.24208 | 107° | 162km/h | 12949m | 3.8m/s | -56.4°C | 7.9% | 175.0hPa | 0V | 00:00:00 | 00:00:00 | 00:00:00 | |
| GYPAP8-17 | 2026-09-05 23:50:30 | 48.70756 | 21.23426 | 108° | 159km/h | 12883m | 4.3m/s | -56.5°C | 8.7% | 176.8hPa | 0V | 00:00:00 | 00:00:00 | 00:00:00 | |
| SQ9EZE-13 | 2026-09-05 23:50:28 | 48.70779 | 21.23311 | 108° | 157km/h | 12873m | 5.2m/s | -56.5°C | 8.9% | 177.1hPa | 0V | 00:00:00 | 00:00:00 | 00:00:00 | |
| SQ9EZE-13 | 2026-09-05 23:50:12 | 48.70973 | 21.22399 | 110° | 150km/h | 12798m | 4.0m/s | -56.3°C | 9.5% | 179.2hPa | 0V | 00:00:00 | 00:00:00 | 00:00:00 | |
| SQ9EZE-13 | 2026-09-05 23:49:57 | 48.71178 | 21.21552 | 116° | 146km/h | 12732m | 4.0m/s | -56.7°C | 11.0% | 181.0hPa | 0V | 00:00:00 | 00:00:00 | 00:00:00 | |
| SQ9EZE-14 | 2026-09-05 23:49:46 | 48.71338 | 21.20947 | 116° | 153km/h | 12681m | 4.9m/s | -56.9°C | 11.7% | 182.5hPa | 0V | 00:00:00 | 00:00:00 | 00:00:00 | |
| SQ9EZE-13 | 2026-09-05 23:49:42 | 48.71403 | 21.20733 | 116° | 157km/h | 12663m | 3.5m/s | -56.8°C | 11.5% | 183.0hPa | 0V | 00:00:00 | 00:00:00 | 00:00:00 | |
| SQ9EZE-14 | 2026-09-05 23:49:30 | 48.71621 | 21.20074 | 117° | 159km/h | 12607m | 5.5m/s | -56.5°C | 11.9% | 184.6hPa | 0V | 00:00:00 | 00:00:00 | 00:00:00 | |
| SQ9EZE-13 | 2026-09-05 23:49:27 | 48.71691 | 21.19859 | 118° | 157km/h | 12591m | 2.9m/s | -56.6°C | 12.2% | 185.1hPa | 0V | 00:00:00 | 00:00:00 | 00:00:00 | |
| SQ9EZE-13 | 2026-09-05 23:49:11 | 48.71971 | 21.19059 | 122° | 159km/h | 12527m | 3.1m/s | -56.6°C | 12.8% | 187.0hPa | 0V | 00:00:00 | 00:00:00 | 00:00:00 | |
| GYPAP8-17 | 2026-09-05 23:49:05 | 48.72099 | 21.18747 | 122° | 162km/h | 12502m | 5.2m/s | -56.6°C | 13.0% | 187.8hPa | 0V | 00:00:00 | 00:00:00 | 00:00:00 | |
| SQ9EZE-13 | 2026-09-05 23:48:55 | 48.72309 | 21.18203 | 122° | 164km/h | 12463m | 4.6m/s | -56.3°C | 13.0% | 188.9hPa | 0V | 00:00:00 | 00:00:00 | 00:00:00 | |
| SQ9EZE-13 | 2026-09-05 23:48:40 | 48.72625 | 21.17408 | 123° | 162km/h | 12404m | 3.8m/s | -56.0°C | 13.7% | 190.7hPa | 0V | 00:00:00 | 00:00:00 | 00:00:00 | |
| SQ9EZE-13 | 2026-09-05 23:48:24 | 48.72958 | 21.16569 | 122° | 157km/h | 12340m | 4.7m/s | -55.7°C | 15.3% | 192.7hPa | 0V | 00:00:00 | 00:00:00 | 00:00:00 | |
| SQ9EZE-13 | 2026-09-05 23:48:08 | 48.73299 | 21.15745 | 126° | 151km/h | 12279m | 4.4m/s | -55.6°C | 17.2% | 194.6hPa | 0V | 00:00:00 | 00:00:00 | 00:00:00 | |
| SQ9EZE-13 | 2026-09-05 23:47:52 | 48.73669 | 21.14914 | 125° | 172km/h | 12209m | 4.0m/s | -55.6°C | 21.7% | 196.8hPa | 0V | 00:00:00 | 00:00:00 | 00:00:00 | |
| GYPAP8-17 | 2026-09-05 23:47:41 | 48.73946 | 21.14324 | 128° | 192km/h | 12153m | 7.6m/s | -55.9°C | 23.7% | 198.5hPa | 0V | 00:00:00 | 00:00:00 | 00:00:00 | |
| SQ9EZE-13 | 2026-09-05 23:47:36 | 48.74084 | 21.14029 | 123° | 184km/h | 12128m | 4.1m/s | -55.9°C | 24.4% | 199.3hPa | 0V | 00:00:00 | 00:00:00 | 00:00:00 | |
| SQ9EZE-13 | 2026-09-05 23:47:20 | 48.74549 | 21.13123 | 135° | 192km/h | 12036m | 7.3m/s | -56.2°C | 28.9% | 202.0hPa | 0V | 00:00:00 | 00:00:00 | 00:00:00 | |
| SQ9EZE-13 | 2026-09-05 23:47:04 | 48.75068 | 21.12179 | 131° | 208km/h | 11932m | 4.9m/s | -56.7°C | 32.7% | 205.3hPa | 0V | 00:00:00 | 00:00:00 | 00:00:00 | |
| SQ9EZE-14 | 2026-09-05 23:47:03 | 48.75101 | 21.12117 | 130° | 212km/h | 11927m | 3.4m/s | -56.7°C | 32.8% | 205.5hPa | 0V | 00:00:00 | 00:00:00 | 00:00:00 | |
| SQ9EZE-14 | 2026-09-05 23:46:48 | 48.75601 | 21.11135 | 128° | 217km/h | 11858m | 4.8m/s | -56.3°C | 33.1% | 207.7hPa | 0V | 00:00:00 | 00:00:00 | 00:00:00 | |
| GYPAP8-17 | 2026-09-05 23:46:39 | 48.75901 | 21.10532 | 126° | 219km/h | 11818m | 5.4m/s | -56.0°C | 32.3% | 209.1hPa | 0V | 00:00:00 | 00:00:00 | 00:00:00 | |
| SQ9EZE-13 | 2026-09-05 23:46:33 | 48.76093 | 21.10120 | 126° | 219km/h | 11793m | 5.0m/s | -55.9°C | 31.9% | 209.9hPa | 0V | 00:00:00 | 00:00:00 | 00:00:00 | |
| SQ9EZE-13 | 2026-09-05 23:46:18 | 48.76564 | 21.09071 | 126° | 219km/h | 11725m | 6.0m/s | -55.6°C | 31.1% | 212.1hPa | 0V | 00:00:00 | 00:00:00 | 00:00:00 | |
| SQ9EZE-13 | 2026-09-05 23:46:02 | 48.77048 | 21.07942 | 123° | 219km/h | 11654m | 5.9m/s | -55.1°C | 29.9% | 214.4hPa | 0V | 00:00:00 | 00:00:00 | 00:00:00 | |
| SQ9EZE-13 | 2026-09-05 23:45:46 | 48.77501 | 21.06806 | 121° | 212km/h | 11581m | 5.7m/s | -54.6°C | 29.5% | 216.9hPa | 0V | 00:00:00 | 00:00:00 | 00:00:00 | |
| GYPAP8-17 | 2026-09-05 23:45:40 | 48.77655 | 21.06384 | 118° | 210km/h | 11553m | 5.1m/s | -54.4°C | 29.8% | 217.9hPa | 0V | 00:00:00 | 00:00:00 | 00:00:00 | |
| SQ9EZE-13 | 2026-09-05 23:45:30 | 48.77944 | 21.05677 | 123° | 201km/h | 11501m | 9.4m/s | -54.2°C | 28.6% | 219.6hPa | 0V | 00:00:00 | 00:00:00 | 00:00:00 | |
| SQ9EZE-13 | 2026-09-05 23:45:14 | 48.78370 | 21.04636 | 119° | 193km/h | 11393m | 5.5m/s | -53.5°C | 29.9% | 223.4hPa | 0V | 00:00:00 | 00:00:00 | 00:00:00 | |
| SQ9EZE-13 | 2026-09-05 23:44:58 | 48.78753 | 21.03585 | 121° | 192km/h | 11287m | 5.4m/s | -53.0°C | 30.4% | 227.1hPa | 0V | 00:00:00 | 00:00:00 | 00:00:00 | |
| SQ9EZE-14 | 2026-09-05 23:44:45 | 48.79069 | 21.02715 | 120° | 192km/h | 11208m | 6.7m/s | -52.4°C | 30.4% | 229.9hPa | 0V | 00:00:00 | 00:00:00 | 00:00:00 | |
| SQ9EZE-13 | 2026-09-05 23:44:42 | 48.79141 | 21.02526 | 122° | 188km/h | 11189m | 7.6m/s | -52.3°C | 30.4% | 230.6hPa | 0V | 00:00:00 | 00:00:00 | 00:00:00 | |
| GYPAP8-17 | 2026-09-05 23:44:40 | 48.79188 | 21.02402 | 120° | 184km/h | 11176m | 6.8m/s | -52.3°C | 30.9% | 231.0hPa | 0V | 00:00:00 | 00:00:00 | 00:00:00 | |
| SQ9EZE-14 | 2026-09-05 23:44:29 | 48.79456 | 21.01699 | 124° | 193km/h | 11113m | 5.9m/s | -52.1°C | 35.4% | 233.3hPa | 0V | 00:00:00 | 00:00:00 | 00:00:00 | |
| SQ9EZE-13 | 2026-09-05 23:44:27 | 48.79510 | 21.01574 | 124° | 195km/h | 11098m | 6.5m/s | -52.0°C | 35.9% | 233.8hPa | 0V | 00:00:00 | 00:00:00 | 00:00:00 | |
| SQ9EZE-13 | 2026-09-05 23:44:12 | 48.79886 | 21.00599 | 124° | 197km/h | 11003m | 4.9m/s | -52.3°C | 42.9% | 237.3hPa | 0V | 00:00:00 | 00:00:00 | 00:00:00 | |
| SQ9EZE-13 | 2026-09-05 23:43:56 | 48.80294 | 20.99578 | 124° | 195km/h | 10896m | 9.5m/s | -51.8°C | 45.3% | 241.2hPa | 0V | 00:00:00 | 00:00:00 | 00:00:00 | |
| GYPAP8-17 | 2026-09-05 23:43:51 | 48.80425 | 20.99270 | 121° | 192km/h | 10865m | 5.2m/s | -51.6°C | 47.3% | 242.4hPa | 0V | 00:00:00 | 00:00:00 | 00:00:00 | |
| SQ9EZE-13 | 2026-09-05 23:43:41 | 48.80659 | 20.98626 | 120° | 193km/h | 10803m | 8.3m/s | -51.1°C | 45.0% | 244.7hPa | 0V | 00:00:00 | 00:00:00 | 00:00:00 | |
| SQ9EZE-13 | 2026-09-05 23:43:25 | 48.81040 | 20.97588 | 122° | 190km/h | 10713m | 4.7m/s | -50.2°C | 40.2% | 248.2hPa | 0V | 00:00:00 | 00:00:00 | 00:00:00 | |
| SQ9EZE-13 | 2026-09-05 23:43:10 | 48.81387 | 20.96647 | 114° | 190km/h | 10634m | 5.8m/s | -49.5°C | 40.8% | 251.1hPa | 0V | 00:00:00 | 00:00:00 | 00:00:00 | |
| SQ9EZE-13 | 2026-09-05 23:42:55 | 48.81717 | 20.95656 | 121° | 186km/h | 10535m | 8.6m/s | -48.6°C | 37.6% | 254.9hPa | 0V | 00:00:00 | 00:00:00 | 00:00:00 | |
| SQ9EZE-13 | 2026-09-05 23:42:40 | 48.82056 | 20.94734 | 121° | 183km/h | 10448m | 6.9m/s | -48.0°C | 33.9% | 258.4hPa | 0V | 00:00:00 | 00:00:00 | 00:00:00 | |
| GYPAP8-17 | 2026-09-05 23:42:28 | 48.82319 | 20.94003 | 119° | 177km/h | 10371m | 6.9m/s | -47.7°C | 35.5% | 261.3hPa | 0V | 00:00:00 | 00:00:00 | 00:00:00 | |
| SQ9EZE-14 | 2026-09-05 23:42:25 | 48.82387 | 20.93825 | 122° | 179km/h | 10352m | 7.7m/s | -47.6°C | 37.3% | 262.1hPa | 0V | 00:00:00 | 00:00:00 | 00:00:00 | |
| SQ9EZE-13 | 2026-09-05 23:42:24 | 48.82411 | 20.93766 | 123° | 183km/h | 10346m | 4.6m/s | -47.5°C | 38.0% | 262.4hPa | 0V | 00:00:00 | 00:00:00 | 00:00:00 | |
| SQ9EZE-14 | 2026-09-05 23:42:10 | 48.82746 | 20.92941 | 124° | 177km/h | 10266m | 4.5m/s | -47.0°C | 41.4% | 265.5hPa | 0V | 00:00:00 | 00:00:00 | 00:00:00 | |
| SQ9EZE-13 | 2026-09-05 23:42:09 | 48.82771 | 20.92885 | 125° | 175km/h | 10261m | 4.3m/s | -47.0°C | 41.4% | 265.7hPa | 0V | 00:00:00 | 00:00:00 | 00:00:00 | |
| SQ9EZE-13 | 2026-09-05 23:41:53 | 48.83171 | 20.91964 | 125° | 179km/h | 10175m | 4.6m/s | -46.4°C | 40.1% | 269.2hPa | 0V | 00:00:00 | 00:00:00 | 00:00:00 | |
| SQ9EZE-13 | 2026-09-05 23:41:37 | 48.83571 | 20.91023 | 122° | 186km/h | 10097m | 6.0m/s | -45.7°C | 45.6% | 272.3hPa | 0V | 00:00:00 | 00:00:00 | 00:00:00 | |
| GYPAP8-17 | 2026-09-05 23:41:23 | 48.83912 | 20.90185 | 124° | 175km/h | 10017m | 6.6m/s | -45.3°C | 55.6% | 275.6hPa | 0V | 00:00:00 | 00:00:00 | 00:00:00 | |
| SQ9EZE-13 | 2026-09-05 23:41:21 | 48.83961 | 20.90072 | 124° | 177km/h | 10007m | 6.0m/s | -45.2°C | 55.2% | 276.0hPa | 0V | 00:00:00 | 00:00:00 | 00:00:00 | |
| SQ9EZE-13 | 2026-09-05 23:41:06 | 48.84371 | 20.89168 | 125° | 186km/h | 9913m | 4.6m/s | -44.3°C | 53.5% | 279.9hPa | 0V | 00:00:00 | 00:00:00 | 00:00:00 | |
| SQ9EZE-13 | 2026-09-05 23:40:50 | 48.84816 | 20.88234 | 122° | 186km/h | 9821m | 6.5m/s | -43.5°C | 51.6% | 283.8hPa | 0V | 00:00:00 | 00:00:00 | 00:00:00 | |
| SQ9EZE-13 | 2026-09-05 23:40:34 | 48.85249 | 20.87285 | 122° | 186km/h | 9736m | 6.6m/s | -42.7°C | 50.9% | 287.4hPa | 0V | 00:00:00 | 00:00:00 | 00:00:00 | |
| GYPAP8-17 | 2026-09-05 23:40:28 | 48.85412 | 20.86923 | 128° | 192km/h | 9701m | 6.5m/s | -42.3°C | 48.8% | 288.8hPa | 0V | 00:00:00 | 00:00:00 | 00:00:00 | |
| SQ9EZE-13 | 2026-09-05 23:40:19 | 48.85653 | 20.86392 | 125° | 197km/h | 9651m | 5.6m/s | -41.9°C | 47.4% | 291.0hPa | 0V | 00:00:00 | 00:00:00 | 00:00:00 | |
| SQ9EZE-14 | 2026-09-05 23:40:07 | 48.86001 | 20.85683 | 128° | 190km/h | 9586m | 6.6m/s | -41.3°C | 47.2% | 293.7hPa | 0V | 00:00:00 | 00:00:00 | 00:00:00 | |
| SQ9EZE-13 | 2026-09-05 23:40:03 | 48.86111 | 20.85452 | 125° | 183km/h | 9555m | 7.3m/s | -41.0°C | 46.8% | 295.1hPa | 0V | 00:00:00 | 00:00:00 | 00:00:00 | |
| SQ9EZE-14 | 2026-09-05 23:39:51 | 48.86435 | 20.84708 | 125° | 190km/h | 9481m | 7.3m/s | -40.3°C | 45.5% | 298.3hPa | 0V | 00:00:00 | 00:00:00 | 00:00:00 | |
| SQ9EZE-13 | 2026-09-05 23:39:48 | 48.86517 | 20.84525 | 125° | 192km/h | 9461m | 6.6m/s | -40.1°C | 45.9% | 299.1hPa | 0V | 00:00:00 | 00:00:00 | 00:00:00 | |
| SQ9EZE-13 | 2026-09-05 23:39:32 | 48.86934 | 20.83548 | 122° | 192km/h | 9370m | 9.0m/s | -39.4°C | 50.7% | 303.0hPa | 0V | 00:00:00 | 00:00:00 | 00:00:00 | |
| SQ9EZE-13 | 2026-09-05 23:39:22 | 48.87358 | 20.82648 | 127° | 192km/h | 9276m | 6.7m/s | -38.5°C | 48.5% | 307.3hPa | 0V | 00:00:00 | 00:00:00 | 00:00:00 | |
| GYPAP8-17 | 2026-09-05 23:39:21 | 48.87555 | 20.82233 | 128° | 190km/h | 9240m | 5.2m/s | -38.2°C | 48.6% | 308.9hPa | 0V | 00:00:00 | 00:00:00 | 00:00:00 | |
| SQ9EZE-13 | 2026-09-05 23:39:01 | 48.87805 | 20.81682 | 125° | 193km/h | 9193m | 6.1m/s | -37.7°C | 47.8% | 311.1hPa | 0V | 00:00:00 | 00:00:00 | 00:00:00 | |
| SQ9EZE-13 | 2026-09-05 23:38:45 | 48.88276 | 20.80728 | 129° | 193km/h | 9103m | 5.1m/s | -36.9°C | 47.9% | 315.1hPa | 0V | 00:00:00 | 00:00:00 | 00:00:00 | |
| SQ9EZE-13 | 2026-09-05 23:38:29 | 48.88733 | 20.79762 | 127° | 190km/h | 9012m | 6.1m/s | -36.1°C | 47.4% | 319.3hPa | 0V | 00:00:00 | 00:00:00 | 00:00:00 | |
| SQ9EZE-13 | 2026-09-05 23:38:13 | 48.89208 | 20.78785 | 128° | 193km/h | 8922m | 3.6m/s | -35.2°C | 43.8% | 323.6hPa | 0V | 00:00:00 | 00:00:00 | 00:00:00 | |
| GYPAP8-17 | 2026-09-05 23:37:59 | 48.89637 | 20.77967 | 133° | 204km/h | 8837m | 3.5m/s | -34.5°C | 43.5% | 327.4hPa | 0V | 00:00:00 | 00:00:00 | 00:00:00 | |
| SQ9EZE-13 | 2026-09-05 23:37:58 | 48.89672 | 20.77909 | 134° | 204km/h | 8833m | 4.2m/s | -34.4°C | 43.4% | 327.6hPa | 0V | 00:00:00 | 00:00:00 | 00:00:00 | |
| SQ9EZE-14 | 2026-09-05 23:37:48 | 48.89979 | 20.77304 | 124° | 204km/h | 8772m | 5.2m/s | -34.0°C | 42.9% | 330.5hPa | 0V | 00:00:00 | 00:00:00 | 00:00:00 | |
| SQ9EZE-13 | 2026-09-05 23:37:42 | 48.90166 | 20.76931 | 132° | 201km/h | 8739m | 5.4m/s | -33.8°C | 41.8% | 332.1hPa | 0V | 00:00:00 | 00:00:00 | 00:00:00 | |
| SQ9EZE-14 | 2026-09-05 23:37:32 | 48.90480 | 20.76310 | 128° | 179km/h | 8671m | 5.7m/s | -33.9°C | 42.3% | 335.2hPa | 0V | 00:00:00 | 00:00:00 | 00:00:00 | |
| SQ9EZE-13 | 2026-09-05 23:37:26 | 48.90647 | 20.75958 | 129° | 199km/h | 8627m | 6.9m/s | -34.4°C | 28.7% | 337.3hPa | 0V | 00:00:00 | 00:00:00 | 00:00:00 | |
| SQ9EZE-13 | 2026-09-05 23:37:10 | 48.91037 | 20.75072 | 117° | 173km/h | 8523m | 8.1m/s | -33.9°C | 14.4% | 342.3hPa | 0V | 00:00:00 | 00:00:00 | 00:00:00 | |
| SQ9EZE-13 | 2026-09-05 23:36:54 | 48.91407 | 20.74165 | 121° | 173km/h | 8396m | 8.5m/s | -33.2°C | 10.8% | 348.6hPa | 0V | 00:00:00 | 00:00:00 | 00:00:00 | |
| GYPAP8-17 | 2026-09-05 23:36:51 | 48.91476 | 20.73994 | 124° | 175km/h | 8375m | 5.3m/s | -33.1°C | 11.0% | 349.7hPa | 0V | 00:00:00 | 00:00:00 | 00:00:00 | |
| SQ9EZE-13 | 2026-09-05 23:36:39 | 48.91747 | 20.73330 | 123° | 170km/h | 8303m | 8.8m/s | -32.6°C | 15.6% | 353.2hPa | 0V | 00:00:00 | 00:00:00 | 00:00:00 | |
| SQ9EZE-13 | 2026-09-05 23:36:23 | 48.92070 | 20.72437 | 118° | 155km/h | 8207m | 7.2m/s | -31.9°C | 18.7% | 358.2hPa | 0V | 00:00:00 | 00:00:00 | 00:00:00 | |
| SQ9EZE-13 | 2026-09-05 23:36:07 | 48.92384 | 20.71553 | 124° | 159km/h | 8092m | 9.0m/s | -30.9°C | 18.3% | 363.9hPa | 0V | 00:00:00 | 00:00:00 | 00:00:00 | |
| GYPAP8-17 | 2026-09-05 23:36:06 | 48.92405 | 20.71502 | 123° | 159km/h | 8083m | 9.1m/s | -30.9°C | 19.2% | 364.4hPa | 0V | 00:00:00 | 00:00:00 | 00:00:00 | |
| SQ9EZE-13 | 2026-09-05 23:35:52 | 48.92704 | 20.70745 | 119° | 166km/h | 7993m | 6.4m/s | -30.3°C | 23.7% | 369.1hPa | 0V | 00:00:00 | 00:00:00 | 00:00:00 | |
| SQ9EZE-13 | 2026-09-05 23:35:36 | 48.93017 | 20.69872 | 118° | 166km/h | 7886m | 7.4m/s | -29.6°C | 25.6% | 374.7hPa | 0V | 00:00:00 | 00:00:00 | 00:00:00 | |
| SQ9EZE-14 | 2026-09-05 23:35:29 | 48.93143 | 20.69507 | 121° | 159km/h | 7839m | 7.0m/s | -29.2°C | 25.0% | 377.2hPa | 0V | 00:00:00 | 00:00:00 | 00:00:00 | |
| GYPAP8-17 | 2026-09-05 23:35:23 | 48.93277 | 20.69136 | 120° | 161km/h | 7792m | 7.6m/s | -28.8°C | 24.3% | 379.8hPa | 0V | 00:00:00 | 00:00:00 | 00:00:00 | |
| SQ9EZE-13 | 2026-09-05 23:35:20 | 48.93314 | 20.69028 | 117° | 157km/h | 7778m | 6.7m/s | -28.7°C | 24.2% | 380.5hPa | 0V | 00:00:00 | 00:00:00 | 00:00:00 | |
| SQ9EZE-14 | 2026-09-05 23:35:13 | 48.93449 | 20.68662 | 121° | 164km/h | 7730m | 7.5m/s | -28.2°C | 25.1% | 383.0hPa | 0V | 00:00:00 | 00:00:00 | 00:00:00 | |
| SQ9EZE-13 | 2026-09-05 23:35:04 | 48.93618 | 20.68196 | 114° | 157km/h | 7669m | 6.9m/s | -27.9°C | 27.2% | 386.3hPa | 0V | 00:00:00 | 00:00:00 | 00:00:00 | |
| SQ9EZE-13 | 2026-09-05 23:34:48 | 48.93902 | 20.67357 | 120° | 161km/h | 7561m | 7.1m/s | -27.1°C | 28.4% | 392.3hPa | 0V | 00:00:00 | 00:00:00 | 00:00:00 | |
| GYPAP8-17 | 2026-09-05 23:34:38 | 48.94086 | 20.66863 | 115° | 157km/h | 7498m | 8.6m/s | -26.7°C | 28.8% | 395.7hPa | 0V | 00:00:00 | 00:00:00 | 00:00:00 | |
| SQ9EZE-13 | 2026-09-05 23:34:32 | 48.94184 | 20.66517 | 115° | 164km/h | 7458m | 5.1m/s | -26.3°C | 29.9% | 397.9hPa | 0V | 00:00:00 | 00:00:00 | 00:00:00 | |
| SQ9EZE-13 | 2026-09-05 23:34:17 | 48.94429 | 20.65729 | 121° | 144km/h | 7371m | 5.7m/s | -25.6°C | 24.1% | 402.8hPa | 0V | 00:00:00 | 00:00:00 | 00:00:00 | |
| SQ9EZE-13 | 2026-09-05 23:34:02 | 48.94670 | 20.64967 | 120° | 142km/h | 7269m | 5.4m/s | -24.9°C | 24.3% | 408.3hPa | 0V | 00:00:00 | 00:00:00 | 00:00:00 | |
| GYPAP8-17 | 2026-09-05 23:33:53 | 48.94801 | 20.64510 | 118° | 153km/h | 7216m | 4.5m/s | -24.4°C | 24.7% | 411.2hPa | 0V | 00:00:00 | 00:00:00 | 00:00:00 | |
| SQ9EZE-13 | 2026-09-05 23:33:46 | 48.94897 | 20.64151 | 114° | 141km/h | 7170m | 6.3m/s | -24.0°C | 24.3% | 413.8hPa | 0V | 00:00:00 | 00:00:00 | 00:00:00 | |
| SQ9EZE-13 | 2026-09-05 23:33:30 | 48.95141 | 20.63298 | 114° | 150km/h | 7083m | 4.6m/s | -23.4°C | 22.1% | 418.8hPa | 0V | 00:00:00 | 00:00:00 | 00:00:00 | |
| SQ9EZE-13 | 2026-09-05 23:33:14 | 48.95378 | 20.62509 | 116° | 148km/h | 6984m | 5.4m/s | -22.7°C | 22.6% | 424.4hPa | 0V | 00:00:00 | 00:00:00 | 00:00:00 | |
| SQ9EZE-14 | 2026-09-05 23:33:09 | 48.95452 | 20.62234 | 110° | 151km/h | 6959m | 3.4m/s | -22.5°C | 23.2% | 425.8hPa | 0V | 00:00:00 | 00:00:00 | 00:00:00 | |
| GYPAP8-17 | 2026-09-05 23:33:08 | 48.95465 | 20.62179 | 110° | 151km/h | 6953m | 7.1m/s | -22.5°C | 22.8% | 426.1hPa | 0V | 00:00:00 | 00:00:00 | 00:00:00 | |
| SQ9EZE-13 | 2026-09-05 23:32:58 | 48.95600 | 20.61660 | 114° | 141km/h | 6899m | 6.0m/s | -22.0°C | 24.0% | 429.3hPa | 0V | 00:00:00 | 00:00:00 | 00:00:00 | |
| SQ9EZE-14 | 2026-09-05 23:32:54 | 48.95667 | 20.61458 | 118° | 151km/h | 6883m | 3.2m/s | -21.9°C | 0% | 0hPa | 0V | 00:00:00 | 00:00:00 | 00:00:00 | |
| SQ9EZE-13 | 2026-09-05 23:32:42 | 48.95811 | 20.60819 | 114° | 148km/h | 6812m | 5.3m/s | -21.4°C | 23.0% | 434.4hPa | 0V | 00:00:00 | 00:00:00 | 00:00:00 | |
| SQ9EZE-13 | 2026-09-05 23:32:26 | 48.96018 | 20.59965 | 112° | 164km/h | 6708m | 7.6m/s | -20.6°C | 24.4% | 440.4hPa | 0V | 00:00:00 | 00:00:00 | 00:00:00 | |
| GYPAP8-17 | 2026-09-05 23:32:17 | 48.96128 | 20.59477 | 107° | 142km/h | 6653m | 3.5m/s | -20.2°C | 24.7% | 443.8hPa | 0V | 00:00:00 | 00:00:00 | 00:00:00 | |
| SQ9EZE-13 | 2026-09-05 23:32:10 | 48.96213 | 20.59104 | 110° | 139km/h | 6611m | 6.3m/s | -19.8°C | 24.0% | 446.2hPa | 0V | 00:00:00 | 00:00:00 | 00:00:00 | |
| SQ9EZE-13 | 2026-09-05 23:31:55 | 48.96381 | 20.58309 | 114° | 150km/h | 6514m | 9.4m/s | -18.9°C | 23.6% | 452.1hPa | 0V | 00:00:00 | 00:00:00 | 00:00:00 | |
| SQ9EZE-13 | 2026-09-05 23:31:39 | 48.96581 | 20.57463 | 107° | 137km/h | 6422m | 4.6m/s | -18.2°C | 25.3% | 457.8hPa | 0V | 00:00:00 | 00:00:00 | 00:00:00 | |
| GYPAP8-17 | 2026-09-05 23:31:33 | 48.96642 | 20.57157 | 108° | 137km/h | 6384m | 8.4m/s | -17.8°C | 25.3% | 460.0hPa | 0V | 00:00:00 | 00:00:00 | 00:00:00 | |
| SQ9EZE-13 | 2026-09-05 23:31:24 | 48.96749 | 20.56703 | 110° | 139km/h | 6319m | 8.4m/s | -17.3°C | 24.9% | 464.1hPa | 0V | 00:00:00 | 00:00:00 | 00:00:00 | |
| SQ9EZE-13 | 2026-09-05 23:31:08 | 48.96915 | 20.55867 | 102° | 135km/h | 6231m | 5.5m/s | -16.6°C | 27.4% | 469.5hPa | 0V | 00:00:00 | 00:00:00 | 00:00:00 | |
| SQ9EZE-13 | 2026-09-05 23:30:53 | 48.97043 | 20.55093 | 108° | 146km/h | 6141m | 5.4m/s | -15.8°C | 25.4% | 475.2hPa | 0V | 00:00:00 | 00:00:00 | 00:00:00 | |
| SQ9EZE-14 | 2026-09-05 23:30:49 | 48.97097 | 20.54828 | 105° | 148km/h | 6109m | 4.9m/s | -15.5°C | 0% | 0hPa | 0V | 00:00:00 | 00:00:00 | 00:00:00 | |
| SQ9EZE-13 | 2026-09-05 23:30:37 | 48.97209 | 20.54260 | 110° | 144km/h | 6031m | 6.2m/s | -14.9°C | 24.7% | 482.2hPa | 0V | 00:00:00 | 00:00:00 | 00:00:00 | |
| SQ9EZE-14 | 2026-09-05 23:30:33 | 48.97257 | 20.54045 | 110° | 142km/h | 6010m | 6.2m/s | -14.7°C | 0% | 0hPa | 0V | 00:00:00 | 00:00:00 | 00:00:00 | |
| SQ9EZE-13 | 2026-09-05 23:30:22 | 48.97349 | 20.53460 | 102° | 130km/h | 5933m | 7.0m/s | -14.0°C | 23.8% | 488.6hPa | 0V | 00:00:00 | 00:00:00 | 00:00:00 | |
| SQ9EZE-13 | 2026-09-05 23:30:07 | 48.97495 | 20.52728 | 105° | 131km/h | 5833m | 6.6m/s | -13.2°C | 24.7% | 495.1hPa | 0V | 00:00:00 | 00:00:00 | 00:00:00 | |
| GYPAP8-17 | 2026-09-05 23:30:04 | 48.97515 | 20.52578 | 103° | 133km/h | 5811m | 9.3m/s | -13.1°C | 25.0% | 496.5hPa | 0V | 00:00:00 | 00:00:00 | 00:00:00 | |
| SQ9EZE-13 | 2026-09-05 23:29:51 | 48.97615 | 20.51901 | 105° | 137km/h | 5708m | 9.5m/s | -12.3°C | 24.9% | 503.3hPa | 0V | 00:00:00 | 00:00:00 | 00:00:00 | |
| SQ9EZE-13 | 2026-09-05 23:29:36 | 48.97740 | 20.51136 | 102° | 133km/h | 5597m | 7.1m/s | -11.4°C | 19.8% | 510.7hPa | 0V | 00:00:00 | 00:00:00 | 00:00:00 | |
| SQ9EZE-13 | 2026-09-05 23:29:06 | 48.97964 | 20.49591 | 97° | 137km/h | 5388m | 5.7m/s | -10.2°C | 18.6% | 524.7hPa | 0V | 00:00:00 | 00:00:00 | 00:00:00 | |
| SQ9EZE-13 | 2026-09-05 23:28:49 | 48.98029 | 20.48744 | 107° | 148km/h | 5312m | 4.9m/s | -9.9°C | 13.3% | 530.1hPa | 0V | 00:00:00 | 00:00:00 | 00:00:00 | |
| GYPAP8-17 | 2026-09-05 23:28:35 | 48.98116 | 20.48077 | 99° | 135km/h | 5226m | 5.5m/s | -9.4°C | 10.7% | 536.0hPa | 0V | 00:00:00 | 00:00:00 | 00:00:00 | |
| SQ9EZE-13 | 2026-09-05 23:28:34 | 48.98121 | 20.48024 | 101° | 142km/h | 5222m | 4.4m/s | -9.3°C | 10.6% | 536.4hPa | 0V | 00:00:00 | 00:00:00 | 00:00:00 | |
| SQ9EZE-14 | 2026-09-05 23:28:27 | 48.98161 | 20.47674 | 106° | 122km/h | 5184m | 5.1m/s | -9.0°C | 0% | 0hPa | 0V | 00:00:00 | 00:00:00 | 00:00:00 | |
| SQ9EZE-13 | 2026-09-05 23:28:19 | 48.98233 | 20.47287 | 103° | 130km/h | 5135m | 4.8m/s | 0°C | 0% | 542.6hPa | 0V | 00:00:00 | 00:00:00 | 00:00:00 | |
| SQ9EZE-14 | 2026-09-05 23:28:12 | 48.98274 | 20.46940 | 109° | 124km/h | 5108m | 6.3m/s | 0°C | 0% | 0hPa | 0V | 00:00:00 | 00:00:00 | 00:00:00 | |
| SQ9EZE-13 | 2026-09-05 23:28:03 | 48.98368 | 20.46491 | 100° | 135km/h | 5062m | 5.1m/s | 0°C | 0% | 0hPa | 0V | 00:00:00 | 00:00:00 | 00:00:00 | |
| GYPAP8-17 | 2026-09-05 23:27:51 | 48.98467 | 20.45886 | 105° | 120km/h | 4995m | 4.6m/s | -8.8°C | 0% | 0hPa | 0V | 00:00:00 | 00:00:00 | 00:00:00 | |
| SQ9EZE-13 | 2026-09-05 23:27:48 | 48.98490 | 20.45756 | 105° | 119km/h | 4982m | 4.5m/s | 0°C | 0% | 0hPa | 0V | 00:00:00 | 00:00:00 | 00:00:00 | |
| SQ9EZE-13 | 2026-09-05 23:27:32 | 48.98617 | 20.44960 | 106° | 119km/h | 4911m | 4.6m/s | 0°C | 0% | 0hPa | 0V | 00:00:00 | 00:00:00 | 00:00:00 | |
| GYPAP8-17 | 2026-09-05 23:27:07 | 48.98915 | 20.43853 | 115° | 122km/h | 4790m | 5.2m/s | -8.2°C | 0% | 0hPa | 0V | 00:00:00 | 00:00:00 | 00:00:00 | |
| GYPAP8-17 | 2026-09-05 23:26:23 | 48.99480 | 20.42048 | 125° | 104km/h | 4556m | 5.5m/s | -7.3°C | 0% | 0hPa | 0V | 00:00:00 | 00:00:00 | 00:00:00 | |
| GYPAP8-17 | 2026-09-05 23:25:39 | 48.99955 | 20.40503 | 125° | 93km/h | 4367m | 4.6m/s | 0°C | 0% | 0hPa | 0V | 00:00:00 | 00:00:00 | 00:00:00 | |
| GYPAP8-17 | 2026-09-05 23:24:55 | 49.00476 | 20.39209 | 116° | 102km/h | 4136m | 4.3m/s | 0°C | 0% | 0hPa | 0V | 00:00:00 | 00:00:00 | 00:00:00 | |
| GYPAP8-17 | 2026-09-05 23:24:11 | 49.01050 | 20.37777 | 125° | 108km/h | 3875m | 5.5m/s | 0°C | 0% | 0hPa | 0V | 00:00:00 | 00:00:00 | 00:00:00 | |
| GYPAP8-17 | 2026-09-05 23:23:26 | 49.01632 | 20.36501 | 122° | 73km/h | 3531m | 9.0m/s | 0°C | 0% | 0hPa | 0V | 00:00:00 | 00:00:00 | 00:00:00 |